<?xml version='1.0' encoding='UTF-8'?><gpx version="1.1" creator="JPX - https://github.com/jenetics/jpx" xmlns="http://www.topografix.com/GPX/1/1"><trk><trkseg><trkpt lat="45.414525673800135" lon="7.713246972767435"><ele>489.0</ele><time>2026-03-29T09:31:07.001Z</time></trkpt><trkpt lat="45.41445982397907" lon="7.713284443664097"><ele>489.0</ele><time>2026-03-29T09:31:09.001Z</time></trkpt><trkpt lat="45.41440815033938" lon="7.71336288123073"><ele>489.0</ele><time>2026-03-29T09:31:11.001Z</time></trkpt><trkpt lat="45.41434004846634" lon="7.7134629416170775"><ele>489.0</ele><time>2026-03-29T09:31:13.001Z</time></trkpt><trkpt lat="45.41427077898269" lon="7.713473882210115"><ele>489.0</ele><time>2026-03-29T09:31:14.001Z</time></trkpt><trkpt lat="45.41419476944222" lon="7.713589518664732"><ele>489.0</ele><time>2026-03-29T09:31:16.001Z</time></trkpt><trkpt lat="45.41411365999321" lon="7.7136895723469"><ele>486.0</ele><time>2026-03-29T09:31:18.001Z</time></trkpt><trkpt lat="45.41404978127719" lon="7.713817676162962"><ele>483.0</ele><time>2026-03-29T09:31:20.001Z</time></trkpt><trkpt lat="45.41398734562681" lon="7.713947421193588"><ele>480.0</ele><time>2026-03-29T09:31:22.001Z</time></trkpt><trkpt lat="45.41393122709464" lon="7.714080673887597"><ele>477.0</ele><time>2026-03-29T09:31:24.001Z</time></trkpt><trkpt lat="45.4138573955831" lon="7.714210857656716"><ele>474.0</ele><time>2026-03-29T09:31:26.001Z</time></trkpt><trkpt lat="45.41380339728218" lon="7.714281279981423"><ele>474.0</ele><time>2026-03-29T09:31:27.001Z</time></trkpt><trkpt lat="45.41372769360118" lon="7.714391657404336"><ele>474.0</ele><time>2026-03-29T09:31:29.001Z</time></trkpt><trkpt lat="45.413678239509885" lon="7.714457595895785"><ele>474.0</ele><time>2026-03-29T09:31:30.001Z</time></trkpt><trkpt lat="45.41362843477779" lon="7.714514806082891"><ele>474.0</ele><time>2026-03-29T09:31:31.001Z</time></trkpt><trkpt lat="45.41356755250921" lon="7.714574868813613"><ele>474.0</ele><time>2026-03-29T09:31:32.001Z</time></trkpt><trkpt lat="45.41349088754585" lon="7.714612720522529"><ele>474.0</ele><time>2026-03-29T09:31:33.001Z</time></trkpt><trkpt lat="45.41339963266569" lon="7.7146505879253455"><ele>471.6666666666667</ele><time>2026-03-29T09:31:34.001Z</time></trkpt><trkpt lat="45.41330634394797" lon="7.714690253434102"><ele>469.33333333333337</ele><time>2026-03-29T09:31:35.001Z</time></trkpt><trkpt lat="45.41321904819923" lon="7.714723538634862"><ele>467.0</ele><time>2026-03-29T09:31:36.001Z</time></trkpt><trkpt lat="45.41314218601135" lon="7.714744925734838"><ele>464.6666666666667</ele><time>2026-03-29T09:31:37.001Z</time></trkpt><trkpt lat="45.413072074717014" lon="7.714740669055468"><ele>462.33333333333337</ele><time>2026-03-29T09:31:38.001Z</time></trkpt><trkpt lat="45.4130092585159" lon="7.714720559883126"><ele>460.0</ele><time>2026-03-29T09:31:39.001Z</time></trkpt><trkpt lat="45.41295702865858" lon="7.714644030363737"><ele>459.50000000000006</ele><time>2026-03-29T09:31:40.001Z</time></trkpt><trkpt lat="45.412919062151694" lon="7.714532168518545"><ele>459.0</ele><time>2026-03-29T09:31:41.001Z</time></trkpt><trkpt lat="45.41288294333986" lon="7.714416677850261"><ele>458.5</ele><time>2026-03-29T09:31:42.001Z</time></trkpt><trkpt lat="45.41287524706305" lon="7.71431261607917"><ele>458.0</ele><time>2026-03-29T09:31:43.001Z</time></trkpt><trkpt lat="45.412883596124445" lon="7.714196308302314"><ele>457.50000000000006</ele><time>2026-03-29T09:31:44.001Z</time></trkpt><trkpt lat="45.41288002493161" lon="7.714100641311817"><ele>457.0</ele><time>2026-03-29T09:31:45.001Z</time></trkpt><trkpt lat="45.412813429474596" lon="7.71400617561088"><ele>457.0</ele><time>2026-03-29T09:31:47.001Z</time></trkpt><trkpt lat="45.412714701168646" lon="7.714051226609096"><ele>457.0</ele><time>2026-03-29T09:31:49.001Z</time></trkpt><trkpt lat="45.41273176578817" lon="7.714286131274039"><ele>457.0</ele><time>2026-03-29T09:31:50.001Z</time></trkpt><trkpt lat="45.41270911370094" lon="7.714410590676664"><ele>457.0</ele><time>2026-03-29T09:31:51.001Z</time></trkpt><trkpt lat="45.412687035149965" lon="7.714544387155807"><ele>455.8</ele><time>2026-03-29T09:31:52.001Z</time></trkpt><trkpt lat="45.41266822772283" lon="7.714678305587718"><ele>454.6</ele><time>2026-03-29T09:31:53.001Z</time></trkpt><trkpt lat="45.41267796443503" lon="7.714811580857116"><ele>453.40000000000003</ele><time>2026-03-29T09:31:54.001Z</time></trkpt><trkpt lat="45.41269146773206" lon="7.714938582740156"><ele>452.20000000000005</ele><time>2026-03-29T09:31:55.001Z</time></trkpt><trkpt lat="45.41270034046624" lon="7.715093923671673"><ele>451.0</ele><time>2026-03-29T09:31:56.001Z</time></trkpt><trkpt lat="45.41272414010221" lon="7.715259261226044"><ele>451.0</ele><time>2026-03-29T09:31:57.001Z</time></trkpt><trkpt lat="45.41274641735558" lon="7.715417654299046"><ele>451.0</ele><time>2026-03-29T09:31:58.001Z</time></trkpt><trkpt lat="45.41276564549446" lon="7.715564858476811"><ele>451.0</ele><time>2026-03-29T09:31:59.001Z</time></trkpt><trkpt lat="45.412784521197565" lon="7.715709364566336"><ele>451.0</ele><time>2026-03-29T09:32:00.001Z</time></trkpt><trkpt lat="45.41279339258037" lon="7.715846066619552"><ele>451.0</ele><time>2026-03-29T09:32:01Z</time></trkpt><trkpt lat="45.41278765544934" lon="7.715976335109809"><ele>450.00000000000006</ele><time>2026-03-29T09:32:02Z</time></trkpt><trkpt lat="45.412764829521905" lon="7.716088202019931"><ele>449.0</ele><time>2026-03-29T09:32:03Z</time></trkpt><trkpt lat="45.41273688396679" lon="7.716198307703657"><ele>448.0</ele><time>2026-03-29T09:32:04Z</time></trkpt><trkpt lat="45.4127107625972" lon="7.71629492124943"><ele>447.0</ele><time>2026-03-29T09:32:05Z</time></trkpt><trkpt lat="45.41267414622726" lon="7.716427605055701"><ele>446.00000000000006</ele><time>2026-03-29T09:32:07Z</time></trkpt><trkpt lat="45.412647909349296" lon="7.716522677254807"><ele>445.0</ele><time>2026-03-29T09:32:10Z</time></trkpt><trkpt lat="45.412620454475494" lon="7.716622163044771"><ele>445.0</ele><time>2026-03-29T09:32:12Z</time></trkpt><trkpt lat="45.41259066284989" lon="7.716731047017687"><ele>445.0</ele><time>2026-03-29T09:32:14Z</time></trkpt><trkpt lat="45.41256244988334" lon="7.7168387645410155"><ele>445.0</ele><time>2026-03-29T09:32:16Z</time></trkpt><trkpt lat="45.41273388171154" lon="7.716882081133576"><ele>445.0</ele><time>2026-03-29T09:32:22Z</time></trkpt><trkpt lat="45.412797422529906" lon="7.7168275866337055"><ele>445.0</ele><time>2026-03-29T09:32:24Z</time></trkpt><trkpt lat="45.4128652114463" lon="7.716804358547332"><ele>445.0</ele><time>2026-03-29T09:32:26Z</time></trkpt><trkpt lat="45.412928161744965" lon="7.716802678838069"><ele>445.0</ele><time>2026-03-29T09:32:29Z</time></trkpt><trkpt lat="45.41297480914957" lon="7.716870300344785"><ele>445.0</ele><time>2026-03-29T09:32:33.001Z</time></trkpt><trkpt lat="45.4129139752299" lon="7.716817193588566"><ele>445.0</ele><time>2026-03-29T09:32:38.001Z</time></trkpt><trkpt lat="45.41284551369723" lon="7.716845023068653"><ele>445.0</ele><time>2026-03-29T09:32:40.001Z</time></trkpt><trkpt lat="45.4127805334466" lon="7.716857879552512"><ele>445.0</ele><time>2026-03-29T09:32:42.001Z</time></trkpt><trkpt lat="45.412710981362515" lon="7.716908124238999"><ele>445.0</ele><time>2026-03-29T09:32:44.001Z</time></trkpt><trkpt lat="45.41262126676741" lon="7.71695432723662"><ele>445.00000000000006</ele><time>2026-03-29T09:32:46.001Z</time></trkpt><trkpt lat="45.412574358977494" lon="7.716882498986532"><ele>445.0</ele><time>2026-03-29T09:32:49.001Z</time></trkpt><trkpt lat="45.412611662680504" lon="7.716773478011976"><ele>445.0</ele><time>2026-03-29T09:32:51.001Z</time></trkpt><trkpt lat="45.412645030661075" lon="7.716680999518661"><ele>445.0</ele><time>2026-03-29T09:32:52.001Z</time></trkpt><trkpt lat="45.41267125106164" lon="7.716591792481939"><ele>445.00000000000006</ele><time>2026-03-29T09:32:53.001Z</time></trkpt><trkpt lat="45.412704384609626" lon="7.716452312854685"><ele>445.0</ele><time>2026-03-29T09:32:55.001Z</time></trkpt><trkpt lat="45.41274145238201" lon="7.716328524433101"><ele>445.00000000000006</ele><time>2026-03-29T09:32:57.001Z</time></trkpt><trkpt lat="45.41277231601289" lon="7.716228653131045"><ele>445.0</ele><time>2026-03-29T09:32:59.001Z</time></trkpt><trkpt lat="45.41279167431423" lon="7.716099982378835"><ele>445.0</ele><time>2026-03-29T09:33:38.001Z</time></trkpt><trkpt lat="45.41281695700093" lon="7.7159420137864325"><ele>445.0</ele><time>2026-03-29T09:33:40.001Z</time></trkpt><trkpt lat="45.41282255346261" lon="7.715829442721958"><ele>445.00000000000006</ele><time>2026-03-29T09:33:42.001Z</time></trkpt><trkpt lat="45.41281335350016" lon="7.715720459665129"><ele>445.0</ele><time>2026-03-29T09:33:45.001Z</time></trkpt><trkpt lat="45.41280721886073" lon="7.71562393520761"><ele>445.00000000000006</ele><time>2026-03-29T09:33:52.001Z</time></trkpt><trkpt lat="45.41282006816935" lon="7.715722303808547"><ele>445.0</ele><time>2026-03-29T09:33:56.001Z</time></trkpt><trkpt lat="45.41282736033828" lon="7.715817481782241"><ele>445.0</ele><time>2026-03-29T09:33:58.001Z</time></trkpt><trkpt lat="45.4128263445254" lon="7.71598810352679"><ele>445.0</ele><time>2026-03-29T09:34:00.001Z</time></trkpt><trkpt lat="45.412786722428486" lon="7.716097183544484"><ele>445.00000000000006</ele><time>2026-03-29T09:34:01.001Z</time></trkpt><trkpt lat="45.41275780865989" lon="7.716213170509553"><ele>445.0</ele><time>2026-03-29T09:34:02.001Z</time></trkpt><trkpt lat="45.41274126739944" lon="7.716341479981195"><ele>445.0</ele><time>2026-03-29T09:34:03.001Z</time></trkpt><trkpt lat="45.41268757497191" lon="7.716456091769391"><ele>445.0</ele><time>2026-03-29T09:34:04.001Z</time></trkpt><trkpt lat="45.41265243274071" lon="7.716581693739717"><ele>445.0</ele><time>2026-03-29T09:34:05.001Z</time></trkpt><trkpt lat="45.41261805521368" lon="7.716702980822819"><ele>445.0</ele><time>2026-03-29T09:34:06.001Z</time></trkpt><trkpt lat="45.412586486831415" lon="7.716816758219768"><ele>445.0</ele><time>2026-03-29T09:34:07Z</time></trkpt><trkpt lat="45.41255619813259" lon="7.716927881224478"><ele>443.1666666666667</ele><time>2026-03-29T09:34:08Z</time></trkpt><trkpt lat="45.41251762914554" lon="7.717025176915922"><ele>441.33333333333337</ele><time>2026-03-29T09:34:09Z</time></trkpt><trkpt lat="45.412471297298744" lon="7.717106264272431"><ele>439.5</ele><time>2026-03-29T09:34:10Z</time></trkpt><trkpt lat="45.412411121550804" lon="7.717150390417446"><ele>437.66666666666663</ele><time>2026-03-29T09:34:11Z</time></trkpt><trkpt lat="45.412341369229566" lon="7.71714146711339"><ele>435.8333333333333</ele><time>2026-03-29T09:34:12Z</time></trkpt><trkpt lat="45.4122709547072" lon="7.717077778588703"><ele>434.0</ele><time>2026-03-29T09:34:13Z</time></trkpt><trkpt lat="45.41222179507925" lon="7.71696844791558"><ele>434.4</ele><time>2026-03-29T09:34:14Z</time></trkpt><trkpt lat="45.41216532521668" lon="7.716845548682169"><ele>434.79999999999995</ele><time>2026-03-29T09:34:15Z</time></trkpt><trkpt lat="45.41211068995897" lon="7.716746426345671"><ele>435.20000000000005</ele><time>2026-03-29T09:34:16Z</time></trkpt><trkpt lat="45.41204620397169" lon="7.716687650450974"><ele>435.6</ele><time>2026-03-29T09:34:17Z</time></trkpt><trkpt lat="45.41196111867795" lon="7.7166814377245645"><ele>436.0</ele><time>2026-03-29T09:34:18Z</time></trkpt><trkpt lat="45.41186291377703" lon="7.716717883548955"><ele>436.0</ele><time>2026-03-29T09:34:19Z</time></trkpt><trkpt lat="45.41175936012009" lon="7.716755550605968"><ele>436.0</ele><time>2026-03-29T09:34:20Z</time></trkpt><trkpt lat="45.41166178491212" lon="7.716784134018498"><ele>436.0</ele><time>2026-03-29T09:34:21Z</time></trkpt><trkpt lat="45.41156391742274" lon="7.7167987522661665"><ele>436.0</ele><time>2026-03-29T09:34:22Z</time></trkpt><trkpt lat="45.41147312200749" lon="7.716820257152799"><ele>436.0</ele><time>2026-03-29T09:34:23Z</time></trkpt><trkpt lat="45.41138921250399" lon="7.716861002263266"><ele>432.83333333333337</ele><time>2026-03-29T09:34:24Z</time></trkpt><trkpt lat="45.41131924469653" lon="7.716927342573799"><ele>429.6666666666667</ele><time>2026-03-29T09:34:25Z</time></trkpt><trkpt lat="45.41126382752091" lon="7.717011545909463"><ele>426.5</ele><time>2026-03-29T09:34:26Z</time></trkpt><trkpt lat="45.41122570207056" lon="7.717122367409042"><ele>423.33333333333337</ele><time>2026-03-29T09:34:27Z</time></trkpt><trkpt lat="45.411202635477494" lon="7.7172473165552"><ele>420.1666666666667</ele><time>2026-03-29T09:34:28Z</time></trkpt><trkpt lat="45.41119468443496" lon="7.717370589037546"><ele>417.0</ele><time>2026-03-29T09:34:29Z</time></trkpt><trkpt lat="45.41121685611778" lon="7.717489654081297"><ele>417.0</ele><time>2026-03-29T09:34:30Z</time></trkpt><trkpt lat="45.411271987576505" lon="7.717585296480451"><ele>417.0</ele><time>2026-03-29T09:34:31Z</time></trkpt><trkpt lat="45.41134697245064" lon="7.717648395851882"><ele>417.0</ele><time>2026-03-29T09:34:32Z</time></trkpt><trkpt lat="45.411437576661264" lon="7.717669407270594"><ele>417.0</ele><time>2026-03-29T09:34:33Z</time></trkpt><trkpt lat="45.41152691476447" lon="7.717653113009523"><ele>417.0</ele><time>2026-03-29T09:34:34Z</time></trkpt><trkpt lat="45.41160376254139" lon="7.717606528038103"><ele>417.0</ele><time>2026-03-29T09:34:35Z</time></trkpt><trkpt lat="45.411661927600605" lon="7.717543280353219"><ele>415.8333333333333</ele><time>2026-03-29T09:34:36Z</time></trkpt><trkpt lat="45.411717903518756" lon="7.717496063133115"><ele>414.66666666666663</ele><time>2026-03-29T09:34:37Z</time></trkpt><trkpt lat="45.41184382597671" lon="7.717476862437931"><ele>413.5</ele><time>2026-03-29T09:34:39Z</time></trkpt><trkpt lat="45.411903186070866" lon="7.717523488480792"><ele>412.3333333333333</ele><time>2026-03-29T09:34:40Z</time></trkpt><trkpt lat="45.4119570157248" lon="7.7175961535608755"><ele>411.16666666666663</ele><time>2026-03-29T09:34:41Z</time></trkpt><trkpt lat="45.412024660544155" lon="7.717672865530442"><ele>410.0</ele><time>2026-03-29T09:34:42Z</time></trkpt><trkpt lat="45.412103222617446" lon="7.717742622871434"><ele>410.99999999999994</ele><time>2026-03-29T09:34:43Z</time></trkpt><trkpt lat="45.412184673085804" lon="7.717798445282991"><ele>412.0</ele><time>2026-03-29T09:34:44Z</time></trkpt><trkpt lat="45.412264492614355" lon="7.717855503133702"><ele>413.0</ele><time>2026-03-29T09:34:45Z</time></trkpt><trkpt lat="45.412339350528285" lon="7.717914661751949"><ele>414.0</ele><time>2026-03-29T09:34:46Z</time></trkpt><trkpt lat="45.412401536428106" lon="7.717984216973441"><ele>414.99999999999994</ele><time>2026-03-29T09:34:47Z</time></trkpt><trkpt lat="45.41244687776144" lon="7.718067069160677"><ele>416.0</ele><time>2026-03-29T09:34:48Z</time></trkpt><trkpt lat="45.412500547468476" lon="7.718224726512674"><ele>416.0</ele><time>2026-03-29T09:34:50Z</time></trkpt><trkpt lat="45.41259793890259" lon="7.718357855580486"><ele>416.0</ele><time>2026-03-29T09:34:52Z</time></trkpt><trkpt lat="45.41269449407599" lon="7.718340608333905"><ele>416.0</ele><time>2026-03-29T09:34:53Z</time></trkpt><trkpt lat="45.41278755029503" lon="7.718332306998211"><ele>416.0</ele><time>2026-03-29T09:34:54Z</time></trkpt><trkpt lat="45.41288870107459" lon="7.718355563468714"><ele>416.0</ele><time>2026-03-29T09:34:55.001Z</time></trkpt><trkpt lat="45.41299733371532" lon="7.718342672177618"><ele>415.20000000000005</ele><time>2026-03-29T09:34:56.001Z</time></trkpt><trkpt lat="45.413098804147786" lon="7.718377636259457"><ele>414.40000000000003</ele><time>2026-03-29T09:34:57.001Z</time></trkpt><trkpt lat="45.4131976540301" lon="7.718389231139368"><ele>413.6</ele><time>2026-03-29T09:34:58.001Z</time></trkpt><trkpt lat="45.41331138029091" lon="7.718379515928286"><ele>412.8</ele><time>2026-03-29T09:34:59.001Z</time></trkpt><trkpt lat="45.41340897029776" lon="7.718314603042593"><ele>412.0</ele><time>2026-03-29T09:35:00.001Z</time></trkpt><trkpt lat="45.41347123662909" lon="7.718279853771695"><ele>412.0</ele><time>2026-03-29T09:35:01.001Z</time></trkpt><trkpt lat="45.41352971730814" lon="7.718207308974486"><ele>412.0</ele><time>2026-03-29T09:35:02.001Z</time></trkpt><trkpt lat="45.41362585804527" lon="7.71813526605522"><ele>412.0</ele><time>2026-03-29T09:35:04.001Z</time></trkpt><trkpt lat="45.41366861085602" lon="7.718262192697925"><ele>412.0</ele><time>2026-03-29T09:35:06.001Z</time></trkpt><trkpt lat="45.4136242518257" lon="7.7183516276876345"><ele>412.0</ele><time>2026-03-29T09:35:07.001Z</time></trkpt><trkpt lat="45.413531929503144" lon="7.718393305181918"><ele>412.0</ele><time>2026-03-29T09:35:08.001Z</time></trkpt><trkpt lat="45.41345032007931" lon="7.718461630705692"><ele>412.0</ele><time>2026-03-29T09:35:09.001Z</time></trkpt><trkpt lat="45.41336671737335" lon="7.7185557428727956"><ele>412.0</ele><time>2026-03-29T09:35:10.001Z</time></trkpt><trkpt lat="45.41326554541182" lon="7.718610331916021"><ele>412.0</ele><time>2026-03-29T09:35:11.001Z</time></trkpt><trkpt lat="45.41316929154843" lon="7.718650860991746"><ele>412.0</ele><time>2026-03-29T09:35:12.001Z</time></trkpt><trkpt lat="45.413063171295704" lon="7.718674104139097"><ele>409.8</ele><time>2026-03-29T09:35:13.001Z</time></trkpt><trkpt lat="45.41294392180732" lon="7.718680291759942"><ele>407.6</ele><time>2026-03-29T09:35:14.001Z</time></trkpt><trkpt lat="45.41283062568096" lon="7.718681368830435"><ele>405.40000000000003</ele><time>2026-03-29T09:35:15.001Z</time></trkpt><trkpt lat="45.412723954719404" lon="7.718677150493684"><ele>403.20000000000005</ele><time>2026-03-29T09:35:16.001Z</time></trkpt><trkpt lat="45.41262239518916" lon="7.718668274871766"><ele>401.0</ele><time>2026-03-29T09:35:17.001Z</time></trkpt><trkpt lat="45.41252755441649" lon="7.718657594366437"><ele>401.0</ele><time>2026-03-29T09:35:18.001Z</time></trkpt><trkpt lat="45.41242200614246" lon="7.71866608551726"><ele>401.0</ele><time>2026-03-29T09:35:19.001Z</time></trkpt><trkpt lat="45.41232819300336" lon="7.71865781217971"><ele>401.0</ele><time>2026-03-29T09:35:20.001Z</time></trkpt><trkpt lat="45.41224070915563" lon="7.718665893776896"><ele>401.0</ele><time>2026-03-29T09:35:21.001Z</time></trkpt><trkpt lat="45.41215394649538" lon="7.718710072114802"><ele>401.0</ele><time>2026-03-29T09:35:22Z</time></trkpt><trkpt lat="45.41207025489135" lon="7.718773463436642"><ele>400.8</ele><time>2026-03-29T09:35:23Z</time></trkpt><trkpt lat="45.411979986625816" lon="7.718828998665066"><ele>400.6</ele><time>2026-03-29T09:35:24Z</time></trkpt><trkpt lat="45.411883119357725" lon="7.7188814981887175"><ele>400.4</ele><time>2026-03-29T09:35:25Z</time></trkpt><trkpt lat="45.41180018002773" lon="7.71890305133818"><ele>400.2</ele><time>2026-03-29T09:35:26Z</time></trkpt><trkpt lat="45.41171668903491" lon="7.7188551698911745"><ele>400.0</ele><time>2026-03-29T09:35:27Z</time></trkpt><trkpt lat="45.41161830836833" lon="7.718831918117227"><ele>400.0</ele><time>2026-03-29T09:35:28Z</time></trkpt><trkpt lat="45.41150192031688" lon="7.718823421834661"><ele>400.0</ele><time>2026-03-29T09:35:29Z</time></trkpt><trkpt lat="45.411400435653825" lon="7.718796999557319"><ele>400.0</ele><time>2026-03-29T09:35:30Z</time></trkpt><trkpt lat="45.41129793112987" lon="7.718780582963521"><ele>400.0</ele><time>2026-03-29T09:35:31Z</time></trkpt><trkpt lat="45.41120191771616" lon="7.71877482985421"><ele>400.0</ele><time>2026-03-29T09:35:32Z</time></trkpt><trkpt lat="45.41110680494075" lon="7.718782691386042"><ele>398.0</ele><time>2026-03-29T09:35:33Z</time></trkpt><trkpt lat="45.411014068472134" lon="7.718778114931294"><ele>396.0</ele><time>2026-03-29T09:35:34Z</time></trkpt><trkpt lat="45.41092071523538" lon="7.718824082883733"><ele>394.0</ele><time>2026-03-29T09:35:35Z</time></trkpt><trkpt lat="45.41082904520342" lon="7.718899059450527"><ele>392.0</ele><time>2026-03-29T09:35:36Z</time></trkpt><trkpt lat="45.41073542531349" lon="7.718943700537724"><ele>390.0</ele><time>2026-03-29T09:35:37Z</time></trkpt><trkpt lat="45.41064048773827" lon="7.7189445950311475"><ele>390.0</ele><time>2026-03-29T09:35:38Z</time></trkpt><trkpt lat="45.41055834107997" lon="7.718949802109514"><ele>390.0</ele><time>2026-03-29T09:35:39Z</time></trkpt><trkpt lat="45.41047808867912" lon="7.718964782385079"><ele>390.0</ele><time>2026-03-29T09:35:40Z</time></trkpt><trkpt lat="45.410394881293335" lon="7.718979721834673"><ele>390.0</ele><time>2026-03-29T09:35:41Z</time></trkpt><trkpt lat="45.41031283265408" lon="7.719010437105453"><ele>390.0</ele><time>2026-03-29T09:35:42Z</time></trkpt><trkpt lat="45.41023293509309" lon="7.719060596722765"><ele>390.0</ele><time>2026-03-29T09:35:43Z</time></trkpt><trkpt lat="45.41016029438734" lon="7.719123974123535"><ele>389.8333333333333</ele><time>2026-03-29T09:35:44Z</time></trkpt><trkpt lat="45.41009750904719" lon="7.71920082834716"><ele>389.66666666666663</ele><time>2026-03-29T09:35:45Z</time></trkpt><trkpt lat="45.41003534958561" lon="7.719271147705631"><ele>389.5</ele><time>2026-03-29T09:35:46Z</time></trkpt><trkpt lat="45.4099801094988" lon="7.7193312932177625"><ele>389.3333333333333</ele><time>2026-03-29T09:35:47Z</time></trkpt><trkpt lat="45.40991613711185" lon="7.719395503222085"><ele>389.16666666666663</ele><time>2026-03-29T09:35:49Z</time></trkpt><trkpt lat="45.409967389779624" lon="7.71953743749876"><ele>389.0</ele><time>2026-03-29T09:36:52Z</time></trkpt><trkpt lat="45.41004942584286" lon="7.719647500257381"><ele>388.99999999999994</ele><time>2026-03-29T09:36:54Z</time></trkpt><trkpt lat="45.41012464919713" lon="7.719749849202987"><ele>389.0</ele><time>2026-03-29T09:36:56Z</time></trkpt><trkpt lat="45.41016688361216" lon="7.7198474379784585"><ele>389.0</ele><time>2026-03-29T09:36:58Z</time></trkpt><trkpt lat="45.410205683060774" lon="7.7199432264482235"><ele>389.0</ele><time>2026-03-29T09:37:00Z</time></trkpt><trkpt lat="45.410250904293896" lon="7.720027868439921"><ele>388.99999999999994</ele><time>2026-03-29T09:37:02Z</time></trkpt><trkpt lat="45.41028589380007" lon="7.720114516629557"><ele>389.0</ele><time>2026-03-29T09:37:04Z</time></trkpt><trkpt lat="45.41032082797422" lon="7.720232073267114"><ele>388.99999999999994</ele><time>2026-03-29T09:37:07Z</time></trkpt><trkpt lat="45.41036194450299" lon="7.720327895819092"><ele>389.0</ele><time>2026-03-29T09:37:20Z</time></trkpt><trkpt lat="45.41037466180718" lon="7.7204261357293795"><ele>389.0</ele><time>2026-03-29T09:37:22Z</time></trkpt><trkpt lat="45.410421877908846" lon="7.720486729516536"><ele>389.0</ele><time>2026-03-29T09:37:25Z</time></trkpt><trkpt lat="45.41034470711076" lon="7.720344961229633"><ele>388.99999999999994</ele><time>2026-03-29T09:38:22Z</time></trkpt><trkpt lat="45.410319207713066" lon="7.720239554693716"><ele>389.0</ele><time>2026-03-29T09:38:26Z</time></trkpt><trkpt lat="45.41028860344797" lon="7.72015464040274"><ele>389.0</ele><time>2026-03-29T09:38:29Z</time></trkpt><trkpt lat="45.41025195699964" lon="7.720075230881277"><ele>389.0</ele><time>2026-03-29T09:38:32Z</time></trkpt><trkpt lat="45.410211032189515" lon="7.719995340303751"><ele>389.0</ele><time>2026-03-29T09:39:17Z</time></trkpt><trkpt lat="45.410160560291956" lon="7.71991395622729"><ele>389.0</ele><time>2026-03-29T09:39:39Z</time></trkpt><trkpt lat="45.410119448510606" lon="7.719816726983278"><ele>389.0</ele><time>2026-03-29T09:39:42Z</time></trkpt><trkpt lat="45.410076206835384" lon="7.719730595959661"><ele>389.0</ele><time>2026-03-29T09:39:44Z</time></trkpt><trkpt lat="45.41002551694013" lon="7.719654248284612"><ele>389.0</ele><time>2026-03-29T09:39:46Z</time></trkpt><trkpt lat="45.40996421101029" lon="7.7195622827704184"><ele>388.99999999999994</ele><time>2026-03-29T09:39:48Z</time></trkpt><trkpt lat="45.409912309063536" lon="7.719503731567469"><ele>389.0</ele><time>2026-03-29T09:39:51Z</time></trkpt><trkpt lat="45.409843390145014" lon="7.719547968695423"><ele>389.0</ele><time>2026-03-29T09:39:59Z</time></trkpt><trkpt lat="45.40979007531962" lon="7.719620188662548"><ele>389.0</ele><time>2026-03-29T09:40:18.001Z</time></trkpt><trkpt lat="45.40970645753538" lon="7.719652809413939"><ele>388.99999999999994</ele><time>2026-03-29T09:40:21.001Z</time></trkpt><trkpt lat="45.40962939873286" lon="7.719746157725362"><ele>389.0</ele><time>2026-03-29T09:40:23.001Z</time></trkpt><trkpt lat="45.4095687181089" lon="7.719826198441098"><ele>388.3333333333333</ele><time>2026-03-29T09:40:24Z</time></trkpt><trkpt lat="45.409505745393545" lon="7.719916047485644"><ele>387.66666666666663</ele><time>2026-03-29T09:40:25Z</time></trkpt><trkpt lat="45.40945269178449" lon="7.720016132870754"><ele>387.0</ele><time>2026-03-29T09:40:26Z</time></trkpt><trkpt lat="45.40939353922378" lon="7.720097663995424"><ele>386.33333333333337</ele><time>2026-03-29T09:40:27Z</time></trkpt><trkpt lat="45.40933451889185" lon="7.720185911547549"><ele>385.6666666666667</ele><time>2026-03-29T09:40:28Z</time></trkpt><trkpt lat="45.40927097799926" lon="7.720277907246351"><ele>385.0</ele><time>2026-03-29T09:40:29Z</time></trkpt><trkpt lat="45.409198730881606" lon="7.720368834790722"><ele>385.0</ele><time>2026-03-29T09:40:30Z</time></trkpt><trkpt lat="45.40914532983304" lon="7.720465196150854"><ele>385.0</ele><time>2026-03-29T09:40:31Z</time></trkpt><trkpt lat="45.40906455212369" lon="7.720577511484633"><ele>385.0</ele><time>2026-03-29T09:40:32Z</time></trkpt><trkpt lat="45.40898602122579" lon="7.720687746667807"><ele>385.0</ele><time>2026-03-29T09:40:33Z</time></trkpt><trkpt lat="45.40889261495595" lon="7.720807829956466"><ele>385.0</ele><time>2026-03-29T09:40:34Z</time></trkpt><trkpt lat="45.40878182658797" lon="7.720945777262916"><ele>383.75</ele><time>2026-03-29T09:40:35Z</time></trkpt><trkpt lat="45.40866080555982" lon="7.721091061456948"><ele>382.5</ele><time>2026-03-29T09:40:36Z</time></trkpt><trkpt lat="45.40854521326294" lon="7.721231359684896"><ele>381.25</ele><time>2026-03-29T09:40:36.999Z</time></trkpt><trkpt lat="45.408440224128704" lon="7.721357706888486"><ele>380.0</ele><time>2026-03-29T09:40:38Z</time></trkpt><trkpt lat="45.40834663830648" lon="7.721475241636091"><ele>380.0</ele><time>2026-03-29T09:40:39Z</time></trkpt><trkpt lat="45.40825701912881" lon="7.72159257504307"><ele>380.0</ele><time>2026-03-29T09:40:40Z</time></trkpt><trkpt lat="45.408161024264345" lon="7.721697927082223"><ele>380.0</ele><time>2026-03-29T09:40:41Z</time></trkpt><trkpt lat="45.40807608258337" lon="7.721817304684828"><ele>380.0</ele><time>2026-03-29T09:40:42Z</time></trkpt><trkpt lat="45.408003628254306" lon="7.721946227702491"><ele>379.0</ele><time>2026-03-29T09:40:43Z</time></trkpt><trkpt lat="45.40795004778712" lon="7.722093244808925"><ele>378.0</ele><time>2026-03-29T09:40:44Z</time></trkpt><trkpt lat="45.407903534018594" lon="7.722241997512684"><ele>377.0</ele><time>2026-03-29T09:40:45Z</time></trkpt><trkpt lat="45.407849518334" lon="7.722386227321672"><ele>376.0</ele><time>2026-03-29T09:40:46Z</time></trkpt><trkpt lat="45.40778695535704" lon="7.722529142961356"><ele>376.0</ele><time>2026-03-29T09:40:47Z</time></trkpt><trkpt lat="45.407708891202546" lon="7.722664577047479"><ele>376.0</ele><time>2026-03-29T09:40:48Z</time></trkpt><trkpt lat="45.40761834706777" lon="7.722791350280143"><ele>376.0</ele><time>2026-03-29T09:40:49Z</time></trkpt><trkpt lat="45.40751620833172" lon="7.722902846941132"><ele>376.0</ele><time>2026-03-29T09:40:50Z</time></trkpt><trkpt lat="45.4074106264676" lon="7.723012078104754"><ele>374.5</ele><time>2026-03-29T09:40:51Z</time></trkpt><trkpt lat="45.407301527634466" lon="7.7231154277476035"><ele>373.0</ele><time>2026-03-29T09:40:52Z</time></trkpt><trkpt lat="45.40719212257126" lon="7.723225043685283"><ele>371.5</ele><time>2026-03-29T09:40:53Z</time></trkpt><trkpt lat="45.40707585895632" lon="7.723340621508287"><ele>370.0</ele><time>2026-03-29T09:40:54Z</time></trkpt><trkpt lat="45.406963798649066" lon="7.7234701287773095"><ele>372.25</ele><time>2026-03-29T09:40:55Z</time></trkpt><trkpt lat="45.40685916705311" lon="7.723595654415816"><ele>374.5</ele><time>2026-03-29T09:40:56Z</time></trkpt><trkpt lat="45.406763559421044" lon="7.723707784827638"><ele>376.75</ele><time>2026-03-29T09:40:57Z</time></trkpt><trkpt lat="45.4066648925994" lon="7.723803003393874"><ele>379.0</ele><time>2026-03-29T09:40:58Z</time></trkpt><trkpt lat="45.40654673421258" lon="7.723843832481564"><ele>379.0</ele><time>2026-03-29T09:40:59Z</time></trkpt><trkpt lat="45.406430756638265" lon="7.723924528771142"><ele>379.0</ele><time>2026-03-29T09:41:00Z</time></trkpt><trkpt lat="45.40631507625302" lon="7.723974605901896"><ele>379.0</ele><time>2026-03-29T09:41:01Z</time></trkpt><trkpt lat="45.406207218563125" lon="7.724028623969169"><ele>379.0</ele><time>2026-03-29T09:41:02Z</time></trkpt><trkpt lat="45.406108024262885" lon="7.724072456206855"><ele>380.5</ele><time>2026-03-29T09:41:03Z</time></trkpt><trkpt lat="45.406000652067064" lon="7.7241359602447215"><ele>382.0</ele><time>2026-03-29T09:41:04Z</time></trkpt><trkpt lat="45.405897425015866" lon="7.724221244310501"><ele>383.5</ele><time>2026-03-29T09:41:05Z</time></trkpt><trkpt lat="45.405803461586764" lon="7.724311931989748"><ele>385.0</ele><time>2026-03-29T09:41:06Z</time></trkpt><trkpt lat="45.405702878547054" lon="7.72439815819846"><ele>385.0</ele><time>2026-03-29T09:41:07Z</time></trkpt><trkpt lat="45.405595898639184" lon="7.724488752322594"><ele>385.0</ele><time>2026-03-29T09:41:08Z</time></trkpt><trkpt lat="45.40549290727039" lon="7.7245762856732245"><ele>385.0</ele><time>2026-03-29T09:41:09Z</time></trkpt><trkpt lat="45.405402365096776" lon="7.724642455250267"><ele>385.0</ele><time>2026-03-29T09:41:10Z</time></trkpt><trkpt lat="45.40532075061727" lon="7.724685318091266"><ele>385.0</ele><time>2026-03-29T09:41:11Z</time></trkpt><trkpt lat="45.405245900008794" lon="7.724688255354214"><ele>382.0</ele><time>2026-03-29T09:41:12Z</time></trkpt><trkpt lat="45.405165163496655" lon="7.724640294195756"><ele>379.0</ele><time>2026-03-29T09:41:13Z</time></trkpt><trkpt lat="45.40509105791962" lon="7.724531261935701"><ele>376.0</ele><time>2026-03-29T09:41:14Z</time></trkpt><trkpt lat="45.40501966794698" lon="7.724450957431634"><ele>373.0</ele><time>2026-03-29T09:41:15Z</time></trkpt><trkpt lat="45.40493510541642" lon="7.724427842742941"><ele>370.0</ele><time>2026-03-29T09:41:16Z</time></trkpt><trkpt lat="45.40484054408881" lon="7.724444757643055"><ele>370.0</ele><time>2026-03-29T09:41:17Z</time></trkpt><trkpt lat="45.40474632190315" lon="7.724513017304911"><ele>370.0</ele><time>2026-03-29T09:41:18Z</time></trkpt><trkpt lat="45.40465679795967" lon="7.724586234680609"><ele>370.0</ele><time>2026-03-29T09:41:19Z</time></trkpt><trkpt lat="45.40456679636256" lon="7.7246758961984305"><ele>370.0</ele><time>2026-03-29T09:41:20Z</time></trkpt><trkpt lat="45.40446357577716" lon="7.724791579417174"><ele>368.75</ele><time>2026-03-29T09:41:21Z</time></trkpt><trkpt lat="45.40434469824857" lon="7.724923450102928"><ele>367.5</ele><time>2026-03-29T09:41:22Z</time></trkpt><trkpt lat="45.40422761245688" lon="7.725072287306887"><ele>366.25</ele><time>2026-03-29T09:41:23Z</time></trkpt><trkpt lat="45.40412957948818" lon="7.72520006155522"><ele>365.0</ele><time>2026-03-29T09:41:24Z</time></trkpt><trkpt lat="45.40404881705205" lon="7.725301966443696"><ele>365.0</ele><time>2026-03-29T09:41:25Z</time></trkpt><trkpt lat="45.40397832481753" lon="7.725392816718124"><ele>365.0</ele><time>2026-03-29T09:41:26Z</time></trkpt><trkpt lat="45.403917408288294" lon="7.725467783396465"><ele>365.0</ele><time>2026-03-29T09:41:27Z</time></trkpt><trkpt lat="45.403843677121" lon="7.725512530074577"><ele>365.0</ele><time>2026-03-29T09:41:28Z</time></trkpt><trkpt lat="45.403777803399045" lon="7.725542391681834"><ele>365.0</ele><time>2026-03-29T09:41:29Z</time></trkpt><trkpt lat="45.40377632070208" lon="7.725767308919649"><ele>363.5</ele><time>2026-03-29T09:41:30Z</time></trkpt><trkpt lat="45.40375371197185" lon="7.725914998979921"><ele>362.0</ele><time>2026-03-29T09:41:31Z</time></trkpt><trkpt lat="45.40373293108623" lon="7.726068792029884"><ele>360.5</ele><time>2026-03-29T09:41:32Z</time></trkpt><trkpt lat="45.40370829525635" lon="7.726233752312366"><ele>359.0</ele><time>2026-03-29T09:41:33Z</time></trkpt><trkpt lat="45.40368359407918" lon="7.726408181401622"><ele>359.0</ele><time>2026-03-29T09:41:34Z</time></trkpt><trkpt lat="45.40366055909387" lon="7.72658992154071"><ele>359.0</ele><time>2026-03-29T09:41:35Z</time></trkpt><trkpt lat="45.4036299004126" lon="7.726782068669224"><ele>359.0</ele><time>2026-03-29T09:41:36Z</time></trkpt><trkpt lat="45.40359416950177" lon="7.72697963500425"><ele>359.0</ele><time>2026-03-29T09:41:37Z</time></trkpt><trkpt lat="45.403562317918016" lon="7.727182502894342"><ele>359.25</ele><time>2026-03-29T09:41:38Z</time></trkpt><trkpt lat="45.403533621294734" lon="7.727387923775186"><ele>359.5</ele><time>2026-03-29T09:41:39Z</time></trkpt><trkpt lat="45.40350956261765" lon="7.727601112641581"><ele>359.75</ele><time>2026-03-29T09:41:40Z</time></trkpt><trkpt lat="45.40348570483377" lon="7.72781219673212"><ele>360.0</ele><time>2026-03-29T09:41:41Z</time></trkpt><trkpt lat="45.40345803171001" lon="7.728026133876163"><ele>361.0</ele><time>2026-03-29T09:41:42Z</time></trkpt><trkpt lat="45.40343142323385" lon="7.72823979678579"><ele>362.0</ele><time>2026-03-29T09:41:43Z</time></trkpt><trkpt lat="45.40341084344845" lon="7.728457594543039"><ele>363.0</ele><time>2026-03-29T09:41:44Z</time></trkpt><trkpt lat="45.40339298171489" lon="7.728676689806612"><ele>363.5</ele><time>2026-03-29T09:41:45Z</time></trkpt><trkpt lat="45.40337838396807" lon="7.7288922138414895"><ele>364.0</ele><time>2026-03-29T09:41:46Z</time></trkpt><trkpt lat="45.40336270174881" lon="7.729096238571598"><ele>364.5</ele><time>2026-03-29T09:41:47Z</time></trkpt><trkpt lat="45.40334734790171" lon="7.729298435995934"><ele>365.0</ele><time>2026-03-29T09:41:48Z</time></trkpt><trkpt lat="45.403335871852725" lon="7.729493210052888"><ele>365.0</ele><time>2026-03-29T09:41:49Z</time></trkpt><trkpt lat="45.40334367133946" lon="7.7296883230090465"><ele>365.0</ele><time>2026-03-29T09:41:50Z</time></trkpt><trkpt lat="45.403375428198814" lon="7.7298845326212815"><ele>365.0</ele><time>2026-03-29T09:41:51Z</time></trkpt><trkpt lat="45.403426261053205" lon="7.730063639662532"><ele>365.0</ele><time>2026-03-29T09:41:52Z</time></trkpt><trkpt lat="45.40348095745387" lon="7.730237642366456"><ele>365.0</ele><time>2026-03-29T09:41:53Z</time></trkpt><trkpt lat="45.40353680517714" lon="7.730405928559587"><ele>365.0</ele><time>2026-03-29T09:41:54Z</time></trkpt><trkpt lat="45.40359617025306" lon="7.730564222187068"><ele>365.0</ele><time>2026-03-29T09:41:55Z</time></trkpt><trkpt lat="45.40367234636905" lon="7.730706565137794"><ele>365.0</ele><time>2026-03-29T09:41:56Z</time></trkpt><trkpt lat="45.403777826396315" lon="7.7308202105077015"><ele>366.25</ele><time>2026-03-29T09:41:57Z</time></trkpt><trkpt lat="45.40389276358139" lon="7.7309083873523345"><ele>367.5</ele><time>2026-03-29T09:41:58Z</time></trkpt><trkpt lat="45.404013142032625" lon="7.730966629637824"><ele>368.75</ele><time>2026-03-29T09:41:59Z</time></trkpt><trkpt lat="45.40413053355506" lon="7.731014078955106"><ele>370.0</ele><time>2026-03-29T09:42:00Z</time></trkpt><trkpt lat="45.404241759708285" lon="7.731046578317366"><ele>369.8</ele><time>2026-03-29T09:42:01Z</time></trkpt><trkpt lat="45.404352696853906" lon="7.731092097959493"><ele>369.6</ele><time>2026-03-29T09:42:02Z</time></trkpt><trkpt lat="45.40444444073401" lon="7.731150566265189"><ele>369.4</ele><time>2026-03-29T09:42:03Z</time></trkpt><trkpt lat="45.404512004675645" lon="7.731215415397712"><ele>369.2</ele><time>2026-03-29T09:42:04.001Z</time></trkpt><trkpt lat="45.40457489385907" lon="7.7313268826770845"><ele>369.0</ele><time>2026-03-29T09:42:06.001Z</time></trkpt><trkpt lat="45.404592108557175" lon="7.731414622947472"><ele>369.0</ele><time>2026-03-29T09:42:07.001Z</time></trkpt><trkpt lat="45.40464865697644" lon="7.73147673943701"><ele>369.0</ele><time>2026-03-29T09:42:08.001Z</time></trkpt><trkpt lat="45.40462697431888" lon="7.731644905570232"><ele>369.0</ele><time>2026-03-29T09:42:09.001Z</time></trkpt><trkpt lat="45.40465367409719" lon="7.731754033408594"><ele>369.0</ele><time>2026-03-29T09:42:10.001Z</time></trkpt><trkpt lat="45.40468996822207" lon="7.7318717562043116"><ele>369.0</ele><time>2026-03-29T09:42:11.001Z</time></trkpt><trkpt lat="45.40470207682317" lon="7.732003856023052"><ele>368.8333333333333</ele><time>2026-03-29T09:42:12.001Z</time></trkpt><trkpt lat="45.404740102031106" lon="7.732123547325503"><ele>368.6666666666667</ele><time>2026-03-29T09:42:13.001Z</time></trkpt><trkpt lat="45.404745673649444" lon="7.732238953761208"><ele>368.5</ele><time>2026-03-29T09:42:14.001Z</time></trkpt><trkpt lat="45.404742597112794" lon="7.732343766203479"><ele>368.33333333333337</ele><time>2026-03-29T09:42:15.001Z</time></trkpt><trkpt lat="45.40473630102266" lon="7.732437915275607"><ele>368.1666666666667</ele><time>2026-03-29T09:42:16.001Z</time></trkpt><trkpt lat="45.40470950304381" lon="7.73253127206038"><ele>368.0</ele><time>2026-03-29T09:42:17.001Z</time></trkpt><trkpt lat="45.40464071076527" lon="7.732627656407459"><ele>368.0</ele><time>2026-03-29T09:42:18.001Z</time></trkpt><trkpt lat="45.404535858698154" lon="7.732688817037472"><ele>368.0</ele><time>2026-03-29T09:42:19.001Z</time></trkpt><trkpt lat="45.40444956365439" lon="7.732786818715701"><ele>368.0</ele><time>2026-03-29T09:42:20.001Z</time></trkpt><trkpt lat="45.40436126193788" lon="7.732859215254741"><ele>368.0</ele><time>2026-03-29T09:42:21.001Z</time></trkpt><trkpt lat="45.40427399585139" lon="7.732932598202382"><ele>368.0</ele><time>2026-03-29T09:42:22.001Z</time></trkpt><trkpt lat="45.40418173317417" lon="7.733005458345207"><ele>368.25</ele><time>2026-03-29T09:42:23.001Z</time></trkpt><trkpt lat="45.404079015287444" lon="7.73308898469072"><ele>368.5</ele><time>2026-03-29T09:42:24.001Z</time></trkpt><trkpt lat="45.403967770508444" lon="7.7331813832203355"><ele>368.75</ele><time>2026-03-29T09:42:25.001Z</time></trkpt><trkpt lat="45.40385446931618" lon="7.733281136358274"><ele>369.0</ele><time>2026-03-29T09:42:26.001Z</time></trkpt><trkpt lat="45.40374272909505" lon="7.733372987222177"><ele>369.0</ele><time>2026-03-29T09:42:27.001Z</time></trkpt><trkpt lat="45.4036356087032" lon="7.733457749678187"><ele>369.0</ele><time>2026-03-29T09:42:28.001Z</time></trkpt><trkpt lat="45.40352379988928" lon="7.733552863208705"><ele>369.0</ele><time>2026-03-29T09:42:29.001Z</time></trkpt><trkpt lat="45.403409605878934" lon="7.733652831219377"><ele>369.0</ele><time>2026-03-29T09:42:30Z</time></trkpt><trkpt lat="45.403296263573665" lon="7.733754784451896"><ele>369.0</ele><time>2026-03-29T09:42:31Z</time></trkpt><trkpt lat="45.40319504287696" lon="7.7338441305617955"><ele>369.0</ele><time>2026-03-29T09:42:32Z</time></trkpt><trkpt lat="45.403103848944745" lon="7.733925515221424"><ele>369.0</ele><time>2026-03-29T09:42:33Z</time></trkpt><trkpt lat="45.40302765170787" lon="7.734001013045718"><ele>369.0</ele><time>2026-03-29T09:42:34Z</time></trkpt><trkpt lat="45.402974196514705" lon="7.734066729835681"><ele>369.0</ele><time>2026-03-29T09:42:35Z</time></trkpt><trkpt lat="45.402898678239104" lon="7.734126249941907"><ele>369.79999999999995</ele><time>2026-03-29T09:42:37Z</time></trkpt><trkpt lat="45.40299605373182" lon="7.734368555992282"><ele>370.59999999999997</ele><time>2026-03-29T09:42:40Z</time></trkpt><trkpt lat="45.40304566865056" lon="7.734452456904655"><ele>371.4</ele><time>2026-03-29T09:42:41Z</time></trkpt><trkpt lat="45.40307814398733" lon="7.7345674033618135"><ele>372.2</ele><time>2026-03-29T09:42:42Z</time></trkpt><trkpt lat="45.40312120348549" lon="7.734674529977253"><ele>373.0</ele><time>2026-03-29T09:42:43Z</time></trkpt><trkpt lat="45.40315977846103" lon="7.734789631284639"><ele>373.0</ele><time>2026-03-29T09:42:44Z</time></trkpt><trkpt lat="45.40319034315007" lon="7.734912772816594"><ele>373.0</ele><time>2026-03-29T09:42:45Z</time></trkpt><trkpt lat="45.403200617012565" lon="7.735043635058163"><ele>373.0</ele><time>2026-03-29T09:42:46Z</time></trkpt><trkpt lat="45.40320245524024" lon="7.735170319408691"><ele>373.0</ele><time>2026-03-29T09:42:47Z</time></trkpt><trkpt lat="45.40319885374141" lon="7.73530560721807"><ele>373.0</ele><time>2026-03-29T09:42:48Z</time></trkpt><trkpt lat="45.40319011652732" lon="7.735454287968521"><ele>374.79999999999995</ele><time>2026-03-29T09:42:49Z</time></trkpt><trkpt lat="45.403184557943185" lon="7.735613972986759"><ele>376.6</ele><time>2026-03-29T09:42:50Z</time></trkpt><trkpt lat="45.40318761335856" lon="7.735778688403532"><ele>378.4</ele><time>2026-03-29T09:42:51Z</time></trkpt><trkpt lat="45.40319718478564" lon="7.7359393214019345"><ele>380.20000000000005</ele><time>2026-03-29T09:42:52Z</time></trkpt><trkpt lat="45.403214220723" lon="7.736081709417092"><ele>382.0</ele><time>2026-03-29T09:42:53Z</time></trkpt><trkpt lat="45.40324825066992" lon="7.736218070428354"><ele>383.0</ele><time>2026-03-29T09:42:54Z</time></trkpt><trkpt lat="45.40329592490297" lon="7.73636220841889"><ele>384.0</ele><time>2026-03-29T09:42:55Z</time></trkpt><trkpt lat="45.40334259268309" lon="7.73650391425807"><ele>385.0</ele><time>2026-03-29T09:42:56Z</time></trkpt><trkpt lat="45.40338926533868" lon="7.736650822433142"><ele>386.0</ele><time>2026-03-29T09:42:57Z</time></trkpt><trkpt lat="45.40343584444547" lon="7.7368007817043"><ele>382.75</ele><time>2026-03-29T09:42:58Z</time></trkpt><trkpt lat="45.40347975164916" lon="7.736953100726149"><ele>379.5</ele><time>2026-03-29T09:42:59Z</time></trkpt><trkpt lat="45.40351803463099" lon="7.737093594601747"><ele>376.25</ele><time>2026-03-29T09:43:00Z</time></trkpt><trkpt lat="45.403558882886045" lon="7.737246760779169"><ele>373.0</ele><time>2026-03-29T09:43:01Z</time></trkpt><trkpt lat="45.40359763194358" lon="7.73740653679081"><ele>373.0</ele><time>2026-03-29T09:43:02Z</time></trkpt><trkpt lat="45.40364768083867" lon="7.737536684488059"><ele>373.0</ele><time>2026-03-29T09:43:03Z</time></trkpt><trkpt lat="45.403679622110396" lon="7.737664434066741"><ele>373.0</ele><time>2026-03-29T09:43:04Z</time></trkpt><trkpt lat="45.40372852975787" lon="7.73780181593821"><ele>373.0</ele><time>2026-03-29T09:43:05Z</time></trkpt><trkpt lat="45.403780210768076" lon="7.7379194304550944"><ele>373.0</ele><time>2026-03-29T09:43:06Z</time></trkpt><trkpt lat="45.403811762155655" lon="7.738035590028914"><ele>373.66666666666663</ele><time>2026-03-29T09:43:07Z</time></trkpt><trkpt lat="45.403848465295795" lon="7.738126112559357"><ele>374.3333333333333</ele><time>2026-03-29T09:43:08Z</time></trkpt><trkpt lat="45.403880174763835" lon="7.738204319028896"><ele>375.0</ele><time>2026-03-29T09:43:09Z</time></trkpt><trkpt lat="45.40393777892541" lon="7.738305170142085"><ele>375.6666666666667</ele><time>2026-03-29T09:43:11Z</time></trkpt><trkpt lat="45.403963853232156" lon="7.7383989898984735"><ele>376.33333333333337</ele><time>2026-03-29T09:43:14Z</time></trkpt><trkpt lat="45.40400578692717" lon="7.738483936087596"><ele>377.0</ele><time>2026-03-29T09:43:55Z</time></trkpt><trkpt lat="45.404038277559806" lon="7.73859868691136"><ele>377.0</ele><time>2026-03-29T09:43:58Z</time></trkpt><trkpt lat="45.40406571205539" lon="7.738680224800226"><ele>377.0</ele><time>2026-03-29T09:44:00Z</time></trkpt><trkpt lat="45.40409409536825" lon="7.738771208335355"><ele>377.0</ele><time>2026-03-29T09:44:02Z</time></trkpt><trkpt lat="45.40413363458002" lon="7.738908452207697"><ele>377.0</ele><time>2026-03-29T09:44:04Z</time></trkpt><trkpt lat="45.40417036221903" lon="7.7390392748914785"><ele>377.0</ele><time>2026-03-29T09:44:06Z</time></trkpt><trkpt lat="45.40448667726962" lon="7.738846932572684"><ele>377.0</ele><time>2026-03-29T09:44:11.001Z</time></trkpt><trkpt lat="45.4044886609429" lon="7.738718341775273"><ele>377.0</ele><time>2026-03-29T09:44:14.001Z</time></trkpt><trkpt lat="45.40445483485045" lon="7.738608088676589"><ele>377.0</ele><time>2026-03-29T09:44:23.001Z</time></trkpt><trkpt lat="45.40442518493742" lon="7.738517826208571"><ele>377.0</ele><time>2026-03-29T09:44:25.001Z</time></trkpt><trkpt lat="45.404416843708574" lon="7.738384525761838"><ele>377.0</ele><time>2026-03-29T09:44:28.001Z</time></trkpt><trkpt lat="45.40447234924332" lon="7.738299090110355"><ele>377.0</ele><time>2026-03-29T09:44:30.001Z</time></trkpt><trkpt lat="45.40454201515372" lon="7.7383114163469955"><ele>378.0</ele><time>2026-03-29T09:44:37Z</time></trkpt><trkpt lat="45.40459565792266" lon="7.738392206843958"><ele>379.0</ele><time>2026-03-29T09:44:40Z</time></trkpt><trkpt lat="45.404633264371874" lon="7.7384807322007765"><ele>380.0</ele><time>2026-03-29T09:44:43Z</time></trkpt><trkpt lat="45.40467136372009" lon="7.738580672640743"><ele>381.0</ele><time>2026-03-29T09:44:50Z</time></trkpt><trkpt lat="45.40472739791512" lon="7.7386835387076705"><ele>382.0</ele><time>2026-03-29T09:44:53Z</time></trkpt><trkpt lat="45.40476166922614" lon="7.738806249197551"><ele>383.0</ele><time>2026-03-29T09:44:56Z</time></trkpt><trkpt lat="45.404760616904674" lon="7.738932072608477"><ele>384.83333333333337</ele><time>2026-03-29T09:44:58Z</time></trkpt><trkpt lat="45.404784157439394" lon="7.739019645611617"><ele>386.6666666666667</ele><time>2026-03-29T09:45:00Z</time></trkpt><trkpt lat="45.40483197631578" lon="7.739079610290093"><ele>388.5</ele><time>2026-03-29T09:45:02Z</time></trkpt><trkpt lat="45.40490160543786" lon="7.739130564541832"><ele>390.33333333333337</ele><time>2026-03-29T09:45:05Z</time></trkpt><trkpt lat="45.40499085066391" lon="7.73911444719286"><ele>392.1666666666667</ele><time>2026-03-29T09:45:08Z</time></trkpt><trkpt lat="45.40507084653894" lon="7.739090088474828"><ele>394.0</ele><time>2026-03-29T09:45:11Z</time></trkpt><trkpt lat="45.405154582217584" lon="7.739095474876241"><ele>394.00000000000006</ele><time>2026-03-29T09:45:13Z</time></trkpt><trkpt lat="45.40523245173146" lon="7.739140003527927"><ele>394.0</ele><time>2026-03-29T09:45:15Z</time></trkpt><trkpt lat="45.40529067297566" lon="7.739186552290569"><ele>394.0</ele><time>2026-03-29T09:45:17Z</time></trkpt><trkpt lat="45.405367460041106" lon="7.739247979483313"><ele>394.0</ele><time>2026-03-29T09:45:20Z</time></trkpt><trkpt lat="45.405466806582474" lon="7.739321228313588"><ele>394.00000000000006</ele><time>2026-03-29T09:45:23Z</time></trkpt><trkpt lat="45.40554418600304" lon="7.739404932810743"><ele>394.0</ele><time>2026-03-29T09:45:26Z</time></trkpt><trkpt lat="45.40559572869748" lon="7.739471623228125"><ele>394.6666666666667</ele><time>2026-03-29T09:45:28Z</time></trkpt><trkpt lat="45.405669768653055" lon="7.739498918175773"><ele>395.33333333333337</ele><time>2026-03-29T09:45:39Z</time></trkpt><trkpt lat="45.40573950381136" lon="7.739422649060506"><ele>396.0</ele><time>2026-03-29T09:45:41Z</time></trkpt><trkpt lat="45.40578363418364" lon="7.739320845335026"><ele>396.66666666666663</ele><time>2026-03-29T09:45:43Z</time></trkpt><trkpt lat="45.405787189434115" lon="7.73919642710908"><ele>397.3333333333333</ele><time>2026-03-29T09:45:45Z</time></trkpt><trkpt lat="45.40578271621947" lon="7.739071612998253"><ele>398.0</ele><time>2026-03-29T09:45:47Z</time></trkpt><trkpt lat="45.40580169644217" lon="7.738967940624134"><ele>399.66666666666663</ele><time>2026-03-29T09:45:49Z</time></trkpt><trkpt lat="45.405844864698196" lon="7.738851862034505"><ele>401.3333333333333</ele><time>2026-03-29T09:45:52Z</time></trkpt><trkpt lat="45.40591193826061" lon="7.738933006675286"><ele>403.0</ele><time>2026-03-29T09:45:54Z</time></trkpt><trkpt lat="45.405951155307946" lon="7.739070207017223"><ele>404.66666666666663</ele><time>2026-03-29T09:45:56Z</time></trkpt><trkpt lat="45.405995383493895" lon="7.739160030765096"><ele>406.3333333333333</ele><time>2026-03-29T09:45:59Z</time></trkpt><trkpt lat="45.406070995511975" lon="7.739150645337541"><ele>408.0</ele><time>2026-03-29T09:46:01Z</time></trkpt><trkpt lat="45.406158711937366" lon="7.739063593830735"><ele>408.0</ele><time>2026-03-29T09:46:04Z</time></trkpt><trkpt lat="45.40624263495489" lon="7.739009883438675"><ele>408.0</ele><time>2026-03-29T09:46:06Z</time></trkpt><trkpt lat="45.40633525169151" lon="7.7390263777497585"><ele>408.0</ele><time>2026-03-29T09:46:08Z</time></trkpt><trkpt lat="45.40641981352037" lon="7.739051081380124"><ele>408.0</ele><time>2026-03-29T09:46:10Z</time></trkpt><trkpt lat="45.40649694018762" lon="7.739039985792103"><ele>408.0</ele><time>2026-03-29T09:46:12Z</time></trkpt><trkpt lat="45.40657133015696" lon="7.739016479077006"><ele>408.0</ele><time>2026-03-29T09:46:14Z</time></trkpt><trkpt lat="45.40664815414523" lon="7.739003068550672"><ele>409.42857142857144</ele><time>2026-03-29T09:46:16Z</time></trkpt><trkpt lat="45.40673874620332" lon="7.738969352170077"><ele>410.8571428571429</ele><time>2026-03-29T09:46:19.001Z</time></trkpt><trkpt lat="45.40678018204858" lon="7.738861259716911"><ele>412.2857142857143</ele><time>2026-03-29T09:46:22.001Z</time></trkpt><trkpt lat="45.406825128215054" lon="7.738797709321926"><ele>413.7142857142857</ele><time>2026-03-29T09:46:35.001Z</time></trkpt><trkpt lat="45.40688759027354" lon="7.738773566187045"><ele>415.1428571428571</ele><time>2026-03-29T09:46:38.001Z</time></trkpt><trkpt lat="45.40694553058493" lon="7.738708963087234"><ele>416.57142857142856</ele><time>2026-03-29T09:46:41.001Z</time></trkpt><trkpt lat="45.40700309996613" lon="7.738664167903801"><ele>418.0</ele><time>2026-03-29T09:46:43Z</time></trkpt><trkpt lat="45.407089483442896" lon="7.738663393644129"><ele>418.00000000000006</ele><time>2026-03-29T09:46:47Z</time></trkpt><trkpt lat="45.407155370919035" lon="7.738610920624985"><ele>418.0</ele><time>2026-03-29T09:46:50Z</time></trkpt><trkpt lat="45.40716579905877" lon="7.7384662105899675"><ele>418.0</ele><time>2026-03-29T09:46:53Z</time></trkpt><trkpt lat="45.40713628256497" lon="7.738348325678448"><ele>418.0</ele><time>2026-03-29T09:46:56Z</time></trkpt><trkpt lat="45.40713843755692" lon="7.73823800358252"><ele>418.00000000000006</ele><time>2026-03-29T09:46:58Z</time></trkpt><trkpt lat="45.407190661263215" lon="7.7381381067866375"><ele>418.0</ele><time>2026-03-29T09:47:00Z</time></trkpt><trkpt lat="45.4072537296189" lon="7.738116754775582"><ele>420.1666666666667</ele><time>2026-03-29T09:47:02Z</time></trkpt><trkpt lat="45.407335795683814" lon="7.738115610068059"><ele>422.33333333333337</ele><time>2026-03-29T09:47:04Z</time></trkpt><trkpt lat="45.40741185664559" lon="7.738123945282271"><ele>424.5</ele><time>2026-03-29T09:47:06Z</time></trkpt><trkpt lat="45.40748323732181" lon="7.738131824032108"><ele>426.66666666666663</ele><time>2026-03-29T09:47:08Z</time></trkpt><trkpt lat="45.40754947297358" lon="7.738113850785511"><ele>428.8333333333333</ele><time>2026-03-29T09:47:10Z</time></trkpt><trkpt lat="45.40764186070358" lon="7.738091073342034"><ele>431.0</ele><time>2026-03-29T09:47:13Z</time></trkpt><trkpt lat="45.40771314627242" lon="7.738046786679428"><ele>430.99999999999994</ele><time>2026-03-29T09:47:15Z</time></trkpt><trkpt lat="45.407767022936945" lon="7.737983573793927"><ele>431.0</ele><time>2026-03-29T09:47:18Z</time></trkpt><trkpt lat="45.40781146920186" lon="7.737901026531106"><ele>431.0</ele><time>2026-03-29T09:47:22Z</time></trkpt><trkpt lat="45.40779890644676" lon="7.7378066966254595"><ele>431.0</ele><time>2026-03-29T09:47:25Z</time></trkpt><trkpt lat="45.40776078547252" lon="7.7376876585094685"><ele>430.99999999999994</ele><time>2026-03-29T09:47:28Z</time></trkpt><trkpt lat="45.40773848058245" lon="7.737544616212473"><ele>431.0</ele><time>2026-03-29T09:47:30Z</time></trkpt><trkpt lat="45.40770988053816" lon="7.737431888588702"><ele>432.20000000000005</ele><time>2026-03-29T09:47:32Z</time></trkpt><trkpt lat="45.40772847746376" lon="7.737340850887965"><ele>433.40000000000003</ele><time>2026-03-29T09:47:34Z</time></trkpt><trkpt lat="45.40782263809882" lon="7.737306450598449"><ele>434.6</ele><time>2026-03-29T09:47:36Z</time></trkpt><trkpt lat="45.407922176006124" lon="7.737330724801043"><ele>435.8</ele><time>2026-03-29T09:47:38Z</time></trkpt><trkpt lat="45.408017964995494" lon="7.737377698259476"><ele>437.0</ele><time>2026-03-29T09:47:40Z</time></trkpt><trkpt lat="45.408105407518455" lon="7.73746052682226"><ele>440.0</ele><time>2026-03-29T09:47:42Z</time></trkpt><trkpt lat="45.40819163273797" lon="7.73754372128386"><ele>443.00000000000006</ele><time>2026-03-29T09:47:44Z</time></trkpt><trkpt lat="45.408266964731745" lon="7.737672337693456"><ele>446.00000000000006</ele><time>2026-03-29T09:47:46Z</time></trkpt><trkpt lat="45.408332892153325" lon="7.7377498652839805"><ele>449.0</ele><time>2026-03-29T09:47:48Z</time></trkpt><trkpt lat="45.4083645048013" lon="7.737865919477045"><ele>452.0</ele><time>2026-03-29T09:47:51Z</time></trkpt><trkpt lat="45.40836582407675" lon="7.737991247032638"><ele>451.99999999999994</ele><time>2026-03-29T09:47:53Z</time></trkpt><trkpt lat="45.4083639026603" lon="7.738121468685527"><ele>452.0</ele><time>2026-03-29T09:47:55Z</time></trkpt><trkpt lat="45.40836748344963" lon="7.738229515206959"><ele>452.0</ele><time>2026-03-29T09:47:57Z</time></trkpt><trkpt lat="45.40840223271089" lon="7.738371751263152"><ele>452.0</ele><time>2026-03-29T09:48:00Z</time></trkpt><trkpt lat="45.40844779235413" lon="7.738439554196862"><ele>451.99999999999994</ele><time>2026-03-29T09:48:04Z</time></trkpt><trkpt lat="45.40853333994607" lon="7.738507447646611"><ele>452.0</ele><time>2026-03-29T09:48:07Z</time></trkpt><trkpt lat="45.40859574501095" lon="7.738594298006502"><ele>451.99999999999994</ele><time>2026-03-29T09:48:10Z</time></trkpt><trkpt lat="45.40865681994528" lon="7.7386201314703715"><ele>452.0</ele><time>2026-03-29T09:48:14Z</time></trkpt><trkpt lat="45.408712846825615" lon="7.7386654953991245"><ele>452.0</ele><time>2026-03-29T09:48:16Z</time></trkpt><trkpt lat="45.40873076604019" lon="7.738774321585982"><ele>452.0</ele><time>2026-03-29T09:48:19.001Z</time></trkpt><trkpt lat="45.408723394580655" lon="7.738878992442533"><ele>451.99999999999994</ele><time>2026-03-29T09:48:21.001Z</time></trkpt><trkpt lat="45.40871509702197" lon="7.73903832272531"><ele>452.0</ele><time>2026-03-29T09:48:23.001Z</time></trkpt><trkpt lat="45.40874290326869" lon="7.739136146968728"><ele>451.99999999999994</ele><time>2026-03-29T09:48:25.001Z</time></trkpt><trkpt lat="45.40878271589887" lon="7.739230258694085"><ele>452.0</ele><time>2026-03-29T09:48:27.001Z</time></trkpt><trkpt lat="45.408825645213795" lon="7.73932831289393"><ele>452.0</ele><time>2026-03-29T09:48:29.001Z</time></trkpt><trkpt lat="45.4088953232717" lon="7.739381952147816"><ele>452.0</ele><time>2026-03-29T09:48:32.001Z</time></trkpt><trkpt lat="45.40888509674948" lon="7.739481540827457"><ele>451.99999999999994</ele><time>2026-03-29T09:48:35.001Z</time></trkpt><trkpt lat="45.40884104653096" lon="7.739548365140858"><ele>452.0</ele><time>2026-03-29T09:48:37.001Z</time></trkpt><trkpt lat="45.408780339542126" lon="7.739639698572024"><ele>451.49999999999994</ele><time>2026-03-29T09:48:39.001Z</time></trkpt><trkpt lat="45.40877906212082" lon="7.739773805364977"><ele>451.0</ele><time>2026-03-29T09:48:42.001Z</time></trkpt><trkpt lat="45.40884577477893" lon="7.73981484048037"><ele>450.5</ele><time>2026-03-29T09:48:44.001Z</time></trkpt><trkpt lat="45.40892811522231" lon="7.73977801540208"><ele>450.0</ele><time>2026-03-29T09:48:46.001Z</time></trkpt><trkpt lat="45.40900296250975" lon="7.739673464267749"><ele>449.49999999999994</ele><time>2026-03-29T09:48:48Z</time></trkpt><trkpt lat="45.409047201374456" lon="7.739559868216276"><ele>449.0</ele><time>2026-03-29T09:48:50Z</time></trkpt><trkpt lat="45.40910973282761" lon="7.739402909725386"><ele>452.49999999999994</ele><time>2026-03-29T09:48:52Z</time></trkpt><trkpt lat="45.409170534598886" lon="7.739318193659147"><ele>456.0</ele><time>2026-03-29T09:48:54Z</time></trkpt><trkpt lat="45.4092407511039" lon="7.739343839140125"><ele>459.5</ele><time>2026-03-29T09:48:56Z</time></trkpt><trkpt lat="45.40928213042239" lon="7.739435336768896"><ele>463.0</ele><time>2026-03-29T09:48:58Z</time></trkpt><trkpt lat="45.40931989489667" lon="7.739526287238934"><ele>466.49999999999994</ele><time>2026-03-29T09:49:00Z</time></trkpt><trkpt lat="45.40935721164995" lon="7.739620303056264"><ele>470.0</ele><time>2026-03-29T09:49:02Z</time></trkpt><trkpt lat="45.40940126500385" lon="7.739696958797922"><ele>469.99999999999994</ele><time>2026-03-29T09:49:04Z</time></trkpt><trkpt lat="45.409412881067766" lon="7.739787722155691"><ele>470.0</ele><time>2026-03-29T09:49:06Z</time></trkpt><trkpt lat="45.409467710695395" lon="7.739866770815159"><ele>470.0</ele><time>2026-03-29T09:49:08Z</time></trkpt><trkpt lat="45.409531636084836" lon="7.739916708379033"><ele>470.0</ele><time>2026-03-29T09:49:10Z</time></trkpt><trkpt lat="45.409570694025575" lon="7.740010007244116"><ele>469.99999999999994</ele><time>2026-03-29T09:49:12Z</time></trkpt><trkpt lat="45.409603624569264" lon="7.740148105285948"><ele>470.0</ele><time>2026-03-29T09:49:14Z</time></trkpt><trkpt lat="45.409670500093924" lon="7.740220640160409"><ele>469.8</ele><time>2026-03-29T09:49:16Z</time></trkpt><trkpt lat="45.409761240478005" lon="7.740242012593099"><ele>469.6</ele><time>2026-03-29T09:49:18Z</time></trkpt><trkpt lat="45.40984606502344" lon="7.7403576770218985"><ele>469.4</ele><time>2026-03-29T09:49:20Z</time></trkpt><trkpt lat="45.40992318511355" lon="7.740375253355432"><ele>469.2</ele><time>2026-03-29T09:49:22Z</time></trkpt><trkpt lat="45.41001361790821" lon="7.740378318577828"><ele>469.0</ele><time>2026-03-29T09:49:24Z</time></trkpt><trkpt lat="45.41009339960436" lon="7.7402822547005"><ele>472.2</ele><time>2026-03-29T09:49:26Z</time></trkpt><trkpt lat="45.41013604629947" lon="7.740164607724723"><ele>475.4</ele><time>2026-03-29T09:49:28Z</time></trkpt><trkpt lat="45.410185162257655" lon="7.740027544160082"><ele>478.6</ele><time>2026-03-29T09:49:30Z</time></trkpt><trkpt lat="45.410231942847034" lon="7.739898055471903"><ele>481.8</ele><time>2026-03-29T09:49:32Z</time></trkpt><trkpt lat="45.410273842657816" lon="7.739757299894884"><ele>485.0</ele><time>2026-03-29T09:49:34Z</time></trkpt><trkpt lat="45.410330264496714" lon="7.739611067744196"><ele>484.99999999999994</ele><time>2026-03-29T09:49:36Z</time></trkpt><trkpt lat="45.41037661184885" lon="7.739491089913895"><ele>485.0</ele><time>2026-03-29T09:49:38Z</time></trkpt><trkpt lat="45.410426572158414" lon="7.7393547563043095"><ele>485.0</ele><time>2026-03-29T09:49:41Z</time></trkpt><trkpt lat="45.41044820996329" lon="7.739270049827672"><ele>485.0</ele><time>2026-03-29T09:49:42Z</time></trkpt><trkpt lat="45.41044487993239" lon="7.73913082409418"><ele>484.99999999999994</ele><time>2026-03-29T09:49:44Z</time></trkpt><trkpt lat="45.410446615231265" lon="7.739031578618143"><ele>485.0</ele><time>2026-03-29T09:49:47Z</time></trkpt><trkpt lat="45.41045261480043" lon="7.738909468480057"><ele>485.49999999999994</ele><time>2026-03-29T09:49:49Z</time></trkpt><trkpt lat="45.410507565027565" lon="7.73884535772853"><ele>486.0</ele><time>2026-03-29T09:49:51Z</time></trkpt><trkpt lat="45.41056816030846" lon="7.738816721045397"><ele>486.5</ele><time>2026-03-29T09:49:55Z</time></trkpt><trkpt lat="45.41065661444734" lon="7.7388104197061125"><ele>487.0</ele><time>2026-03-29T09:49:59Z</time></trkpt><trkpt lat="45.41072544514873" lon="7.738824962704892"><ele>487.49999999999994</ele><time>2026-03-29T09:50:03Z</time></trkpt><trkpt lat="45.41078067943921" lon="7.738926532234283"><ele>488.0</ele><time>2026-03-29T09:50:06Z</time></trkpt><trkpt lat="45.41086803634347" lon="7.738959607341133"><ele>487.99999999999994</ele><time>2026-03-29T09:50:08Z</time></trkpt><trkpt lat="45.410954549455404" lon="7.739004815075355"><ele>488.0</ele><time>2026-03-29T09:50:11Z</time></trkpt><trkpt lat="45.411008662449845" lon="7.739067363190612"><ele>488.0</ele><time>2026-03-29T09:50:18.001Z</time></trkpt><trkpt lat="45.41101889581272" lon="7.739186438792917"><ele>488.0</ele><time>2026-03-29T09:50:20.001Z</time></trkpt><trkpt lat="45.411077850737406" lon="7.739277422198597"><ele>487.99999999999994</ele><time>2026-03-29T09:50:23.001Z</time></trkpt><trkpt lat="45.411113871175836" lon="7.739353791222301"><ele>488.0</ele><time>2026-03-29T09:50:25.001Z</time></trkpt><trkpt lat="45.41116018575697" lon="7.739428560482742"><ele>488.49999999999994</ele><time>2026-03-29T09:50:27.001Z</time></trkpt><trkpt lat="45.41121130115873" lon="7.739541492388792"><ele>489.0</ele><time>2026-03-29T09:50:30.001Z</time></trkpt><trkpt lat="45.41124576613048" lon="7.739641305568236"><ele>489.5</ele><time>2026-03-29T09:50:32.001Z</time></trkpt><trkpt lat="45.4113116589126" lon="7.739692909801759"><ele>490.0</ele><time>2026-03-29T09:54:20.001Z</time></trkpt><trkpt lat="45.41139489868534" lon="7.739723554261382"><ele>490.49999999999994</ele><time>2026-03-29T09:54:22.001Z</time></trkpt><trkpt lat="45.41146196706723" lon="7.739680994846099"><ele>491.0</ele><time>2026-03-29T09:54:26.001Z</time></trkpt><trkpt lat="45.4115398431071" lon="7.739701619604851"><ele>488.16666666666663</ele><time>2026-03-29T09:54:29.001Z</time></trkpt><trkpt lat="45.411603235664785" lon="7.73976166023098"><ele>485.3333333333333</ele><time>2026-03-29T09:54:31.001Z</time></trkpt><trkpt lat="45.411671421196985" lon="7.739733318726611"><ele>482.5</ele><time>2026-03-29T09:54:33.001Z</time></trkpt><trkpt lat="45.41172394263757" lon="7.739669665350348"><ele>479.66666666666663</ele><time>2026-03-29T09:54:35.001Z</time></trkpt><trkpt lat="45.41179357285873" lon="7.739635537237074"><ele>476.8333333333333</ele><time>2026-03-29T09:54:37.001Z</time></trkpt><trkpt lat="45.411895851862845" lon="7.739679451174831"><ele>474.0</ele><time>2026-03-29T09:54:39.001Z</time></trkpt><trkpt lat="45.41195657732157" lon="7.739717510059527"><ele>474.0</ele><time>2026-03-29T09:54:41.001Z</time></trkpt><trkpt lat="45.411997655592984" lon="7.739819860178048"><ele>474.0</ele><time>2026-03-29T09:54:43.001Z</time></trkpt><trkpt lat="45.412081176754036" lon="7.739866683712287"><ele>474.0</ele><time>2026-03-29T09:54:46.001Z</time></trkpt><trkpt lat="45.41217381271456" lon="7.739938368091152"><ele>474.0</ele><time>2026-03-29T09:54:48.001Z</time></trkpt><trkpt lat="45.41229207074272" lon="7.7400276370253955"><ele>474.0</ele><time>2026-03-29T09:54:50.001Z</time></trkpt><trkpt lat="45.41239065351717" lon="7.740062428513668"><ele>474.1428571428571</ele><time>2026-03-29T09:54:52.001Z</time></trkpt><trkpt lat="45.41245711079172" lon="7.740079478459453"><ele>474.2857142857143</ele><time>2026-03-29T09:54:54.001Z</time></trkpt><trkpt lat="45.41247035274904" lon="7.740178513228714"><ele>474.42857142857144</ele><time>2026-03-29T09:54:57.001Z</time></trkpt><trkpt lat="45.41253659194531" lon="7.74020943926434"><ele>474.57142857142856</ele><time>2026-03-29T09:55:01.001Z</time></trkpt><trkpt lat="45.412612977317885" lon="7.740233596672896"><ele>474.7142857142858</ele><time>2026-03-29T09:55:10Z</time></trkpt><trkpt lat="45.41268390735645" lon="7.740294172091447"><ele>474.8571428571429</ele><time>2026-03-29T09:55:12Z</time></trkpt><trkpt lat="45.412754948010154" lon="7.740331262925179"><ele>475.0</ele><time>2026-03-29T09:55:14Z</time></trkpt><trkpt lat="45.41283610898957" lon="7.740338053869693"><ele>474.0</ele><time>2026-03-29T09:55:16Z</time></trkpt><trkpt lat="45.412914573033255" lon="7.740403767688757"><ele>473.0</ele><time>2026-03-29T09:55:18Z</time></trkpt><trkpt lat="45.412994707889155" lon="7.740388215404682"><ele>472.0</ele><time>2026-03-29T09:55:20Z</time></trkpt><trkpt lat="45.413113057961176" lon="7.740341990641235"><ele>471.0</ele><time>2026-03-29T09:55:22Z</time></trkpt><trkpt lat="45.41318978780155" lon="7.740312630620652"><ele>470.0</ele><time>2026-03-29T09:55:23Z</time></trkpt><trkpt lat="45.41329487158927" lon="7.740255274858247"><ele>472.66666666666663</ele><time>2026-03-29T09:55:25Z</time></trkpt><trkpt lat="45.41335869546277" lon="7.740208790765439"><ele>475.3333333333333</ele><time>2026-03-29T09:55:27Z</time></trkpt><trkpt lat="45.413394926519146" lon="7.740120912163562"><ele>478.0</ele><time>2026-03-29T09:55:29Z</time></trkpt><trkpt lat="45.41348911670132" lon="7.740076545977186"><ele>480.66666666666663</ele><time>2026-03-29T09:55:31Z</time></trkpt><trkpt lat="45.41355121908454" lon="7.740108774489566"><ele>483.3333333333333</ele><time>2026-03-29T09:55:33Z</time></trkpt><trkpt lat="45.41362831563878" lon="7.740091158368579"><ele>486.0</ele><time>2026-03-29T09:55:35Z</time></trkpt><trkpt lat="45.413725878539225" lon="7.740130034187193"><ele>486.0</ele><time>2026-03-29T09:55:37Z</time></trkpt><trkpt lat="45.4137899543354" lon="7.740188278141025"><ele>486.0</ele><time>2026-03-29T09:55:39Z</time></trkpt><trkpt lat="45.41387004547337" lon="7.740262239766585"><ele>486.0</ele><time>2026-03-29T09:55:42Z</time></trkpt><trkpt lat="45.4139599072089" lon="7.7403444460430615"><ele>486.0</ele><time>2026-03-29T09:55:44Z</time></trkpt><trkpt lat="45.41402403944458" lon="7.740376784594044"><ele>486.0</ele><time>2026-03-29T09:55:46Z</time></trkpt><trkpt lat="45.41412755672871" lon="7.740374007665471"><ele>486.8333333333333</ele><time>2026-03-29T09:55:48Z</time></trkpt><trkpt lat="45.41418281443088" lon="7.740429228156427"><ele>487.66666666666663</ele><time>2026-03-29T09:55:49Z</time></trkpt><trkpt lat="45.41422313664658" lon="7.7405891883256706"><ele>488.5</ele><time>2026-03-29T09:55:51Z</time></trkpt><trkpt lat="45.41427173674702" lon="7.7406685662240555"><ele>489.3333333333333</ele><time>2026-03-29T09:55:54Z</time></trkpt><trkpt lat="45.414338802943185" lon="7.7406770059001335"><ele>490.16666666666663</ele><time>2026-03-29T09:55:55Z</time></trkpt><trkpt lat="45.414422566907156" lon="7.740698884587378"><ele>491.0</ele><time>2026-03-29T09:55:56Z</time></trkpt><trkpt lat="45.414524455553675" lon="7.740705684327586"><ele>490.99999999999994</ele><time>2026-03-29T09:55:58Z</time></trkpt><trkpt lat="45.414615825961974" lon="7.740743793446807"><ele>491.0</ele><time>2026-03-29T09:56:00Z</time></trkpt><trkpt lat="45.41469313093" lon="7.740810097262263"><ele>491.0</ele><time>2026-03-29T09:56:02Z</time></trkpt><trkpt lat="45.41478184576319" lon="7.740858751540618"><ele>491.0</ele><time>2026-03-29T09:56:05Z</time></trkpt><trkpt lat="45.414807482118704" lon="7.740953049512103"><ele>490.99999999999994</ele><time>2026-03-29T09:56:06Z</time></trkpt><trkpt lat="45.41482795200654" lon="7.741039137438166"><ele>491.0</ele><time>2026-03-29T09:56:07Z</time></trkpt><trkpt lat="45.41489567691668" lon="7.741160552013827"><ele>489.99999999999994</ele><time>2026-03-29T09:56:09Z</time></trkpt><trkpt lat="45.414957504885685" lon="7.741213675135468"><ele>489.0</ele><time>2026-03-29T09:56:10Z</time></trkpt><trkpt lat="45.41502583043591" lon="7.741250231181436"><ele>488.0</ele><time>2026-03-29T09:56:11Z</time></trkpt><trkpt lat="45.4150900833617" lon="7.741276716582958"><ele>487.0</ele><time>2026-03-29T09:56:12Z</time></trkpt><trkpt lat="45.415159793422546" lon="7.741277764608878"><ele>485.99999999999994</ele><time>2026-03-29T09:56:14.001Z</time></trkpt><trkpt lat="45.41524919861124" lon="7.741272698575659"><ele>485.0</ele><time>2026-03-29T09:56:17.001Z</time></trkpt><trkpt lat="45.41532722738659" lon="7.741297023393918"><ele>484.99999999999994</ele><time>2026-03-29T09:56:20.001Z</time></trkpt><trkpt lat="45.41539715042582" lon="7.741305711027022"><ele>485.0</ele><time>2026-03-29T09:56:22.001Z</time></trkpt><trkpt lat="45.41548774040813" lon="7.741330694785416"><ele>485.0</ele><time>2026-03-29T09:56:24.001Z</time></trkpt><trkpt lat="45.41557021111383" lon="7.741319987504666"><ele>485.0</ele><time>2026-03-29T09:56:26.001Z</time></trkpt><trkpt lat="45.415635398116805" lon="7.741304738158842"><ele>484.99999999999994</ele><time>2026-03-29T09:56:28.001Z</time></trkpt><trkpt lat="45.415705945314194" lon="7.741341861760521"><ele>485.0</ele><time>2026-03-29T09:56:40.001Z</time></trkpt><trkpt lat="45.41577292028012" lon="7.741460438420068"><ele>486.16666666666663</ele><time>2026-03-29T09:56:42.001Z</time></trkpt><trkpt lat="45.415848381325475" lon="7.741547807881472"><ele>487.3333333333333</ele><time>2026-03-29T09:56:44.001Z</time></trkpt><trkpt lat="45.41591770244928" lon="7.741589995030457"><ele>488.5</ele><time>2026-03-29T09:56:46.001Z</time></trkpt><trkpt lat="45.41596751343107" lon="7.741680302159058"><ele>489.66666666666663</ele><time>2026-03-29T09:56:48.001Z</time></trkpt><trkpt lat="45.41601964834352" lon="7.741775145931219"><ele>490.8333333333333</ele><time>2026-03-29T09:56:50.001Z</time></trkpt><trkpt lat="45.416092981091474" lon="7.741845223201116"><ele>492.0</ele><time>2026-03-29T09:56:53.001Z</time></trkpt><trkpt lat="45.41618895197648" lon="7.741885086977071"><ele>492.0</ele><time>2026-03-29T09:56:56.001Z</time></trkpt><trkpt lat="45.41626748514994" lon="7.7418896707123865"><ele>492.0</ele><time>2026-03-29T09:56:58.001Z</time></trkpt><trkpt lat="45.416357143389796" lon="7.741900331729134"><ele>492.0</ele><time>2026-03-29T09:57:00.001Z</time></trkpt><trkpt lat="45.41643154209711" lon="7.741925151755058"><ele>492.0</ele><time>2026-03-29T09:57:02.001Z</time></trkpt><trkpt lat="45.416500021530304" lon="7.74195500552382"><ele>492.0</ele><time>2026-03-29T09:57:04.001Z</time></trkpt><trkpt lat="45.41657420621283" lon="7.741931796552227"><ele>492.0</ele><time>2026-03-29T09:57:06.001Z</time></trkpt><trkpt lat="45.41664047117927" lon="7.74189420024751"><ele>492.6666666666667</ele><time>2026-03-29T09:57:08.001Z</time></trkpt><trkpt lat="45.416733364786964" lon="7.741897930314432"><ele>493.33333333333337</ele><time>2026-03-29T09:57:10.001Z</time></trkpt><trkpt lat="45.41679210106928" lon="7.741934302780635"><ele>494.0</ele><time>2026-03-29T09:57:12Z</time></trkpt><trkpt lat="45.416829911347115" lon="7.742010509663517"><ele>494.6666666666667</ele><time>2026-03-29T09:57:14Z</time></trkpt><trkpt lat="45.41690242027531" lon="7.74200211755972"><ele>495.33333333333337</ele><time>2026-03-29T09:57:17Z</time></trkpt><trkpt lat="45.41698072938724" lon="7.741954609687177"><ele>496.0</ele><time>2026-03-29T09:57:19Z</time></trkpt><trkpt lat="45.41707708532743" lon="7.741926406334604"><ele>497.0</ele><time>2026-03-29T09:57:21Z</time></trkpt><trkpt lat="45.41718765774908" lon="7.741966958180895"><ele>498.0</ele><time>2026-03-29T09:57:23Z</time></trkpt><trkpt lat="45.417281682467056" lon="7.742001491077292"><ele>499.0</ele><time>2026-03-29T09:57:25Z</time></trkpt><trkpt lat="45.41738519525266" lon="7.742098961290766"><ele>500.0</ele><time>2026-03-29T09:57:27Z</time></trkpt><trkpt lat="45.41745674415526" lon="7.742169234216868"><ele>501.0</ele><time>2026-03-29T09:57:28Z</time></trkpt><trkpt lat="45.417517582951135" lon="7.742212716924973"><ele>501.0</ele><time>2026-03-29T09:57:29Z</time></trkpt><trkpt lat="45.417576279268836" lon="7.742252037340436"><ele>501.0</ele><time>2026-03-29T09:57:30Z</time></trkpt><trkpt lat="45.417677051730045" lon="7.742307437976176"><ele>501.0</ele><time>2026-03-29T09:57:32Z</time></trkpt><trkpt lat="45.41777466996342" lon="7.742388164768525"><ele>501.0</ele><time>2026-03-29T09:57:34Z</time></trkpt><trkpt lat="45.417894083676636" lon="7.742447768999974"><ele>501.0</ele><time>2026-03-29T09:57:36Z</time></trkpt><trkpt lat="45.41795678081832" lon="7.742459978203637"><ele>500.8</ele><time>2026-03-29T09:57:37Z</time></trkpt><trkpt lat="45.418061441076276" lon="7.7425042590164255"><ele>500.6</ele><time>2026-03-29T09:57:39Z</time></trkpt><trkpt lat="45.418130118901686" lon="7.742618639092049"><ele>500.4</ele><time>2026-03-29T09:57:41Z</time></trkpt><trkpt lat="45.41819659677487" lon="7.742730797042773"><ele>500.2</ele><time>2026-03-29T09:57:43Z</time></trkpt><trkpt lat="45.418264208400984" lon="7.742828297930834"><ele>500.0</ele><time>2026-03-29T09:57:45Z</time></trkpt><trkpt lat="45.41834268571574" lon="7.742942474193977"><ele>501.2</ele><time>2026-03-29T09:57:47Z</time></trkpt><trkpt lat="45.41841403201948" lon="7.743035721116649"><ele>502.4</ele><time>2026-03-29T09:57:49Z</time></trkpt><trkpt lat="45.41849849592109" lon="7.743118460723689"><ele>503.6</ele><time>2026-03-29T09:57:51Z</time></trkpt><trkpt lat="45.418565267001036" lon="7.743195577474644"><ele>504.8</ele><time>2026-03-29T09:57:53Z</time></trkpt><trkpt lat="45.41864760974899" lon="7.743224674659656"><ele>506.0</ele><time>2026-03-29T09:57:55Z</time></trkpt><trkpt lat="45.418744637305956" lon="7.743281700648075"><ele>505.4</ele><time>2026-03-29T09:57:57Z</time></trkpt><trkpt lat="45.41885094463491" lon="7.743363296511483"><ele>504.8</ele><time>2026-03-29T09:57:59Z</time></trkpt><trkpt lat="45.418970293318914" lon="7.743418000752294"><ele>504.19999999999993</ele><time>2026-03-29T09:58:01Z</time></trkpt><trkpt lat="45.41902722252948" lon="7.743463250016457"><ele>503.59999999999997</ele><time>2026-03-29T09:58:02Z</time></trkpt><trkpt lat="45.419083556144685" lon="7.743599571887345"><ele>503.0</ele><time>2026-03-29T09:58:04Z</time></trkpt><trkpt lat="45.41915123627723" lon="7.743676156900718"><ele>502.49999999999994</ele><time>2026-03-29T09:58:06Z</time></trkpt><trkpt lat="45.41919578139346" lon="7.743763616250603"><ele>502.0</ele><time>2026-03-29T09:58:08Z</time></trkpt><trkpt lat="45.41928971387575" lon="7.743867001290556"><ele>501.5</ele><time>2026-03-29T09:58:10Z</time></trkpt><trkpt lat="45.41932702129407" lon="7.743944895001878"><ele>501.0</ele><time>2026-03-29T09:58:11Z</time></trkpt><trkpt lat="45.41940876255756" lon="7.7439983777290795"><ele>500.49999999999994</ele><time>2026-03-29T09:58:13Z</time></trkpt><trkpt lat="45.41948379408221" lon="7.743954808162858"><ele>500.0</ele><time>2026-03-29T09:58:16Z</time></trkpt><trkpt lat="45.41953718530162" lon="7.743888684736849"><ele>499.99999999999994</ele><time>2026-03-29T09:58:18Z</time></trkpt><trkpt lat="45.419614572260286" lon="7.7438824653017395"><ele>500.0</ele><time>2026-03-29T09:58:20Z</time></trkpt><trkpt lat="45.41971207837645" lon="7.743896723885402"><ele>500.0</ele><time>2026-03-29T09:58:22Z</time></trkpt><trkpt lat="45.4197903893718" lon="7.743921201823125"><ele>500.0</ele><time>2026-03-29T09:58:25.001Z</time></trkpt><trkpt lat="45.4198728251519" lon="7.743944209380215"><ele>499.99999999999994</ele><time>2026-03-29T09:58:27.001Z</time></trkpt><trkpt lat="45.41992948756399" lon="7.744008300655"><ele>500.0</ele><time>2026-03-29T09:58:29.001Z</time></trkpt><trkpt lat="45.41999285986959" lon="7.744120214475066"><ele>500.4</ele><time>2026-03-29T09:58:32.001Z</time></trkpt><trkpt lat="45.41998551355266" lon="7.744222581944019"><ele>500.8</ele><time>2026-03-29T09:58:33.001Z</time></trkpt><trkpt lat="45.41997853238588" lon="7.744326048507834"><ele>501.20000000000005</ele><time>2026-03-29T09:58:34.001Z</time></trkpt><trkpt lat="45.419981275976845" lon="7.744421028326723"><ele>501.6</ele><time>2026-03-29T09:58:35.001Z</time></trkpt><trkpt lat="45.42001283675114" lon="7.744572070882622"><ele>502.0</ele><time>2026-03-29T09:58:37.001Z</time></trkpt><trkpt lat="45.42011635296951" lon="7.744683566292796"><ele>500.8</ele><time>2026-03-29T09:58:39.001Z</time></trkpt><trkpt lat="45.420186348938515" lon="7.744741155280375"><ele>499.6</ele><time>2026-03-29T09:58:40.001Z</time></trkpt><trkpt lat="45.420282444808244" lon="7.7447648534799365"><ele>498.40000000000003</ele><time>2026-03-29T09:58:42.001Z</time></trkpt><trkpt lat="45.42039680540437" lon="7.7447738348496875"><ele>497.20000000000005</ele><time>2026-03-29T09:58:44.001Z</time></trkpt><trkpt lat="45.42051704265525" lon="7.744775546801016"><ele>496.0</ele><time>2026-03-29T09:58:46.001Z</time></trkpt><trkpt lat="45.42058117606989" lon="7.744777293351999"><ele>496.0</ele><time>2026-03-29T09:58:47.001Z</time></trkpt><trkpt lat="45.42069345075859" lon="7.744779634895344"><ele>496.0</ele><time>2026-03-29T09:58:49.001Z</time></trkpt><trkpt lat="45.42077655213151" lon="7.744786472788466"><ele>496.0</ele><time>2026-03-29T09:58:51.001Z</time></trkpt><trkpt lat="45.420848589035785" lon="7.744868269336507"><ele>496.0</ele><time>2026-03-29T09:58:54.001Z</time></trkpt><trkpt lat="45.4208868694368" lon="7.744975491560152"><ele>496.0</ele><time>2026-03-29T09:58:56.001Z</time></trkpt><trkpt lat="45.42091721375581" lon="7.745089596672649"><ele>496.0</ele><time>2026-03-29T09:58:58.001Z</time></trkpt><trkpt lat="45.42094272652649" lon="7.745196718341096"><ele>496.0</ele><time>2026-03-29T09:59:00.001Z</time></trkpt><trkpt lat="45.42098150688872" lon="7.74531106244683"><ele>496.0</ele><time>2026-03-29T09:59:02.001Z</time></trkpt><trkpt lat="45.421028819182226" lon="7.745425719868353"><ele>496.0</ele><time>2026-03-29T09:59:04.001Z</time></trkpt><trkpt lat="45.42109651724632" lon="7.745520043068737"><ele>496.0</ele><time>2026-03-29T09:59:06.001Z</time></trkpt><trkpt lat="45.421170100790235" lon="7.745620585317579"><ele>496.50000000000006</ele><time>2026-03-29T09:59:08.001Z</time></trkpt><trkpt lat="45.42121050826889" lon="7.745694234445024"><ele>497.0</ele><time>2026-03-29T09:59:09.001Z</time></trkpt><trkpt lat="45.42126139367074" lon="7.745762176092906"><ele>497.5</ele><time>2026-03-29T09:59:10.001Z</time></trkpt><trkpt lat="45.42137027814237" lon="7.745844207852624"><ele>498.0</ele><time>2026-03-29T09:59:12.001Z</time></trkpt><trkpt lat="45.42142334313866" lon="7.745909845400314"><ele>498.50000000000006</ele><time>2026-03-29T09:59:13.001Z</time></trkpt><trkpt lat="45.42148691779327" lon="7.745995873874545"><ele>499.0</ele><time>2026-03-29T09:59:15.001Z</time></trkpt><trkpt lat="45.42158238845655" lon="7.7460114775643065"><ele>500.4</ele><time>2026-03-29T09:59:18Z</time></trkpt><trkpt lat="45.421651911234186" lon="7.746006626393099"><ele>501.79999999999995</ele><time>2026-03-29T09:59:22Z</time></trkpt><trkpt lat="45.421723801934036" lon="7.745991795585002"><ele>503.20000000000005</ele><time>2026-03-29T09:59:49Z</time></trkpt><trkpt lat="45.42183359241807" lon="7.745972528203147"><ele>504.6</ele><time>2026-03-29T09:59:51Z</time></trkpt><trkpt lat="45.42194279425718" lon="7.745916350230857"><ele>506.0</ele><time>2026-03-29T09:59:53Z</time></trkpt><trkpt lat="45.42205414257074" lon="7.745829739332802"><ele>505.99999999999994</ele><time>2026-03-29T09:59:55Z</time></trkpt><trkpt lat="45.42211398705063" lon="7.7457895936713825"><ele>506.0</ele><time>2026-03-29T09:59:56Z</time></trkpt><trkpt lat="45.42217159702999" lon="7.745750536055423"><ele>506.0</ele><time>2026-03-29T09:59:57Z</time></trkpt><trkpt lat="45.422229992141894" lon="7.745709842915516"><ele>506.0</ele><time>2026-03-29T09:59:58Z</time></trkpt><trkpt lat="45.42229267163972" lon="7.745660175459976"><ele>505.99999999999994</ele><time>2026-03-29T09:59:59Z</time></trkpt><trkpt lat="45.42240520688558" lon="7.745586506165097"><ele>506.0</ele><time>2026-03-29T10:00:01Z</time></trkpt><trkpt lat="45.42248869699175" lon="7.745475823797233"><ele>507.16666666666663</ele><time>2026-03-29T10:00:03Z</time></trkpt><trkpt lat="45.42252418708455" lon="7.7453477226703615"><ele>508.3333333333333</ele><time>2026-03-29T10:00:05Z</time></trkpt><trkpt lat="45.42259433769068" lon="7.745244569754798"><ele>509.5</ele><time>2026-03-29T10:00:07Z</time></trkpt><trkpt lat="45.42263365698292" lon="7.745165253070876"><ele>510.66666666666663</ele><time>2026-03-29T10:00:09Z</time></trkpt><trkpt lat="45.42265187136884" lon="7.745045506826829"><ele>511.8333333333333</ele><time>2026-03-29T10:00:11Z</time></trkpt><trkpt lat="45.422680685776676" lon="7.744916448967702"><ele>513.0</ele><time>2026-03-29T10:00:13Z</time></trkpt><trkpt lat="45.42275358996485" lon="7.744825039358421"><ele>510.4</ele><time>2026-03-29T10:00:15Z</time></trkpt><trkpt lat="45.422815221607735" lon="7.744780232590028"><ele>507.79999999999995</ele><time>2026-03-29T10:00:17Z</time></trkpt><trkpt lat="45.42287885762997" lon="7.74468666619397"><ele>505.2</ele><time>2026-03-29T10:00:19.001Z</time></trkpt><trkpt lat="45.42297012530857" lon="7.744673008020952"><ele>502.6</ele><time>2026-03-29T10:00:21.001Z</time></trkpt><trkpt lat="45.4230519402132" lon="7.7446910327452"><ele>500.0</ele><time>2026-03-29T10:00:23.001Z</time></trkpt><trkpt lat="45.423161208731074" lon="7.744743898340143"><ele>499.99999999999994</ele><time>2026-03-29T10:00:25.001Z</time></trkpt><trkpt lat="45.423242614803996" lon="7.744717865931147"><ele>500.0</ele><time>2026-03-29T10:00:27.001Z</time></trkpt><trkpt lat="45.4233272605581" lon="7.744692866158669"><ele>500.0</ele><time>2026-03-29T10:00:29.001Z</time></trkpt><trkpt lat="45.42339834023256" lon="7.74471757437226"><ele>500.0</ele><time>2026-03-29T10:00:30.001Z</time></trkpt><trkpt lat="45.42345660546076" lon="7.744753055044821"><ele>499.99999999999994</ele><time>2026-03-29T10:00:31.001Z</time></trkpt><trkpt lat="45.42354317296276" lon="7.7448374848677375"><ele>500.0</ele><time>2026-03-29T10:00:33.001Z</time></trkpt><trkpt lat="45.42360840672587" lon="7.74486260001489"><ele>499.99999999999994</ele><time>2026-03-29T10:00:34.001Z</time></trkpt><trkpt lat="45.423672213147995" lon="7.744887165639587"><ele>500.0</ele><time>2026-03-29T10:00:35.001Z</time></trkpt><trkpt lat="45.42379470560691" lon="7.744927070496833"><ele>500.0</ele><time>2026-03-29T10:00:37.001Z</time></trkpt><trkpt lat="45.42385647457581" lon="7.7449707945102775"><ele>500.0</ele><time>2026-03-29T10:00:38.001Z</time></trkpt><trkpt lat="45.42392176516318" lon="7.745024364665755"><ele>499.99999999999994</ele><time>2026-03-29T10:00:39.001Z</time></trkpt><trkpt lat="45.42398729686807" lon="7.745063691822417"><ele>500.0</ele><time>2026-03-29T10:00:40.001Z</time></trkpt><trkpt lat="45.424062321840786" lon="7.74511488910505"><ele>500.8333333333333</ele><time>2026-03-29T10:00:41.001Z</time></trkpt><trkpt lat="45.42412666900291" lon="7.745178431737928"><ele>501.66666666666663</ele><time>2026-03-29T10:00:42.001Z</time></trkpt><trkpt lat="45.424173440527724" lon="7.745283057115659"><ele>502.5</ele><time>2026-03-29T10:00:43.001Z</time></trkpt><trkpt lat="45.4242228918883" lon="7.745382434642882"><ele>503.33333333333337</ele><time>2026-03-29T10:00:44.001Z</time></trkpt><trkpt lat="45.42427837766065" lon="7.745478949350012"><ele>504.1666666666667</ele><time>2026-03-29T10:00:45.001Z</time></trkpt><trkpt lat="45.42435225354447" lon="7.745564489542189"><ele>505.0</ele><time>2026-03-29T10:00:46.001Z</time></trkpt><trkpt lat="45.42442004445541" lon="7.745642219005599"><ele>506.50000000000006</ele><time>2026-03-29T10:00:47.001Z</time></trkpt><trkpt lat="45.42447539043229" lon="7.745740012311093"><ele>508.0</ele><time>2026-03-29T10:00:48.001Z</time></trkpt><trkpt lat="45.4245251452419" lon="7.7458432991103665"><ele>509.5</ele><time>2026-03-29T10:00:49.001Z</time></trkpt><trkpt lat="45.42457099090347" lon="7.745948156195956"><ele>511.0</ele><time>2026-03-29T10:00:50.001Z</time></trkpt><trkpt lat="45.42461724797735" lon="7.746064072971994"><ele>512.5</ele><time>2026-03-29T10:00:51.001Z</time></trkpt><trkpt lat="45.424656014553314" lon="7.746182005981141"><ele>514.0</ele><time>2026-03-29T10:00:52.001Z</time></trkpt><trkpt lat="45.42468067332315" lon="7.74629496975263"><ele>516.0</ele><time>2026-03-29T10:00:53.001Z</time></trkpt><trkpt lat="45.424701163492315" lon="7.746390566598242"><ele>518.0</ele><time>2026-03-29T10:00:54.001Z</time></trkpt><trkpt lat="45.42473102699365" lon="7.746483738499407"><ele>520.0</ele><time>2026-03-29T10:00:55.001Z</time></trkpt><trkpt lat="45.42477570168035" lon="7.7465699078485555"><ele>522.0</ele><time>2026-03-29T10:00:56.001Z</time></trkpt><trkpt lat="45.4248265692851" lon="7.746644467731524"><ele>524.0</ele><time>2026-03-29T10:00:57.001Z</time></trkpt><trkpt lat="45.42487575955443" lon="7.746713948881025"><ele>526.0</ele><time>2026-03-29T10:00:58.001Z</time></trkpt><trkpt lat="45.42494939030061" lon="7.746793225516745"><ele>526.0</ele><time>2026-03-29T10:01:00.001Z</time></trkpt><trkpt lat="45.42501910737651" lon="7.7466941956908215"><ele>526.0</ele><time>2026-03-29T10:01:04.001Z</time></trkpt><trkpt lat="45.425017278271376" lon="7.746591405663604"><ele>526.0</ele><time>2026-03-29T10:01:05.001Z</time></trkpt><trkpt lat="45.4249922457829" lon="7.746399627726931"><ele>526.0</ele><time>2026-03-29T10:01:07.001Z</time></trkpt><trkpt lat="45.4249720221629" lon="7.746283037742733"><ele>526.0</ele><time>2026-03-29T10:01:08.001Z</time></trkpt><trkpt lat="45.424945380511716" lon="7.7461444221570845"><ele>525.6</ele><time>2026-03-29T10:01:09.001Z</time></trkpt><trkpt lat="45.42491541873563" lon="7.746015645916711"><ele>525.2</ele><time>2026-03-29T10:01:10.001Z</time></trkpt><trkpt lat="45.42488461684728" lon="7.745886755716312"><ele>524.8</ele><time>2026-03-29T10:01:11.001Z</time></trkpt><trkpt lat="45.42484257101929" lon="7.745753244402874"><ele>524.4</ele><time>2026-03-29T10:01:12.001Z</time></trkpt><trkpt lat="45.4248267346071" lon="7.745625576451882"><ele>524.0</ele><time>2026-03-29T10:01:13.001Z</time></trkpt><trkpt lat="45.424824487496906" lon="7.745505336228316"><ele>524.0</ele><time>2026-03-29T10:01:14.001Z</time></trkpt><trkpt lat="45.424822717764" lon="7.745385507007553"><ele>524.0</ele><time>2026-03-29T10:01:15.001Z</time></trkpt><trkpt lat="45.42482244431322" lon="7.745289989661456"><ele>524.0</ele><time>2026-03-29T10:01:16.001Z</time></trkpt><trkpt lat="45.42483212242698" lon="7.745174287799462"><ele>524.0</ele><time>2026-03-29T10:01:17.001Z</time></trkpt><trkpt lat="45.42486056276336" lon="7.74508436939923"><ele>524.0</ele><time>2026-03-29T10:01:18.001Z</time></trkpt><trkpt lat="45.4249197656722" lon="7.7449917693977035"><ele>524.0</ele><time>2026-03-29T10:01:19.001Z</time></trkpt><trkpt lat="45.42495869954334" lon="7.74481946381185"><ele>524.1666666666666</ele><time>2026-03-29T10:01:21.001Z</time></trkpt><trkpt lat="45.42492564571157" lon="7.7447063774964064"><ele>524.3333333333333</ele><time>2026-03-29T10:01:22.001Z</time></trkpt><trkpt lat="45.424917171622184" lon="7.74459503859979"><ele>524.5</ele><time>2026-03-29T10:01:23.001Z</time></trkpt><trkpt lat="45.42489667846233" lon="7.744468538304919"><ele>524.6666666666666</ele><time>2026-03-29T10:01:24Z</time></trkpt><trkpt lat="45.424869985431364" lon="7.744332752050806"><ele>524.8333333333334</ele><time>2026-03-29T10:01:25Z</time></trkpt><trkpt lat="45.42484887173017" lon="7.744211072919873"><ele>525.0</ele><time>2026-03-29T10:01:26Z</time></trkpt><trkpt lat="45.42482617723295" lon="7.744092115701179"><ele>525.0</ele><time>2026-03-29T10:01:27Z</time></trkpt><trkpt lat="45.424811774347134" lon="7.743968354754886"><ele>525.0</ele><time>2026-03-29T10:01:28Z</time></trkpt><trkpt lat="45.42479369920576" lon="7.743842741612023"><ele>525.0</ele><time>2026-03-29T10:01:29Z</time></trkpt><trkpt lat="45.42478236861983" lon="7.743724010743786"><ele>525.0</ele><time>2026-03-29T10:01:30Z</time></trkpt><trkpt lat="45.42477236789818" lon="7.743610575270824"><ele>525.0</ele><time>2026-03-29T10:01:31Z</time></trkpt><trkpt lat="45.42474703218933" lon="7.743502888510732"><ele>525.0</ele><time>2026-03-29T10:01:32Z</time></trkpt><trkpt lat="45.42470943243275" lon="7.743408670355637"><ele>525.3333333333334</ele><time>2026-03-29T10:01:33Z</time></trkpt><trkpt lat="45.42467324119967" lon="7.743326840684983"><ele>525.6666666666666</ele><time>2026-03-29T10:01:34Z</time></trkpt><trkpt lat="45.42460752577716" lon="7.7432011522699735"><ele>526.0</ele><time>2026-03-29T10:01:36Z</time></trkpt><trkpt lat="45.42456057854594" lon="7.743125470069159"><ele>526.3333333333333</ele><time>2026-03-29T10:01:38Z</time></trkpt><trkpt lat="45.42464813589154" lon="7.743064390477441"><ele>526.6666666666666</ele><time>2026-03-29T10:01:41Z</time></trkpt><trkpt lat="45.42473088691397" lon="7.7430066423585"><ele>527.0</ele><time>2026-03-29T10:01:43Z</time></trkpt><trkpt lat="45.424839829291265" lon="7.742983119268874"><ele>527.0</ele><time>2026-03-29T10:01:45Z</time></trkpt><trkpt lat="45.42490375255351" lon="7.742933737960818"><ele>527.0</ele><time>2026-03-29T10:01:46Z</time></trkpt><trkpt lat="45.424987911826356" lon="7.742920616323318"><ele>527.0</ele><time>2026-03-29T10:01:47Z</time></trkpt><trkpt lat="45.42505728769405" lon="7.742894217159254"><ele>527.0</ele><time>2026-03-29T10:01:48Z</time></trkpt><trkpt lat="45.4251828833518" lon="7.742846056393784"><ele>527.0</ele><time>2026-03-29T10:01:50Z</time></trkpt><trkpt lat="45.42529831776834" lon="7.742807217089744"><ele>527.0</ele><time>2026-03-29T10:01:52Z</time></trkpt><trkpt lat="45.42536034699504" lon="7.742769159233556"><ele>527.0</ele><time>2026-03-29T10:01:53Z</time></trkpt><trkpt lat="45.42546522940857" lon="7.742818111604472"><ele>527.0</ele><time>2026-03-29T10:01:55Z</time></trkpt><trkpt lat="45.42557050956789" lon="7.7428285357559945"><ele>527.0</ele><time>2026-03-29T10:01:57Z</time></trkpt><trkpt lat="45.425647323069654" lon="7.742779555250732"><ele>527.0</ele><time>2026-03-29T10:02:00Z</time></trkpt><trkpt lat="45.42556641980438" lon="7.7426589359295"><ele>527.6666666666666</ele><time>2026-03-29T10:02:03Z</time></trkpt><trkpt lat="45.42547885994905" lon="7.7425719954786105"><ele>528.3333333333333</ele><time>2026-03-29T10:02:05Z</time></trkpt><trkpt lat="45.425412920995356" lon="7.74250544911726"><ele>529.0</ele><time>2026-03-29T10:02:07Z</time></trkpt><trkpt lat="45.42535001614398" lon="7.742460321701988"><ele>529.6666666666666</ele><time>2026-03-29T10:02:10Z</time></trkpt><trkpt lat="45.425305357231395" lon="7.74236473857137"><ele>530.3333333333334</ele><time>2026-03-29T10:03:08.001Z</time></trkpt><trkpt lat="45.42528518476675" lon="7.742277432507809"><ele>531.0</ele><time>2026-03-29T10:03:10.001Z</time></trkpt><trkpt lat="45.425308410925645" lon="7.742142671944065"><ele>531.0</ele><time>2026-03-29T10:03:13.001Z</time></trkpt><trkpt lat="45.42531144123348" lon="7.742033832632712"><ele>531.0</ele><time>2026-03-29T10:03:15.001Z</time></trkpt><trkpt lat="45.42532308988906" lon="7.741941183380941"><ele>531.0</ele><time>2026-03-29T10:03:17.001Z</time></trkpt><trkpt lat="45.42533141999868" lon="7.74182684078363"><ele>531.0</ele><time>2026-03-29T10:03:20.001Z</time></trkpt><trkpt lat="45.42547532439199" lon="7.741735609192292"><ele>531.0</ele><time>2026-03-29T10:03:23.001Z</time></trkpt><trkpt lat="45.425527856848454" lon="7.741682982584518"><ele>531.0</ele><time>2026-03-29T10:03:25.001Z</time></trkpt><trkpt lat="45.42560749668802" lon="7.741623212664358"><ele>533.8333333333334</ele><time>2026-03-29T10:03:28.001Z</time></trkpt><trkpt lat="45.425689552151205" lon="7.741595220076674"><ele>536.6666666666666</ele><time>2026-03-29T10:03:31Z</time></trkpt><trkpt lat="45.42576499741173" lon="7.741586130034629"><ele>539.5</ele><time>2026-03-29T10:03:34Z</time></trkpt><trkpt lat="45.425829078386045" lon="7.741548052852753"><ele>542.3333333333333</ele><time>2026-03-29T10:03:36Z</time></trkpt><trkpt lat="45.4259010994107" lon="7.741552233102439"><ele>545.1666666666666</ele><time>2026-03-29T10:03:38Z</time></trkpt><trkpt lat="45.42597607711415" lon="7.741565314549988"><ele>548.0</ele><time>2026-03-29T10:03:41Z</time></trkpt><trkpt lat="45.4260521209883" lon="7.741610638851873"><ele>548.0</ele><time>2026-03-29T10:03:44Z</time></trkpt><trkpt lat="45.426112661445174" lon="7.7416404358712585"><ele>548.0</ele><time>2026-03-29T10:03:48Z</time></trkpt><trkpt lat="45.426192699070604" lon="7.741651562193761"><ele>548.0</ele><time>2026-03-29T10:04:03Z</time></trkpt><trkpt lat="45.426280659189835" lon="7.741605130693958"><ele>548.0</ele><time>2026-03-29T10:04:05Z</time></trkpt><trkpt lat="45.42634437288271" lon="7.741553203773903"><ele>548.0</ele><time>2026-03-29T10:04:06Z</time></trkpt><trkpt lat="45.42644022299676" lon="7.7414769557491"><ele>548.0</ele><time>2026-03-29T10:04:08Z</time></trkpt><trkpt lat="45.426591300936146" lon="7.741437818449578"><ele>550.6</ele><time>2026-03-29T10:04:10.001Z</time></trkpt><trkpt lat="45.426660807729846" lon="7.741447002264021"><ele>553.1999999999999</ele><time>2026-03-29T10:04:11.001Z</time></trkpt><trkpt lat="45.4267627452655" lon="7.741473590979776"><ele>555.8</ele><time>2026-03-29T10:04:13.001Z</time></trkpt><trkpt lat="45.426848851971414" lon="7.7415021127206165"><ele>558.4</ele><time>2026-03-29T10:04:15.001Z</time></trkpt><trkpt lat="45.42694682689765" lon="7.741509792098978"><ele>561.0</ele><time>2026-03-29T10:04:17.001Z</time></trkpt><trkpt lat="45.42702669646624" lon="7.7413938917343055"><ele>561.0</ele><time>2026-03-29T10:04:19.001Z</time></trkpt><trkpt lat="45.4271297065289" lon="7.741309814529081"><ele>561.0</ele><time>2026-03-29T10:04:21.001Z</time></trkpt><trkpt lat="45.42719263196307" lon="7.741288398449593"><ele>561.0</ele><time>2026-03-29T10:04:22.001Z</time></trkpt><trkpt lat="45.42725945257273" lon="7.7412708638614065"><ele>561.0</ele><time>2026-03-29T10:04:23.001Z</time></trkpt><trkpt lat="45.42732257558491" lon="7.741256899609176"><ele>561.0</ele><time>2026-03-29T10:04:24.001Z</time></trkpt><trkpt lat="45.42738908337951" lon="7.7412573286542665"><ele>561.0</ele><time>2026-03-29T10:04:25.001Z</time></trkpt><trkpt lat="45.427465495859884" lon="7.741274009909672"><ele>564.0</ele><time>2026-03-29T10:04:26.001Z</time></trkpt><trkpt lat="45.427580893578394" lon="7.741318722202899"><ele>567.0</ele><time>2026-03-29T10:04:28.001Z</time></trkpt><trkpt lat="45.427701475933084" lon="7.7413676723634826"><ele>570.0</ele><time>2026-03-29T10:04:30.001Z</time></trkpt><trkpt lat="45.42780593741539" lon="7.741422221773254"><ele>573.0</ele><time>2026-03-29T10:04:32.001Z</time></trkpt><trkpt lat="45.42789584834767" lon="7.741463274452048"><ele>573.0</ele><time>2026-03-29T10:04:34.001Z</time></trkpt><trkpt lat="45.427971583877266" lon="7.741463099325981"><ele>573.0</ele><time>2026-03-29T10:04:36.001Z</time></trkpt><trkpt lat="45.42802672615808" lon="7.741397235266795"><ele>573.0</ele><time>2026-03-29T10:04:38.001Z</time></trkpt><trkpt lat="45.428136042486095" lon="7.741329216998036"><ele>573.0</ele><time>2026-03-29T10:04:40.001Z</time></trkpt><trkpt lat="45.428207167970044" lon="7.74135481517567"><ele>573.0</ele><time>2026-03-29T10:04:41.001Z</time></trkpt><trkpt lat="45.4282842520519" lon="7.741386776915251"><ele>573.0</ele><time>2026-03-29T10:04:42.001Z</time></trkpt><trkpt lat="45.42834537259023" lon="7.741425668320801"><ele>574.8</ele><time>2026-03-29T10:04:43.001Z</time></trkpt><trkpt lat="45.42847178037506" lon="7.741477709960105"><ele>576.5999999999999</ele><time>2026-03-29T10:04:45.001Z</time></trkpt><trkpt lat="45.42853477565433" lon="7.74151857243434"><ele>578.4000000000001</ele><time>2026-03-29T10:04:46.001Z</time></trkpt><trkpt lat="45.42865269680653" lon="7.741512771987649"><ele>580.2</ele><time>2026-03-29T10:04:48.001Z</time></trkpt><trkpt lat="45.428739053566964" lon="7.741481194637619"><ele>582.0</ele><time>2026-03-29T10:04:50.001Z</time></trkpt><trkpt lat="45.428819168266486" lon="7.741349066969294"><ele>582.8333333333334</ele><time>2026-03-29T10:04:53.001Z</time></trkpt><trkpt lat="45.42890091768957" lon="7.741244821868478"><ele>583.6666666666666</ele><time>2026-03-29T10:04:55.001Z</time></trkpt><trkpt lat="45.428963223478505" lon="7.74120906189022"><ele>584.5</ele><time>2026-03-29T10:04:57.001Z</time></trkpt><trkpt lat="45.42905242632431" lon="7.741158278650981"><ele>585.3333333333333</ele><time>2026-03-29T10:04:59.001Z</time></trkpt><trkpt lat="45.42911191006249" lon="7.7410615161507605"><ele>586.1666666666666</ele><time>2026-03-29T10:05:01.001Z</time></trkpt><trkpt lat="45.4291191713894" lon="7.740960938478501"><ele>587.0</ele><time>2026-03-29T10:05:11.001Z</time></trkpt><trkpt lat="45.42913555339926" lon="7.740872198472044"><ele>587.0</ele><time>2026-03-29T10:05:19.001Z</time></trkpt><trkpt lat="45.429168007757475" lon="7.740978688314051"><ele>587.0</ele><time>2026-03-29T10:05:26.001Z</time></trkpt><trkpt lat="45.4291913424116" lon="7.741069394545913"><ele>587.0</ele><time>2026-03-29T10:05:27.001Z</time></trkpt><trkpt lat="45.42919950019182" lon="7.741174615483455"><ele>587.0</ele><time>2026-03-29T10:05:28.001Z</time></trkpt><trkpt lat="45.429199148711575" lon="7.741324935365997"><ele>587.0</ele><time>2026-03-29T10:05:30.001Z</time></trkpt><trkpt lat="45.429172314113586" lon="7.741425869015229"><ele>587.0</ele><time>2026-03-29T10:05:31.001Z</time></trkpt><trkpt lat="45.42917418009809" lon="7.74161070292434"><ele>587.6666666666666</ele><time>2026-03-29T10:05:33.001Z</time></trkpt><trkpt lat="45.429165630726644" lon="7.741738180877403"><ele>588.3333333333333</ele><time>2026-03-29T10:05:35.001Z</time></trkpt><trkpt lat="45.42917086491753" lon="7.741910194368705"><ele>589.0</ele><time>2026-03-29T10:05:37Z</time></trkpt><trkpt lat="45.4291845515485" lon="7.742004673650029"><ele>589.6666666666666</ele><time>2026-03-29T10:05:38Z</time></trkpt><trkpt lat="45.42915977759245" lon="7.742117651295645"><ele>590.3333333333334</ele><time>2026-03-29T10:05:40Z</time></trkpt><trkpt lat="45.42911816402309" lon="7.742190412885117"><ele>591.0</ele><time>2026-03-29T10:05:42Z</time></trkpt><trkpt lat="45.42917482012725" lon="7.742237893588771"><ele>592.2</ele><time>2026-03-29T10:05:45Z</time></trkpt><trkpt lat="45.42923513852524" lon="7.7422002493431235"><ele>593.4000000000001</ele><time>2026-03-29T10:05:47Z</time></trkpt><trkpt lat="45.42933192695898" lon="7.742175802340628"><ele>594.6</ele><time>2026-03-29T10:05:49Z</time></trkpt><trkpt lat="45.429430548567034" lon="7.742064892076636"><ele>595.8000000000001</ele><time>2026-03-29T10:05:51Z</time></trkpt><trkpt lat="45.429492010414435" lon="7.741962025466777"><ele>597.0</ele><time>2026-03-29T10:05:53Z</time></trkpt><trkpt lat="45.42957102419226" lon="7.74188323366566"><ele>596.0</ele><time>2026-03-29T10:05:56Z</time></trkpt><trkpt lat="45.42960613211284" lon="7.741804657216759"><ele>595.0</ele><time>2026-03-29T10:06:05Z</time></trkpt><trkpt lat="45.42967822706308" lon="7.741802699604602"><ele>594.0</ele><time>2026-03-29T10:06:07.001Z</time></trkpt><trkpt lat="45.42976835821236" lon="7.741806190006192"><ele>593.0</ele><time>2026-03-29T10:06:09.001Z</time></trkpt><trkpt lat="45.42982402143349" lon="7.741762531428798"><ele>592.0</ele><time>2026-03-29T10:06:10.001Z</time></trkpt><trkpt lat="45.42991330293163" lon="7.741681740125823"><ele>591.0</ele><time>2026-03-29T10:06:12.001Z</time></trkpt><trkpt lat="45.43000498840432" lon="7.741680651039464"><ele>594.3333333333334</ele><time>2026-03-29T10:06:14.001Z</time></trkpt><trkpt lat="45.430091867647484" lon="7.741633447003991"><ele>597.6666666666666</ele><time>2026-03-29T10:06:19.001Z</time></trkpt><trkpt lat="45.43014772669643" lon="7.741557349520072"><ele>601.0</ele><time>2026-03-29T10:06:21.001Z</time></trkpt><trkpt lat="45.43018866627248" lon="7.741474653688676"><ele>604.3333333333333</ele><time>2026-03-29T10:06:23.001Z</time></trkpt><trkpt lat="45.43026662269251" lon="7.74142324284116"><ele>607.6666666666666</ele><time>2026-03-29T10:06:25.001Z</time></trkpt><trkpt lat="45.430311830923756" lon="7.741337998440921"><ele>611.0</ele><time>2026-03-29T10:06:27.001Z</time></trkpt><trkpt lat="45.430385981477684" lon="7.741319634704401"><ele>611.0</ele><time>2026-03-29T10:06:34.001Z</time></trkpt><trkpt lat="45.43044974066871" lon="7.741257379836588"><ele>611.0</ele><time>2026-03-29T10:06:38.001Z</time></trkpt><trkpt lat="45.430526219419654" lon="7.741247015911461"><ele>611.0</ele><time>2026-03-29T10:06:42.001Z</time></trkpt><trkpt lat="45.43065491220991" lon="7.741204788770243"><ele>611.0</ele><time>2026-03-29T10:09:35.001Z</time></trkpt><trkpt lat="45.43070479943508" lon="7.7411441272259855"><ele>611.0</ele><time>2026-03-29T10:09:47.001Z</time></trkpt><trkpt lat="45.4307630567452" lon="7.7410682729807805"><ele>611.0</ele><time>2026-03-29T10:09:51Z</time></trkpt><trkpt lat="45.430815204498394" lon="7.741010985588661"><ele>616.5</ele><time>2026-03-29T10:09:56Z</time></trkpt><trkpt lat="45.43088273744427" lon="7.740991742161315"><ele>622.0</ele><time>2026-03-29T10:10:04Z</time></trkpt><trkpt lat="45.430973223112126" lon="7.740970937340663"><ele>627.5</ele><time>2026-03-29T10:10:09Z</time></trkpt><trkpt lat="45.43104997152419" lon="7.740919603748505"><ele>633.0</ele><time>2026-03-29T10:14:15Z</time></trkpt><trkpt lat="45.43112180854035" lon="7.740906292383341"><ele>638.5</ele><time>2026-03-29T10:14:17Z</time></trkpt><trkpt lat="45.43118757806225" lon="7.740922152404318"><ele>644.0</ele><time>2026-03-29T10:14:20Z</time></trkpt><trkpt lat="45.431259841859934" lon="7.740918052090666"><ele>644.0</ele><time>2026-03-29T10:14:23.001Z</time></trkpt><trkpt lat="45.43129511676195" lon="7.740784650556333"><ele>644.0</ele><time>2026-03-29T10:14:26.001Z</time></trkpt><trkpt lat="45.431306864041865" lon="7.740669813807599"><ele>644.0</ele><time>2026-03-29T10:14:31.001Z</time></trkpt><trkpt lat="45.43136525845044" lon="7.740617228230148"><ele>644.0</ele><time>2026-03-29T10:14:34.001Z</time></trkpt><trkpt lat="45.43142667909505" lon="7.7405711370694075"><ele>644.0</ele><time>2026-03-29T10:14:36.001Z</time></trkpt><trkpt lat="45.431507728644576" lon="7.740531206283504"><ele>644.0</ele><time>2026-03-29T10:14:39.001Z</time></trkpt><trkpt lat="45.43156564931894" lon="7.740491771816712"><ele>645.5</ele><time>2026-03-29T10:14:41.001Z</time></trkpt><trkpt lat="45.43164407115164" lon="7.740461626047174"><ele>647.0</ele><time>2026-03-29T10:14:46.001Z</time></trkpt><trkpt lat="45.431710111280985" lon="7.740436094583633"><ele>648.5</ele><time>2026-03-29T10:14:50.001Z</time></trkpt><trkpt lat="45.43178519779959" lon="7.740368611830819"><ele>650.0</ele><time>2026-03-29T10:14:53.001Z</time></trkpt><trkpt lat="45.43185558622875" lon="7.740343428553728"><ele>651.5</ele><time>2026-03-29T10:14:59.001Z</time></trkpt><trkpt lat="45.43191140716258" lon="7.740281246993106"><ele>653.0</ele><time>2026-03-29T10:15:01.001Z</time></trkpt><trkpt lat="45.431941691423575" lon="7.740194205579264"><ele>657.1666666666666</ele><time>2026-03-29T10:15:04.001Z</time></trkpt><trkpt lat="45.43201815903953" lon="7.740160732863906"><ele>661.3333333333333</ele><time>2026-03-29T10:15:06.001Z</time></trkpt><trkpt lat="45.43208690527798" lon="7.740110956399874"><ele>665.5</ele><time>2026-03-29T10:15:08.001Z</time></trkpt><trkpt lat="45.43217388294999" lon="7.740109044501979"><ele>669.6666666666666</ele><time>2026-03-29T10:15:11.001Z</time></trkpt><trkpt lat="45.432237427279986" lon="7.74006422780181"><ele>673.8333333333334</ele><time>2026-03-29T10:15:13.001Z</time></trkpt><trkpt lat="45.4323038220203" lon="7.740013201534301"><ele>678.0</ele><time>2026-03-29T10:15:15.001Z</time></trkpt><trkpt lat="45.43238152177072" lon="7.7399863824762285"><ele>680.0</ele><time>2026-03-29T10:15:17.001Z</time></trkpt><trkpt lat="45.43246048717677" lon="7.739959737237096"><ele>682.0</ele><time>2026-03-29T10:15:19.001Z</time></trkpt><trkpt lat="45.43253482796648" lon="7.739915328633459"><ele>684.0</ele><time>2026-03-29T10:15:21.001Z</time></trkpt><trkpt lat="45.43261220395069" lon="7.739959185691613"><ele>686.0</ele><time>2026-03-29T10:15:24.001Z</time></trkpt><trkpt lat="45.43265638378101" lon="7.740034569755321"><ele>688.0</ele><time>2026-03-29T10:15:26.001Z</time></trkpt><trkpt lat="45.43269403820598" lon="7.740146952163398"><ele>690.0</ele><time>2026-03-29T10:15:28.001Z</time></trkpt><trkpt lat="45.432761050989804" lon="7.740216367406956"><ele>691.0</ele><time>2026-03-29T10:15:31.001Z</time></trkpt><trkpt lat="45.432819559139844" lon="7.740297306287177"><ele>692.0</ele><time>2026-03-29T10:15:33.001Z</time></trkpt><trkpt lat="45.4328765144226" lon="7.740353590447057"><ele>693.0</ele><time>2026-03-29T10:15:37.001Z</time></trkpt><trkpt lat="45.4329401275557" lon="7.740471163828343"><ele>694.0</ele><time>2026-03-29T10:15:41.001Z</time></trkpt><trkpt lat="45.43297751104112" lon="7.740554219391209"><ele>695.0</ele><time>2026-03-29T10:15:43.001Z</time></trkpt><trkpt lat="45.433038648361006" lon="7.740645303650224"><ele>696.0</ele><time>2026-03-29T10:15:47.001Z</time></trkpt><trkpt lat="45.433100017614386" lon="7.740692293944433"><ele>696.0</ele><time>2026-03-29T10:15:51.001Z</time></trkpt><trkpt lat="45.43315738357788" lon="7.740742751374739"><ele>696.0</ele><time>2026-03-29T10:15:54.001Z</time></trkpt><trkpt lat="45.43322735900143" lon="7.740791566967638"><ele>696.0</ele><time>2026-03-29T10:15:58.001Z</time></trkpt><trkpt lat="45.43331921827085" lon="7.740832098155206"><ele>696.0</ele><time>2026-03-29T10:16:09Z</time></trkpt><trkpt lat="45.433397520749224" lon="7.740883301840852"><ele>696.0</ele><time>2026-03-29T10:16:11Z</time></trkpt><trkpt lat="45.43345372696116" lon="7.740943020494763"><ele>696.0</ele><time>2026-03-29T10:16:13Z</time></trkpt><trkpt lat="45.43351325607082" lon="7.741017442963991"><ele>697.4285714285714</ele><time>2026-03-29T10:16:15Z</time></trkpt><trkpt lat="45.43357911777167" lon="7.741071991644568"><ele>698.8571428571429</ele><time>2026-03-29T10:16:19Z</time></trkpt><trkpt lat="45.433625193339374" lon="7.741147025132207"><ele>700.2857142857142</ele><time>2026-03-29T10:16:21Z</time></trkpt><trkpt lat="45.4336499417294" lon="7.741260468905413"><ele>701.7142857142858</ele><time>2026-03-29T10:16:25Z</time></trkpt><trkpt lat="45.433723778483916" lon="7.741301405797201"><ele>703.1428571428572</ele><time>2026-03-29T10:16:28Z</time></trkpt><trkpt lat="45.433789302973096" lon="7.741295626917724"><ele>704.5714285714286</ele><time>2026-03-29T10:16:30Z</time></trkpt><trkpt lat="45.43382768214656" lon="7.741222108928671"><ele>706.0</ele><time>2026-03-29T10:16:33Z</time></trkpt><trkpt lat="45.433874054842185" lon="7.74111132009476"><ele>706.0</ele><time>2026-03-29T10:30:13.001Z</time></trkpt><trkpt lat="45.43394294200687" lon="7.741053914346943"><ele>706.0</ele><time>2026-03-29T10:30:15.001Z</time></trkpt><trkpt lat="45.43403865491537" lon="7.741051271158664"><ele>706.0</ele><time>2026-03-29T10:30:17.001Z</time></trkpt><trkpt lat="45.43408757435449" lon="7.740968535226638"><ele>706.0</ele><time>2026-03-29T10:30:19.001Z</time></trkpt><trkpt lat="45.434142917264865" lon="7.740877938550289"><ele>706.0</ele><time>2026-03-29T10:30:20.001Z</time></trkpt><trkpt lat="45.43420275100552" lon="7.740808976708659"><ele>706.0</ele><time>2026-03-29T10:30:21.001Z</time></trkpt><trkpt lat="45.43427306336336" lon="7.740713870905087"><ele>707.1666666666667</ele><time>2026-03-29T10:30:23.001Z</time></trkpt><trkpt lat="45.434317280479235" lon="7.740632749219235"><ele>708.3333333333334</ele><time>2026-03-29T10:30:25.001Z</time></trkpt><trkpt lat="45.43434700442974" lon="7.74054030031824"><ele>709.5</ele><time>2026-03-29T10:30:27.001Z</time></trkpt><trkpt lat="45.434345017898025" lon="7.740417656059787"><ele>710.6666666666666</ele><time>2026-03-29T10:30:29.001Z</time></trkpt><trkpt lat="45.43429688105335" lon="7.740309117553798"><ele>711.8333333333333</ele><time>2026-03-29T10:30:32.001Z</time></trkpt><trkpt lat="45.43428794947269" lon="7.740185564497066"><ele>713.0</ele><time>2026-03-29T10:30:34.001Z</time></trkpt><trkpt lat="45.434239916730114" lon="7.740095372695958"><ele>714.5</ele><time>2026-03-29T10:30:36.001Z</time></trkpt><trkpt lat="45.4342619052748" lon="7.7399446382790265"><ele>716.0</ele><time>2026-03-29T10:30:38.001Z</time></trkpt><trkpt lat="45.43423383860834" lon="7.739852014226887"><ele>717.5</ele><time>2026-03-29T10:30:40.001Z</time></trkpt><trkpt lat="45.434167495460066" lon="7.73980649125691"><ele>719.0</ele><time>2026-03-29T10:30:42.001Z</time></trkpt><trkpt lat="45.43412685578995" lon="7.739720485458953"><ele>720.5</ele><time>2026-03-29T10:30:44.001Z</time></trkpt><trkpt lat="45.43406923034678" lon="7.739620625784463"><ele>722.0</ele><time>2026-03-29T10:30:48Z</time></trkpt><trkpt lat="45.43400761123648" lon="7.739558307939104"><ele>722.0</ele><time>2026-03-29T10:30:52Z</time></trkpt><trkpt lat="45.4339477784246" lon="7.739514122477901"><ele>722.0</ele><time>2026-03-29T10:30:55Z</time></trkpt><trkpt lat="45.43388374091506" lon="7.73943859118281"><ele>722.0</ele><time>2026-03-29T10:31:02Z</time></trkpt><trkpt lat="45.43383983004177" lon="7.739326921919362"><ele>722.0</ele><time>2026-03-29T10:31:05Z</time></trkpt><trkpt lat="45.43379175412976" lon="7.739258632617239"><ele>722.0</ele><time>2026-03-29T10:31:07Z</time></trkpt><trkpt lat="45.433710419503946" lon="7.7391854892028205"><ele>722.0</ele><time>2026-03-29T10:31:10Z</time></trkpt><trkpt lat="45.43365295115887" lon="7.73913258355439"><ele>723.0</ele><time>2026-03-29T10:31:13Z</time></trkpt><trkpt lat="45.43359464182042" lon="7.7390418032987345"><ele>724.0</ele><time>2026-03-29T10:31:24Z</time></trkpt><trkpt lat="45.433500468336504" lon="7.738953294560342"><ele>725.0</ele><time>2026-03-29T10:31:26Z</time></trkpt><trkpt lat="45.433439416627316" lon="7.738927008441748"><ele>726.0</ele><time>2026-03-29T10:31:29Z</time></trkpt><trkpt lat="45.43336513782915" lon="7.738893602982331"><ele>727.0</ele><time>2026-03-29T10:31:34Z</time></trkpt><trkpt lat="45.43326147670107" lon="7.738936751365243"><ele>728.0</ele><time>2026-03-29T10:31:36Z</time></trkpt><trkpt lat="45.43317688011594" lon="7.738959189747588"><ele>728.0</ele><time>2026-03-29T10:31:38Z</time></trkpt><trkpt lat="45.433115785878826" lon="7.738910123031294"><ele>728.0</ele><time>2026-03-29T10:31:40Z</time></trkpt><trkpt lat="45.433053536790574" lon="7.738836801084796"><ele>728.0</ele><time>2026-03-29T10:31:43Z</time></trkpt><trkpt lat="45.432982222076994" lon="7.7388077227854835"><ele>728.0</ele><time>2026-03-29T10:31:49.001Z</time></trkpt><trkpt lat="45.43292077700297" lon="7.738778916354096"><ele>728.0</ele><time>2026-03-29T10:31:51.001Z</time></trkpt><trkpt lat="45.432820703088126" lon="7.738703173816824"><ele>728.0</ele><time>2026-03-29T10:31:53.001Z</time></trkpt><trkpt lat="45.43274712693913" lon="7.738601822862851"><ele>727.0</ele><time>2026-03-29T10:31:55.001Z</time></trkpt><trkpt lat="45.43266777555882" lon="7.738503360774796"><ele>726.0</ele><time>2026-03-29T10:31:57.001Z</time></trkpt><trkpt lat="45.43258764959352" lon="7.73842811062038"><ele>725.0</ele><time>2026-03-29T10:31:59.001Z</time></trkpt><trkpt lat="45.432545200449724" lon="7.7383513709496645"><ele>724.0</ele><time>2026-03-29T10:32:01.001Z</time></trkpt><trkpt lat="45.43249847397848" lon="7.7382240532032585"><ele>723.0</ele><time>2026-03-29T10:32:04.001Z</time></trkpt><trkpt lat="45.43245867031299" lon="7.738122449339416"><ele>723.0</ele><time>2026-03-29T10:32:06.001Z</time></trkpt><trkpt lat="45.43236456665122" lon="7.738126179701893"><ele>723.0</ele><time>2026-03-29T10:32:09.001Z</time></trkpt><trkpt lat="45.43229975136339" lon="7.73809993538887"><ele>723.0</ele><time>2026-03-29T10:32:13.001Z</time></trkpt><trkpt lat="45.432235395650736" lon="7.738073069757829"><ele>723.0</ele><time>2026-03-29T10:32:23.001Z</time></trkpt><trkpt lat="45.432152354179934" lon="7.738058595813955"><ele>723.0</ele><time>2026-03-29T10:32:33.001Z</time></trkpt><trkpt lat="45.432091454333445" lon="7.737996619031395"><ele>723.0</ele><time>2026-03-29T10:32:36.001Z</time></trkpt><trkpt lat="45.43200061390299" lon="7.7379707498703265"><ele>721.0</ele><time>2026-03-29T10:32:40.001Z</time></trkpt><trkpt lat="45.431932158519004" lon="7.737946048806549"><ele>719.0</ele><time>2026-03-29T10:32:42.001Z</time></trkpt><trkpt lat="45.43186894844138" lon="7.737976584912291"><ele>717.0</ele><time>2026-03-29T10:32:45.001Z</time></trkpt><trkpt lat="45.43180646767881" lon="7.737867252956775"><ele>715.0</ele><time>2026-03-29T10:32:54Z</time></trkpt><trkpt lat="45.431803402763514" lon="7.737772813513038"><ele>713.0</ele><time>2026-03-29T10:32:55Z</time></trkpt><trkpt lat="45.43175471131439" lon="7.737674392234912"><ele>711.0</ele><time>2026-03-29T10:32:58Z</time></trkpt><trkpt lat="45.431691438323455" lon="7.7376714036984975"><ele>710.0</ele><time>2026-03-29T10:33:00Z</time></trkpt><trkpt lat="45.43164724547896" lon="7.737572008206244"><ele>709.0</ele><time>2026-03-29T10:33:03Z</time></trkpt><trkpt lat="45.4315953689334" lon="7.737491632444106"><ele>708.0</ele><time>2026-03-29T10:33:05Z</time></trkpt><trkpt lat="45.431558270307235" lon="7.737403286707995"><ele>707.0</ele><time>2026-03-29T10:33:07Z</time></trkpt><trkpt lat="45.43151760866673" lon="7.7372990724264294"><ele>706.0</ele><time>2026-03-29T10:33:09Z</time></trkpt><trkpt lat="45.431454909116596" lon="7.73722683348849"><ele>705.0</ele><time>2026-03-29T10:33:11Z</time></trkpt><trkpt lat="45.43138090494558" lon="7.737142426360421"><ele>705.0</ele><time>2026-03-29T10:33:14Z</time></trkpt><trkpt lat="45.43131380122087" lon="7.737077718508443"><ele>705.0</ele><time>2026-03-29T10:33:16Z</time></trkpt><trkpt lat="45.43121936635505" lon="7.7370228846652624"><ele>705.0</ele><time>2026-03-29T10:33:18Z</time></trkpt><trkpt lat="45.43115074760007" lon="7.7369409658010735"><ele>705.0</ele><time>2026-03-29T10:33:20Z</time></trkpt><trkpt lat="45.43107482650946" lon="7.736872568007922"><ele>705.0</ele><time>2026-03-29T10:33:23Z</time></trkpt><trkpt lat="45.43099981285647" lon="7.736799822185563"><ele>700.8333333333334</ele><time>2026-03-29T10:33:26Z</time></trkpt><trkpt lat="45.430891920411135" lon="7.736767717227308"><ele>696.6666666666666</ele><time>2026-03-29T10:33:28Z</time></trkpt><trkpt lat="45.43082966430602" lon="7.736711908293806"><ele>692.5</ele><time>2026-03-29T10:33:29Z</time></trkpt><trkpt lat="45.43077392843126" lon="7.736627741714771"><ele>688.3333333333333</ele><time>2026-03-29T10:33:31Z</time></trkpt><trkpt lat="45.430727514714484" lon="7.736521189309209"><ele>684.1666666666666</ele><time>2026-03-29T10:33:34Z</time></trkpt><trkpt lat="45.430637328085446" lon="7.736474870391025"><ele>680.0</ele><time>2026-03-29T10:33:36Z</time></trkpt><trkpt lat="45.43057702606305" lon="7.736384322797422"><ele>680.0</ele><time>2026-03-29T10:33:40Z</time></trkpt><trkpt lat="45.430517444862616" lon="7.736295898775572"><ele>680.0</ele><time>2026-03-29T10:33:43Z</time></trkpt><trkpt lat="45.430469008796834" lon="7.736196724470717"><ele>680.0</ele><time>2026-03-29T10:33:45Z</time></trkpt><trkpt lat="45.43043778838562" lon="7.736093327098897"><ele>680.0</ele><time>2026-03-29T10:33:47Z</time></trkpt><trkpt lat="45.43037533828024" lon="7.735975532281301"><ele>680.0</ele><time>2026-03-29T10:33:49Z</time></trkpt><trkpt lat="45.43033811888195" lon="7.73589420118589"><ele>680.0</ele><time>2026-03-29T10:33:51Z</time></trkpt><trkpt lat="45.43028801808567" lon="7.735815203649058"><ele>676.5</ele><time>2026-03-29T10:33:53.001Z</time></trkpt><trkpt lat="45.43029286338025" lon="7.735709387152841"><ele>673.0</ele><time>2026-03-29T10:33:57.001Z</time></trkpt><trkpt lat="45.43020962587176" lon="7.735613323645345"><ele>669.5</ele><time>2026-03-29T10:34:00.001Z</time></trkpt><trkpt lat="45.430156710288564" lon="7.735531789017029"><ele>666.0</ele><time>2026-03-29T10:34:02.001Z</time></trkpt><trkpt lat="45.430121635114006" lon="7.735435512839625"><ele>662.5</ele><time>2026-03-29T10:34:04.001Z</time></trkpt><trkpt lat="45.43008494089269" lon="7.735353232797569"><ele>659.0</ele><time>2026-03-29T10:34:07.001Z</time></trkpt><trkpt lat="45.43005713826675" lon="7.735260362020843"><ele>658.0</ele><time>2026-03-29T10:34:11.001Z</time></trkpt><trkpt lat="45.43007946605359" lon="7.7351629214196285"><ele>657.0</ele><time>2026-03-29T10:34:23.001Z</time></trkpt><trkpt lat="45.43003600710789" lon="7.735040308257966"><ele>656.0</ele><time>2026-03-29T10:34:32.001Z</time></trkpt><trkpt lat="45.429973174535085" lon="7.734912116748459"><ele>655.0</ele><time>2026-03-29T10:34:34.001Z</time></trkpt><trkpt lat="45.429944244166975" lon="7.734787757463954"><ele>654.0</ele><time>2026-03-29T10:34:36.001Z</time></trkpt><trkpt lat="45.429927623083046" lon="7.734653530661073"><ele>654.0</ele><time>2026-03-29T10:34:38.001Z</time></trkpt><trkpt lat="45.42987517201437" lon="7.734569270236781"><ele>654.0</ele><time>2026-03-29T10:34:40.001Z</time></trkpt><trkpt lat="45.429855321806144" lon="7.734424921854476"><ele>654.0</ele><time>2026-03-29T10:34:42.001Z</time></trkpt><trkpt lat="45.429875087664755" lon="7.734284656530156"><ele>654.0</ele><time>2026-03-29T10:34:44.001Z</time></trkpt><trkpt lat="45.429791974633716" lon="7.734219125653595"><ele>654.0</ele><time>2026-03-29T10:34:47.001Z</time></trkpt><trkpt lat="45.42970507761797" lon="7.73416137762795"><ele>654.5</ele><time>2026-03-29T10:34:49.001Z</time></trkpt><trkpt lat="45.429656807556476" lon="7.734085732630431"><ele>655.0</ele><time>2026-03-29T10:34:51.001Z</time></trkpt><trkpt lat="45.429595024793755" lon="7.73403547432021"><ele>655.5</ele><time>2026-03-29T10:34:55.001Z</time></trkpt><trkpt lat="45.4295288434994" lon="7.734048165400012"><ele>656.0</ele><time>2026-03-29T10:35:07Z</time></trkpt><trkpt lat="45.429633333857595" lon="7.7340365405536"><ele>656.5</ele><time>2026-03-29T10:35:53Z</time></trkpt><trkpt lat="45.429695615551566" lon="7.734115080385714"><ele>657.0</ele><time>2026-03-29T10:35:56Z</time></trkpt><trkpt lat="45.42975396869222" lon="7.734171319685557"><ele>657.0</ele><time>2026-03-29T10:36:00.001Z</time></trkpt><trkpt lat="45.429824514911374" lon="7.734217128531521"><ele>657.0</ele><time>2026-03-29T10:36:04.001Z</time></trkpt><trkpt lat="45.429874901846375" lon="7.734279910942932"><ele>657.0</ele><time>2026-03-29T10:36:07.001Z</time></trkpt><trkpt lat="45.429871931431514" lon="7.7344111847790105"><ele>657.0</ele><time>2026-03-29T10:36:10.001Z</time></trkpt><trkpt lat="45.42987973919782" lon="7.734524723780869"><ele>657.0</ele><time>2026-03-29T10:36:13.001Z</time></trkpt><trkpt lat="45.42991183799317" lon="7.734602246663491"><ele>657.0</ele><time>2026-03-29T10:36:16.001Z</time></trkpt><trkpt lat="45.429953392804315" lon="7.734721795995725"><ele>656.5714285714286</ele><time>2026-03-29T10:36:23.001Z</time></trkpt><trkpt lat="45.42996073374952" lon="7.734825348474413"><ele>656.1428571428572</ele><time>2026-03-29T10:36:25.001Z</time></trkpt><trkpt lat="45.42998870258123" lon="7.734905786852652"><ele>655.7142857142858</ele><time>2026-03-29T10:36:27.001Z</time></trkpt><trkpt lat="45.43002343914977" lon="7.734986830993049"><ele>655.2857142857142</ele><time>2026-03-29T10:36:29.001Z</time></trkpt><trkpt lat="45.43007038105685" lon="7.735071032018841"><ele>654.8571428571429</ele><time>2026-03-29T10:36:31.001Z</time></trkpt><trkpt lat="45.43013304296078" lon="7.735029246782039"><ele>654.4285714285714</ele><time>2026-03-29T10:36:34.001Z</time></trkpt><trkpt lat="45.430179730248284" lon="7.734910854184238"><ele>654.0</ele><time>2026-03-29T10:36:36.001Z</time></trkpt><trkpt lat="45.43024013385204" lon="7.734801379568482"><ele>654.0</ele><time>2026-03-29T10:36:38.001Z</time></trkpt><trkpt lat="45.430244553119934" lon="7.734654554166391"><ele>654.0</ele><time>2026-03-29T10:36:40.001Z</time></trkpt><trkpt lat="45.430280989220094" lon="7.734504570643695"><ele>654.0</ele><time>2026-03-29T10:36:42.001Z</time></trkpt><trkpt lat="45.430311441137974" lon="7.734355867517577"><ele>654.0</ele><time>2026-03-29T10:36:44.001Z</time></trkpt><trkpt lat="45.43031268948782" lon="7.734222711175111"><ele>654.0</ele><time>2026-03-29T10:36:46.001Z</time></trkpt><trkpt lat="45.43031211090377" lon="7.734046879941443"><ele>654.5</ele><time>2026-03-29T10:36:48.001Z</time></trkpt><trkpt lat="45.43026883811518" lon="7.7338821489011815"><ele>655.0</ele><time>2026-03-29T10:36:50.001Z</time></trkpt><trkpt lat="45.43020663676992" lon="7.733799945634582"><ele>655.5</ele><time>2026-03-29T10:36:52.001Z</time></trkpt><trkpt lat="45.4301456000618" lon="7.733734821381506"><ele>656.0</ele><time>2026-03-29T10:36:53.001Z</time></trkpt><trkpt lat="45.43008973228844" lon="7.73366101421246"><ele>656.5</ele><time>2026-03-29T10:36:54.001Z</time></trkpt><trkpt lat="45.43005906168527" lon="7.733581271497992"><ele>657.0</ele><time>2026-03-29T10:36:55.001Z</time></trkpt><trkpt lat="45.42998349797333" lon="7.733475268916091"><ele>655.0</ele><time>2026-03-29T10:36:57.001Z</time></trkpt><trkpt lat="45.429889748182646" lon="7.733387148445032"><ele>653.0</ele><time>2026-03-29T10:37:02.001Z</time></trkpt><trkpt lat="45.42981629951257" lon="7.733287341564815"><ele>651.0</ele><time>2026-03-29T10:37:04Z</time></trkpt><trkpt lat="45.42976466450789" lon="7.733204897321672"><ele>649.0</ele><time>2026-03-29T10:37:06Z</time></trkpt><trkpt lat="45.42968151470588" lon="7.7331178419875455"><ele>647.0</ele><time>2026-03-29T10:37:08Z</time></trkpt><trkpt lat="45.429624688042445" lon="7.733030268448506"><ele>647.0</ele><time>2026-03-29T10:37:10Z</time></trkpt><trkpt lat="45.42953166207113" lon="7.732965027635369"><ele>647.0</ele><time>2026-03-29T10:37:12Z</time></trkpt><trkpt lat="45.42945182972014" lon="7.7328715876716645"><ele>647.0</ele><time>2026-03-29T10:37:14Z</time></trkpt><trkpt lat="45.429364622027926" lon="7.732822032677806"><ele>647.0</ele><time>2026-03-29T10:37:16Z</time></trkpt><trkpt lat="45.429338581874255" lon="7.732735253262191"><ele>647.0</ele><time>2026-03-29T10:37:18Z</time></trkpt><trkpt lat="45.42926697167066" lon="7.73262168926336"><ele>644.0</ele><time>2026-03-29T10:37:20Z</time></trkpt><trkpt lat="45.42916463202879" lon="7.732628574266763"><ele>641.0</ele><time>2026-03-29T10:37:22Z</time></trkpt><trkpt lat="45.429085137475354" lon="7.732573770431241"><ele>638.0</ele><time>2026-03-29T10:37:24Z</time></trkpt><trkpt lat="45.42897958939171" lon="7.732557749006497"><ele>635.0</ele><time>2026-03-29T10:37:26Z</time></trkpt><trkpt lat="45.4288669325649" lon="7.732568709470377"><ele>632.0</ele><time>2026-03-29T10:37:28Z</time></trkpt><trkpt lat="45.428802800837516" lon="7.732599573979003"><ele>631.0</ele><time>2026-03-29T10:37:29Z</time></trkpt><trkpt lat="45.428753997614976" lon="7.732688737321811"><ele>630.0</ele><time>2026-03-29T10:37:31Z</time></trkpt><trkpt lat="45.42867227849134" lon="7.732777143854717"><ele>629.0</ele><time>2026-03-29T10:37:33Z</time></trkpt><trkpt lat="45.42862972451051" lon="7.732847928085772"><ele>628.0</ele><time>2026-03-29T10:37:34Z</time></trkpt><trkpt lat="45.42854404112555" lon="7.73291436144837"><ele>627.0</ele><time>2026-03-29T10:37:36Z</time></trkpt><trkpt lat="45.42847082465625" lon="7.732930327600283"><ele>626.0</ele><time>2026-03-29T10:37:37Z</time></trkpt><trkpt lat="45.42840043239046" lon="7.732934592392335"><ele>626.0</ele><time>2026-03-29T10:37:38Z</time></trkpt><trkpt lat="45.42833755716765" lon="7.732939095385417"><ele>626.0</ele><time>2026-03-29T10:37:39Z</time></trkpt><trkpt lat="45.42823627697059" lon="7.732963504351061"><ele>626.0</ele><time>2026-03-29T10:37:41Z</time></trkpt><trkpt lat="45.428148014796506" lon="7.7330126589684065"><ele>626.0</ele><time>2026-03-29T10:37:43Z</time></trkpt><trkpt lat="45.428084689181794" lon="7.733090215871613"><ele>626.0</ele><time>2026-03-29T10:37:45Z</time></trkpt><trkpt lat="45.42798672941248" lon="7.733158203308187"><ele>623.0</ele><time>2026-03-29T10:37:47Z</time></trkpt><trkpt lat="45.42793944551161" lon="7.733254132643733"><ele>620.0</ele><time>2026-03-29T10:37:49Z</time></trkpt><trkpt lat="45.427853143066365" lon="7.7332283514562485"><ele>617.0</ele><time>2026-03-29T10:37:51Z</time></trkpt><trkpt lat="45.4278034932917" lon="7.733170891754776"><ele>614.0</ele><time>2026-03-29T10:37:52Z</time></trkpt><trkpt lat="45.42771853863234" lon="7.7331550253669565"><ele>611.0</ele><time>2026-03-29T10:37:55Z</time></trkpt><trkpt lat="45.42765515368341" lon="7.733214352652279"><ele>608.0</ele><time>2026-03-29T10:37:57Z</time></trkpt><trkpt lat="45.427665290432074" lon="7.7333125193430945"><ele>608.0</ele><time>2026-03-29T10:37:59Z</time></trkpt><trkpt lat="45.42763906060922" lon="7.733431859622806"><ele>608.0</ele><time>2026-03-29T10:38:01Z</time></trkpt><trkpt lat="45.42757632603524" lon="7.733447472389473"><ele>608.0</ele><time>2026-03-29T10:38:03.001Z</time></trkpt><trkpt lat="45.42750361561723" lon="7.733465749001183"><ele>608.0</ele><time>2026-03-29T10:38:06.001Z</time></trkpt><trkpt lat="45.42748789458591" lon="7.733553829234615"><ele>608.0</ele><time>2026-03-29T10:38:08.001Z</time></trkpt><trkpt lat="45.42743505125938" lon="7.73361547395925"><ele>608.0</ele><time>2026-03-29T10:38:10.001Z</time></trkpt><trkpt lat="45.42732902253962" lon="7.733558830106956"><ele>606.1999999999999</ele><time>2026-03-29T10:38:12.001Z</time></trkpt><trkpt lat="45.427248955954894" lon="7.733573775653285"><ele>604.4</ele><time>2026-03-29T10:38:14.001Z</time></trkpt><trkpt lat="45.427183548238574" lon="7.733608854650445"><ele>602.5999999999999</ele><time>2026-03-29T10:38:16.001Z</time></trkpt><trkpt lat="45.4271205939029" lon="7.7336706832452835"><ele>600.8</ele><time>2026-03-29T10:38:23.001Z</time></trkpt><trkpt lat="45.42705780751415" lon="7.73375700749346"><ele>599.0</ele><time>2026-03-29T10:38:26.001Z</time></trkpt><trkpt lat="45.426942183879156" lon="7.73390437287602"><ele>596.5</ele><time>2026-03-29T10:38:28.001Z</time></trkpt><trkpt lat="45.42688055908117" lon="7.7339691971943605"><ele>594.0</ele><time>2026-03-29T10:38:29.001Z</time></trkpt><trkpt lat="45.42683502909331" lon="7.734038592344683"><ele>591.5</ele><time>2026-03-29T10:38:31.001Z</time></trkpt><trkpt lat="45.426733403905644" lon="7.734073979961815"><ele>589.0</ele><time>2026-03-29T10:38:33.001Z</time></trkpt><trkpt lat="45.42666374656393" lon="7.734131031078898"><ele>586.5</ele><time>2026-03-29T10:38:35.001Z</time></trkpt><trkpt lat="45.4265879203248" lon="7.734173000689933"><ele>584.0</ele><time>2026-03-29T10:38:49.001Z</time></trkpt><trkpt lat="45.42657472845127" lon="7.734279385185814"><ele>584.0</ele><time>2026-03-29T10:38:56.001Z</time></trkpt><trkpt lat="45.42664582973127" lon="7.734318448872145"><ele>584.0</ele><time>2026-03-29T10:39:10Z</time></trkpt><trkpt lat="45.42671539147727" lon="7.734370040343859"><ele>584.0</ele><time>2026-03-29T10:40:01Z</time></trkpt><trkpt lat="45.42683561003188" lon="7.734382705292543"><ele>584.0</ele><time>2026-03-29T10:40:03Z</time></trkpt><trkpt lat="45.42691741404537" lon="7.734414446548857"><ele>584.0</ele><time>2026-03-29T10:40:05Z</time></trkpt><trkpt lat="45.42700422645807" lon="7.734385400694192"><ele>584.0</ele><time>2026-03-29T10:40:08.001Z</time></trkpt><trkpt lat="45.42708152665343" lon="7.7343630148331854"><ele>584.2</ele><time>2026-03-29T10:40:13.001Z</time></trkpt><trkpt lat="45.4271566841644" lon="7.734358356381967"><ele>584.4</ele><time>2026-03-29T10:40:16.001Z</time></trkpt><trkpt lat="45.42716089270668" lon="7.734450359710813"><ele>584.6</ele><time>2026-03-29T10:40:18.001Z</time></trkpt><trkpt lat="45.42716665244446" lon="7.734566317267205"><ele>584.8</ele><time>2026-03-29T10:40:21.001Z</time></trkpt><trkpt lat="45.4272214110938" lon="7.734728264332619"><ele>585.0</ele><time>2026-03-29T10:40:24.001Z</time></trkpt><trkpt lat="45.427286629380184" lon="7.73487874842365"><ele>585.0</ele><time>2026-03-29T10:40:26.001Z</time></trkpt><trkpt lat="45.427288725708465" lon="7.734983754277977"><ele>585.0</ele><time>2026-03-29T10:40:28.001Z</time></trkpt><trkpt lat="45.427320467881756" lon="7.7350731200210046"><ele>585.0</ele><time>2026-03-29T10:40:30.001Z</time></trkpt><trkpt lat="45.42736363079224" lon="7.735178131784053"><ele>585.0</ele><time>2026-03-29T10:40:32.001Z</time></trkpt><trkpt lat="45.427441342970106" lon="7.735230592481126"><ele>585.0</ele><time>2026-03-29T10:40:35.001Z</time></trkpt><trkpt lat="45.4275163182121" lon="7.735310072049686"><ele>585.0</ele><time>2026-03-29T10:40:37.001Z</time></trkpt><trkpt lat="45.42762416951935" lon="7.7353420944364535"><ele>586.1666666666666</ele><time>2026-03-29T10:40:39.001Z</time></trkpt><trkpt lat="45.42771166559361" lon="7.7353298977012495"><ele>587.3333333333334</ele><time>2026-03-29T10:40:42.001Z</time></trkpt><trkpt lat="45.427774033068765" lon="7.735292451243535"><ele>588.5</ele><time>2026-03-29T10:40:44.001Z</time></trkpt><trkpt lat="45.427840778781565" lon="7.7352499395233085"><ele>589.6666666666667</ele><time>2026-03-29T10:40:49.001Z</time></trkpt><trkpt lat="45.427896716100655" lon="7.73531430280517"><ele>590.8333333333334</ele><time>2026-03-29T10:41:03.001Z</time></trkpt><trkpt lat="45.427927163840586" lon="7.7354348706349345"><ele>592.0</ele><time>2026-03-29T10:41:06.001Z</time></trkpt><trkpt lat="45.427994502198274" lon="7.7355371307948895"><ele>592.0</ele><time>2026-03-29T10:41:08.001Z</time></trkpt><trkpt lat="45.428074197208375" lon="7.735596608173163"><ele>592.0</ele><time>2026-03-29T10:41:10.001Z</time></trkpt><trkpt lat="45.42813042622965" lon="7.735647902385004"><ele>592.0</ele><time>2026-03-29T10:41:13.001Z</time></trkpt><trkpt lat="45.42809547542458" lon="7.735732393358199"><ele>592.0</ele><time>2026-03-29T10:41:16Z</time></trkpt><trkpt lat="45.42804476135247" lon="7.735819281734761"><ele>592.0</ele><time>2026-03-29T10:41:20Z</time></trkpt><trkpt lat="45.428034246499934" lon="7.735910389115452"><ele>592.0</ele><time>2026-03-29T10:41:22Z</time></trkpt><trkpt lat="45.427997657670744" lon="7.7359896777418005"><ele>592.0</ele><time>2026-03-29T10:41:24Z</time></trkpt><trkpt lat="45.427986345559596" lon="7.736103620410642"><ele>592.0</ele><time>2026-03-29T10:41:26Z</time></trkpt><trkpt lat="45.42799090072614" lon="7.736193599098597"><ele>592.0</ele><time>2026-03-29T10:41:28Z</time></trkpt><trkpt lat="45.428054186405994" lon="7.736299640767886"><ele>592.0</ele><time>2026-03-29T10:41:31Z</time></trkpt><trkpt lat="45.42815477724112" lon="7.736378220482758"><ele>592.0</ele><time>2026-03-29T10:41:33Z</time></trkpt><trkpt lat="45.42821441596288" lon="7.73643415257071"><ele>592.0</ele><time>2026-03-29T10:41:35Z</time></trkpt><trkpt lat="45.42819664221986" lon="7.736546021408806"><ele>592.0</ele><time>2026-03-29T10:41:37Z</time></trkpt><trkpt lat="45.42814395203819" lon="7.73662564797797"><ele>592.0</ele><time>2026-03-29T10:41:39Z</time></trkpt><trkpt lat="45.428103374408444" lon="7.736700761358481"><ele>592.0</ele><time>2026-03-29T10:41:41Z</time></trkpt><trkpt lat="45.428074309204646" lon="7.7368264006992025"><ele>592.0</ele><time>2026-03-29T10:41:43Z</time></trkpt><trkpt lat="45.42806121117734" lon="7.736948180939811"><ele>592.0</ele><time>2026-03-29T10:41:45Z</time></trkpt><trkpt lat="45.428039258247416" lon="7.737065134851352"><ele>592.0</ele><time>2026-03-29T10:41:47Z</time></trkpt><trkpt lat="45.42801978582222" lon="7.737173150675681"><ele>592.0</ele><time>2026-03-29T10:41:50Z</time></trkpt><trkpt lat="45.428060524832716" lon="7.737299455674731"><ele>590.6666666666667</ele><time>2026-03-29T10:41:52Z</time></trkpt><trkpt lat="45.42811602049049" lon="7.737378204097859"><ele>589.3333333333334</ele><time>2026-03-29T10:41:55Z</time></trkpt><trkpt lat="45.42819006120948" lon="7.737411216046632"><ele>588.0</ele><time>2026-03-29T10:41:57Z</time></trkpt><trkpt lat="45.4282806855843" lon="7.737498304942448"><ele>586.6666666666666</ele><time>2026-03-29T10:42:00Z</time></trkpt><trkpt lat="45.42834972616317" lon="7.737500530380569"><ele>585.3333333333333</ele><time>2026-03-29T10:42:02Z</time></trkpt><trkpt lat="45.42839441107268" lon="7.73758586934688"><ele>584.0</ele><time>2026-03-29T10:42:05Z</time></trkpt><trkpt lat="45.42843840330324" lon="7.737662173419159"><ele>581.8333333333333</ele><time>2026-03-29T10:42:08Z</time></trkpt><trkpt lat="45.428478551175985" lon="7.737735066285613"><ele>579.6666666666666</ele><time>2026-03-29T10:42:12.001Z</time></trkpt><trkpt lat="45.42856126124829" lon="7.737829189333404"><ele>577.5</ele><time>2026-03-29T10:42:14.001Z</time></trkpt><trkpt lat="45.42862628642347" lon="7.7379033738792655"><ele>575.3333333333334</ele><time>2026-03-29T10:42:16.001Z</time></trkpt><trkpt lat="45.42865299924387" lon="7.737998799922771"><ele>573.1666666666667</ele><time>2026-03-29T10:42:19.001Z</time></trkpt><trkpt lat="45.428697613111716" lon="7.738080855927097"><ele>571.0</ele><time>2026-03-29T10:42:21.001Z</time></trkpt><trkpt lat="45.42876855047809" lon="7.738132171753334"><ele>571.0</ele><time>2026-03-29T10:42:25.001Z</time></trkpt><trkpt lat="45.428816962174736" lon="7.738194811234391"><ele>571.0</ele><time>2026-03-29T10:42:28.001Z</time></trkpt><trkpt lat="45.42877653132877" lon="7.7382795143051135"><ele>571.0</ele><time>2026-03-29T10:42:30.001Z</time></trkpt><trkpt lat="45.428696271659284" lon="7.73839104919403"><ele>571.0</ele><time>2026-03-29T10:42:32.001Z</time></trkpt><trkpt lat="45.42869076679949" lon="7.738491483861161"><ele>571.0</ele><time>2026-03-29T10:42:34.001Z</time></trkpt><trkpt lat="45.4286350822891" lon="7.738584582924991"><ele>571.0</ele><time>2026-03-29T10:42:37.001Z</time></trkpt><trkpt lat="45.42865757590467" lon="7.738696162511671"><ele>570.5</ele><time>2026-03-29T10:42:39.001Z</time></trkpt><trkpt lat="45.428709425970155" lon="7.73877231066746"><ele>570.0</ele><time>2026-03-29T10:42:41.001Z</time></trkpt><trkpt lat="45.42873616625929" lon="7.7388774736270465"><ele>569.5</ele><time>2026-03-29T10:42:43.001Z</time></trkpt><trkpt lat="45.42876131174343" lon="7.738987943801256"><ele>569.0</ele><time>2026-03-29T10:42:44.001Z</time></trkpt><trkpt lat="45.4287830797832" lon="7.739122348924043"><ele>568.5</ele><time>2026-03-29T10:42:45.001Z</time></trkpt><trkpt lat="45.42880983513807" lon="7.739210067894643"><ele>568.0</ele><time>2026-03-29T10:42:46.001Z</time></trkpt><trkpt lat="45.42885822765246" lon="7.739300905988241"><ele>571.5</ele><time>2026-03-29T10:42:47.001Z</time></trkpt><trkpt lat="45.42892582197985" lon="7.73937283819777"><ele>575.0</ele><time>2026-03-29T10:42:48.001Z</time></trkpt><trkpt lat="45.42898588910189" lon="7.739408497229775"><ele>578.5</ele><time>2026-03-29T10:42:49.001Z</time></trkpt><trkpt lat="45.42908614926196" lon="7.739450657123153"><ele>582.0</ele><time>2026-03-29T10:42:52.001Z</time></trkpt><trkpt lat="45.429149742614435" lon="7.739488918151981"><ele>585.5</ele><time>2026-03-29T10:42:53.001Z</time></trkpt><trkpt lat="45.42919625233692" lon="7.7395554128356885"><ele>589.0</ele><time>2026-03-29T10:42:54.001Z</time></trkpt><trkpt lat="45.42920082580243" lon="7.739690013110506"><ele>589.0</ele><time>2026-03-29T10:42:56.001Z</time></trkpt><trkpt lat="45.42918118546189" lon="7.739903106284007"><ele>589.0</ele><time>2026-03-29T10:42:58.001Z</time></trkpt><trkpt lat="45.42918558432013" lon="7.7400207921789415"><ele>589.0</ele><time>2026-03-29T10:42:59.001Z</time></trkpt><trkpt lat="45.42917967293615" lon="7.740136440319464"><ele>589.0</ele><time>2026-03-29T10:43:00.001Z</time></trkpt><trkpt lat="45.429157226550124" lon="7.74023504571993"><ele>589.0</ele><time>2026-03-29T10:43:01.001Z</time></trkpt><trkpt lat="45.42911459219094" lon="7.740320025922998"><ele>588.7142857142857</ele><time>2026-03-29T10:43:02.001Z</time></trkpt><trkpt lat="45.42906135642852" lon="7.740410691874852"><ele>588.4285714285713</ele><time>2026-03-29T10:43:03.001Z</time></trkpt><trkpt lat="45.4290229491583" lon="7.740483246223619"><ele>588.1428571428571</ele><time>2026-03-29T10:43:04.001Z</time></trkpt><trkpt lat="45.42903870826419" lon="7.740619281813261"><ele>587.8571428571429</ele><time>2026-03-29T10:43:06.001Z</time></trkpt><trkpt lat="45.42907448859848" lon="7.740695962461419"><ele>587.5714285714287</ele><time>2026-03-29T10:43:07.001Z</time></trkpt><trkpt lat="45.429113026213635" lon="7.740770419965772"><ele>587.2857142857143</ele><time>2026-03-29T10:43:08.001Z</time></trkpt><trkpt lat="45.429141670137135" lon="7.740852540374653"><ele>587.0</ele><time>2026-03-29T10:43:10.001Z</time></trkpt><trkpt lat="45.42917375905361" lon="7.740952161259877"><ele>587.8000000000001</ele><time>2026-03-29T10:43:14.001Z</time></trkpt><trkpt lat="45.42919223611357" lon="7.741054358793455"><ele>588.6</ele><time>2026-03-29T10:43:58Z</time></trkpt><trkpt lat="45.42920254300776" lon="7.74118262841503"><ele>589.4000000000001</ele><time>2026-03-29T10:44:00Z</time></trkpt><trkpt lat="45.42918417536933" lon="7.7413490158261755"><ele>590.2</ele><time>2026-03-29T10:44:02Z</time></trkpt><trkpt lat="45.4291812093139" lon="7.74154361785994"><ele>591.0</ele><time>2026-03-29T10:44:04Z</time></trkpt><trkpt lat="45.42917927456446" lon="7.741634423789672"><ele>591.0</ele><time>2026-03-29T10:44:05Z</time></trkpt><trkpt lat="45.42916453888415" lon="7.741790965686534"><ele>591.0</ele><time>2026-03-29T10:44:07Z</time></trkpt><trkpt lat="45.42918496498808" lon="7.741949020962416"><ele>591.0</ele><time>2026-03-29T10:44:10Z</time></trkpt><trkpt lat="45.429169835314084" lon="7.742075962722566"><ele>591.0</ele><time>2026-03-29T10:44:12Z</time></trkpt><trkpt lat="45.429127094190655" lon="7.742161309139542"><ele>591.0</ele><time>2026-03-29T10:44:16.001Z</time></trkpt><trkpt lat="45.429172738049594" lon="7.74223514577339"><ele>591.0</ele><time>2026-03-29T10:44:20.001Z</time></trkpt><trkpt lat="45.4292496455949" lon="7.742214087650024"><ele>591.0</ele><time>2026-03-29T10:45:29Z</time></trkpt><trkpt lat="45.4293313657993" lon="7.742184276919432"><ele>591.0</ele><time>2026-03-29T10:45:31Z</time></trkpt><trkpt lat="45.429410548154856" lon="7.7420835883736485"><ele>591.0</ele><time>2026-03-29T10:45:33Z</time></trkpt><trkpt lat="45.42946241214727" lon="7.74199979815009"><ele>591.0</ele><time>2026-03-29T10:45:35Z</time></trkpt><trkpt lat="45.42953497946073" lon="7.741952967158987"><ele>591.0</ele><time>2026-03-29T10:45:37Z</time></trkpt><trkpt lat="45.42960250079349" lon="7.741838717062069"><ele>594.3333333333334</ele><time>2026-03-29T10:45:39Z</time></trkpt><trkpt lat="45.42967059547588" lon="7.741791511858839"><ele>597.6666666666666</ele><time>2026-03-29T10:45:45Z</time></trkpt><trkpt lat="45.42973548918024" lon="7.741821327614808"><ele>601.0</ele><time>2026-03-29T10:45:47Z</time></trkpt><trkpt lat="45.42979616579857" lon="7.741777936052995"><ele>604.3333333333333</ele><time>2026-03-29T10:45:49Z</time></trkpt><trkpt lat="45.42986930231106" lon="7.7417292080213995"><ele>607.6666666666666</ele><time>2026-03-29T10:45:53Z</time></trkpt><trkpt lat="45.42995968790981" lon="7.741705698201929"><ele>611.0</ele><time>2026-03-29T10:45:55Z</time></trkpt><trkpt lat="45.430041571903786" lon="7.741641917344887"><ele>611.0</ele><time>2026-03-29T10:45:57Z</time></trkpt><trkpt lat="45.43012142931562" lon="7.741583660856538"><ele>611.0</ele><time>2026-03-29T10:46:00Z</time></trkpt><trkpt lat="45.43019022019522" lon="7.7414766719975185"><ele>611.0</ele><time>2026-03-29T10:46:03Z</time></trkpt><trkpt lat="45.43027827821802" lon="7.741397216265431"><ele>611.0</ele><time>2026-03-29T10:46:05Z</time></trkpt><trkpt lat="45.430332349754025" lon="7.741339367526031"><ele>611.0</ele><time>2026-03-29T10:46:10Z</time></trkpt><trkpt lat="45.43027555085764" lon="7.741432013844375"><ele>611.0</ele><time>2026-03-29T10:46:57.001Z</time></trkpt><trkpt lat="45.430210176136626" lon="7.741504979366184"><ele>611.0</ele><time>2026-03-29T10:47:01.001Z</time></trkpt><trkpt lat="45.43014497430271" lon="7.741576630042821"><ele>611.0</ele><time>2026-03-29T10:47:04.001Z</time></trkpt><trkpt lat="45.43009574324051" lon="7.741647600605007"><ele>611.0</ele><time>2026-03-29T10:47:07.001Z</time></trkpt><trkpt lat="45.430033799091916" lon="7.741667359297969"><ele>611.0</ele><time>2026-03-29T10:47:09.001Z</time></trkpt><trkpt lat="45.42994076287801" lon="7.741706018790561"><ele>611.0</ele><time>2026-03-29T10:47:12.001Z</time></trkpt><trkpt lat="45.429876504278305" lon="7.741736637674334"><ele>611.0</ele><time>2026-03-29T10:47:15.001Z</time></trkpt><trkpt lat="45.429807325203875" lon="7.741757752168392"><ele>611.0</ele><time>2026-03-29T10:47:17.001Z</time></trkpt><trkpt lat="45.429751802744605" lon="7.7418325130904835"><ele>611.0</ele><time>2026-03-29T10:47:19.001Z</time></trkpt><trkpt lat="45.429666175801444" lon="7.74180327403425"><ele>611.0</ele><time>2026-03-29T10:47:22.001Z</time></trkpt><trkpt lat="45.42966999170252" lon="7.741687903153373"><ele>611.0</ele><time>2026-03-29T10:47:27.001Z</time></trkpt><trkpt lat="45.42972725370509" lon="7.7415648752476605"><ele>611.0</ele><time>2026-03-29T10:47:29.001Z</time></trkpt><trkpt lat="45.4297912925549" lon="7.741526570191793"><ele>611.0</ele><time>2026-03-29T10:48:00Z</time></trkpt><trkpt lat="45.42987715343952" lon="7.7415085957551835"><ele>611.0</ele><time>2026-03-29T10:48:04Z</time></trkpt><trkpt lat="45.429943478552126" lon="7.74148042256079"><ele>611.0</ele><time>2026-03-29T10:48:07Z</time></trkpt><trkpt lat="45.429997374551284" lon="7.741407130656927"><ele>611.0</ele><time>2026-03-29T10:48:09Z</time></trkpt><trkpt lat="45.430067515874775" lon="7.74137154440975"><ele>611.0</ele><time>2026-03-29T10:48:12Z</time></trkpt><trkpt lat="45.43010414775666" lon="7.7412932268571515"><ele>611.0</ele><time>2026-03-29T10:48:14Z</time></trkpt><trkpt lat="45.43017099640675" lon="7.741225533236574"><ele>611.0</ele><time>2026-03-29T10:48:18Z</time></trkpt><trkpt lat="45.430232973732075" lon="7.741190538883078"><ele>611.0</ele><time>2026-03-29T10:48:21.001Z</time></trkpt><trkpt lat="45.43030489630314" lon="7.741148532394957"><ele>611.0</ele><time>2026-03-29T10:48:24.001Z</time></trkpt><trkpt lat="45.430392116749246" lon="7.7411152192067"><ele>611.0</ele><time>2026-03-29T10:48:28.001Z</time></trkpt><trkpt lat="45.43047444709298" lon="7.741048377532558"><ele>611.0</ele><time>2026-03-29T10:48:31.001Z</time></trkpt><trkpt lat="45.43053595131727" lon="7.7410031069268594"><ele>611.0</ele><time>2026-03-29T10:48:33.001Z</time></trkpt><trkpt lat="45.43058191312081" lon="7.740937884625086"><ele>616.5</ele><time>2026-03-29T10:48:36.001Z</time></trkpt><trkpt lat="45.430629137010165" lon="7.74086663993561"><ele>622.0</ele><time>2026-03-29T10:48:41.001Z</time></trkpt><trkpt lat="45.43070431454584" lon="7.740824009924907"><ele>627.5</ele><time>2026-03-29T10:48:44.001Z</time></trkpt><trkpt lat="45.43075244283955" lon="7.740717877237695"><ele>633.0</ele><time>2026-03-29T10:48:47.001Z</time></trkpt><trkpt lat="45.43081741180851" lon="7.740658694809902"><ele>638.5</ele><time>2026-03-29T10:48:50.001Z</time></trkpt><trkpt lat="45.4308844707344" lon="7.740587461150623"><ele>644.0</ele><time>2026-03-29T10:48:53.001Z</time></trkpt><trkpt lat="45.43092653583251" lon="7.740516395948258"><ele>644.0</ele><time>2026-03-29T10:48:55.001Z</time></trkpt><trkpt lat="45.43097740819523" lon="7.740412872801664"><ele>644.0</ele><time>2026-03-29T10:48:59.001Z</time></trkpt><trkpt lat="45.430960607101795" lon="7.740317143698497"><ele>644.0</ele><time>2026-03-29T10:49:02.001Z</time></trkpt><trkpt lat="45.4309908288006" lon="7.74022448220519"><ele>644.0</ele><time>2026-03-29T10:49:04.001Z</time></trkpt><trkpt lat="45.43104489923582" lon="7.740161779545995"><ele>644.0</ele><time>2026-03-29T10:49:06.001Z</time></trkpt><trkpt lat="45.43106222321649" lon="7.740033285192271"><ele>644.0</ele><time>2026-03-29T10:49:08.001Z</time></trkpt><trkpt lat="45.43105132177979" lon="7.739923200426411"><ele>647.5</ele><time>2026-03-29T10:49:11.001Z</time></trkpt><trkpt lat="45.43100147444312" lon="7.739866347388694"><ele>651.0</ele><time>2026-03-29T10:49:14.001Z</time></trkpt><trkpt lat="45.43096293470158" lon="7.7397806133154035"><ele>654.5</ele><time>2026-03-29T10:49:18.001Z</time></trkpt><trkpt lat="45.43094177086327" lon="7.7396719404456285"><ele>658.0</ele><time>2026-03-29T10:49:21.001Z</time></trkpt><trkpt lat="45.43089761538606" lon="7.739564365285718"><ele>661.5</ele><time>2026-03-29T10:49:25.001Z</time></trkpt><trkpt lat="45.430958885629856" lon="7.739453212125626"><ele>665.0</ele><time>2026-03-29T10:49:28.001Z</time></trkpt><trkpt lat="45.43101853969649" lon="7.739360939249933"><ele>666.1666666666666</ele><time>2026-03-29T10:49:30.001Z</time></trkpt><trkpt lat="45.43108696411978" lon="7.739262725723427"><ele>667.3333333333333</ele><time>2026-03-29T10:49:33.001Z</time></trkpt><trkpt lat="45.43109033807928" lon="7.739159573599558"><ele>668.5</ele><time>2026-03-29T10:49:36.001Z</time></trkpt><trkpt lat="45.43107532303239" lon="7.739039855139133"><ele>669.6666666666666</ele><time>2026-03-29T10:49:38.001Z</time></trkpt><trkpt lat="45.431132969366985" lon="7.738924813226657"><ele>670.8333333333334</ele><time>2026-03-29T10:49:40Z</time></trkpt><trkpt lat="45.43112348704949" lon="7.738795166973882"><ele>672.0</ele><time>2026-03-29T10:49:43Z</time></trkpt><trkpt lat="45.431191481863024" lon="7.738732114931822"><ele>672.0</ele><time>2026-03-29T10:49:45Z</time></trkpt><trkpt lat="45.431262940058225" lon="7.738693234516196"><ele>672.0</ele><time>2026-03-29T10:49:47Z</time></trkpt><trkpt lat="45.43131396654655" lon="7.738571463218086"><ele>672.0</ele><time>2026-03-29T10:49:50Z</time></trkpt><trkpt lat="45.4313432407119" lon="7.7384814174350804"><ele>672.0</ele><time>2026-03-29T10:49:52Z</time></trkpt><trkpt lat="45.431417814851024" lon="7.738434511209249"><ele>672.0</ele><time>2026-03-29T10:49:55Z</time></trkpt><trkpt lat="45.43147969203772" lon="7.738301310737886"><ele>672.0</ele><time>2026-03-29T10:49:57Z</time></trkpt><trkpt lat="45.43155660581746" lon="7.738230421500289"><ele>678.5</ele><time>2026-03-29T10:49:59Z</time></trkpt><trkpt lat="45.4316460186277" lon="7.738259014035435"><ele>685.0</ele><time>2026-03-29T10:50:02Z</time></trkpt><trkpt lat="45.43169725647774" lon="7.738328139635693"><ele>691.5</ele><time>2026-03-29T10:50:07Z</time></trkpt><trkpt lat="45.43172623078951" lon="7.7384123092025225"><ele>698.0</ele><time>2026-03-29T10:50:12Z</time></trkpt><trkpt lat="45.43177756578516" lon="7.7384695681911975"><ele>704.5</ele><time>2026-03-29T10:50:22Z</time></trkpt><trkpt lat="45.431852373151756" lon="7.738511475510594"><ele>711.0</ele><time>2026-03-29T10:50:25.001Z</time></trkpt><trkpt lat="45.43193094094695" lon="7.738543424693795"><ele>711.0</ele><time>2026-03-29T10:50:29.001Z</time></trkpt><trkpt lat="45.43201024445992" lon="7.738548231902155"><ele>711.0</ele><time>2026-03-29T10:50:41.001Z</time></trkpt><trkpt lat="45.43207543850896" lon="7.7385504679753465"><ele>711.0</ele><time>2026-03-29T10:50:44.001Z</time></trkpt><trkpt lat="45.43213991422177" lon="7.738589569453326"><ele>711.0</ele><time>2026-03-29T10:50:48.001Z</time></trkpt><trkpt lat="45.43221680327994" lon="7.738555296096879"><ele>711.0</ele><time>2026-03-29T10:51:45.001Z</time></trkpt><trkpt lat="45.43226624796399" lon="7.738488209993276"><ele>711.0</ele><time>2026-03-29T10:51:47Z</time></trkpt><trkpt lat="45.43234266013994" lon="7.738471858042481"><ele>711.0</ele><time>2026-03-29T10:51:49Z</time></trkpt><trkpt lat="45.4323648195107" lon="7.738331150053782"><ele>713.0</ele><time>2026-03-29T10:51:53Z</time></trkpt><trkpt lat="45.43243558091203" lon="7.738276851125318"><ele>715.0</ele><time>2026-03-29T10:51:55Z</time></trkpt><trkpt lat="45.43250479405145" lon="7.738264645241459"><ele>717.0</ele><time>2026-03-29T10:51:57Z</time></trkpt><trkpt lat="45.43258765523483" lon="7.738229889430091"><ele>719.0</ele><time>2026-03-29T10:51:59Z</time></trkpt><trkpt lat="45.43265755780864" lon="7.738185755071716"><ele>721.0</ele><time>2026-03-29T10:52:00Z</time></trkpt><trkpt lat="45.43271104787766" lon="7.7380822856557545"><ele>723.0</ele><time>2026-03-29T10:52:02Z</time></trkpt><trkpt lat="45.43273512942837" lon="7.737985288332161"><ele>723.0</ele><time>2026-03-29T10:52:04Z</time></trkpt><trkpt lat="45.43273761927906" lon="7.737871897434933"><ele>723.0</ele><time>2026-03-29T10:52:08Z</time></trkpt><trkpt lat="45.43279503934103" lon="7.737832838158654"><ele>723.0</ele><time>2026-03-29T10:52:11Z</time></trkpt><trkpt lat="45.432866781734035" lon="7.737840531008775"><ele>723.0</ele><time>2026-03-29T10:52:14Z</time></trkpt><trkpt lat="45.432966984920775" lon="7.737853461558829"><ele>723.0</ele><time>2026-03-29T10:52:17Z</time></trkpt><trkpt lat="45.433041690547064" lon="7.737861382416192"><ele>723.0</ele><time>2026-03-29T10:52:19Z</time></trkpt><trkpt lat="45.43310344988988" lon="7.737843169389274"><ele>722.7142857142858</ele><time>2026-03-29T10:52:22Z</time></trkpt><trkpt lat="45.43318736312569" lon="7.7378437992158"><ele>722.4285714285714</ele><time>2026-03-29T10:52:26.001Z</time></trkpt><trkpt lat="45.433206821395416" lon="7.737751720240811"><ele>722.1428571428571</ele><time>2026-03-29T10:52:29.001Z</time></trkpt><trkpt lat="45.43317600774078" lon="7.737639408429646"><ele>721.8571428571429</ele><time>2026-03-29T10:52:33.001Z</time></trkpt><trkpt lat="45.43319663234891" lon="7.737546826188881"><ele>721.5714285714286</ele><time>2026-03-29T10:52:37.001Z</time></trkpt><trkpt lat="45.43325460360395" lon="7.737501094249215"><ele>721.2857142857143</ele><time>2026-03-29T10:52:39.001Z</time></trkpt><trkpt lat="45.433313544781726" lon="7.737455773041575"><ele>721.0</ele><time>2026-03-29T10:52:41.001Z</time></trkpt><trkpt lat="45.43337714037683" lon="7.73741704668672"><ele>718.8571428571429</ele><time>2026-03-29T10:52:44.001Z</time></trkpt><trkpt lat="45.43340796294528" lon="7.737322291538371"><ele>716.7142857142858</ele><time>2026-03-29T10:52:46.001Z</time></trkpt><trkpt lat="45.433419347646144" lon="7.737228203814777"><ele>714.5714285714286</ele><time>2026-03-29T10:52:48.001Z</time></trkpt><trkpt lat="45.43346109922583" lon="7.737148228576112"><ele>712.4285714285714</ele><time>2026-03-29T10:52:51.001Z</time></trkpt><trkpt lat="45.433496428827176" lon="7.737070336084072"><ele>710.2857142857143</ele><time>2026-03-29T10:52:54.001Z</time></trkpt><trkpt lat="45.43351085915594" lon="7.736982387898665"><ele>708.1428571428571</ele><time>2026-03-29T10:53:00.001Z</time></trkpt><trkpt lat="45.43350811475952" lon="7.736871632219675"><ele>706.0</ele><time>2026-03-29T10:53:07.001Z</time></trkpt><trkpt lat="45.43355553838566" lon="7.7368051347892886"><ele>701.5</ele><time>2026-03-29T10:53:10.001Z</time></trkpt><trkpt lat="45.43358916898319" lon="7.736716067410678"><ele>697.0</ele><time>2026-03-29T10:53:13.001Z</time></trkpt><trkpt lat="45.43363365195505" lon="7.736622081783965"><ele>692.5</ele><time>2026-03-29T10:53:16.001Z</time></trkpt><trkpt lat="45.43368990494102" lon="7.736574044691229"><ele>688.0</ele><time>2026-03-29T10:53:19.001Z</time></trkpt><trkpt lat="45.433703892642534" lon="7.736479002844984"><ele>683.5</ele><time>2026-03-29T10:53:21.001Z</time></trkpt><trkpt lat="45.43376877175018" lon="7.736324378905983"><ele>679.0</ele><time>2026-03-29T10:53:25.001Z</time></trkpt><trkpt lat="45.43377863160965" lon="7.736193814938233"><ele>679.0</ele><time>2026-03-29T10:53:28.001Z</time></trkpt><trkpt lat="45.43378871637033" lon="7.736088240648992"><ele>679.0</ele><time>2026-03-29T10:53:30.001Z</time></trkpt><trkpt lat="45.43377043176074" lon="7.735967862751831"><ele>679.0</ele><time>2026-03-29T10:53:32.001Z</time></trkpt><trkpt lat="45.43377712902746" lon="7.735863608229113"><ele>679.0</ele><time>2026-03-29T10:53:34.001Z</time></trkpt><trkpt lat="45.43381654229689" lon="7.735781620708288"><ele>679.0</ele><time>2026-03-29T10:53:36.001Z</time></trkpt><trkpt lat="45.43385845572962" lon="7.735690900081274"><ele>679.0</ele><time>2026-03-29T10:53:38.001Z</time></trkpt><trkpt lat="45.433913208222414" lon="7.735607630863541"><ele>676.5</ele><time>2026-03-29T10:53:40.001Z</time></trkpt><trkpt lat="45.4339649743868" lon="7.735514766696892"><ele>674.0</ele><time>2026-03-29T10:53:42.001Z</time></trkpt><trkpt lat="45.43394790750219" lon="7.73537670672318"><ele>671.5</ele><time>2026-03-29T10:53:45.001Z</time></trkpt><trkpt lat="45.43396462044113" lon="7.73527505076588"><ele>669.0</ele><time>2026-03-29T10:53:47.001Z</time></trkpt><trkpt lat="45.4340413760181" lon="7.735220788153335"><ele>666.5</ele><time>2026-03-29T10:53:50.001Z</time></trkpt><trkpt lat="45.434119282727636" lon="7.7351826835804145"><ele>664.0</ele><time>2026-03-29T10:53:52Z</time></trkpt><trkpt lat="45.43417918247426" lon="7.735061699806687"><ele>664.0</ele><time>2026-03-29T10:53:54Z</time></trkpt><trkpt lat="45.434231057347425" lon="7.734969410928833"><ele>664.0</ele><time>2026-03-29T10:53:55Z</time></trkpt><trkpt lat="45.43428090315084" lon="7.734890748565546"><ele>664.0</ele><time>2026-03-29T10:53:56Z</time></trkpt><trkpt lat="45.43431968629529" lon="7.734818861636297"><ele>664.0</ele><time>2026-03-29T10:53:57Z</time></trkpt><trkpt lat="45.43435564414038" lon="7.73469514525088"><ele>664.0</ele><time>2026-03-29T10:53:59Z</time></trkpt><trkpt lat="45.43442264849791" lon="7.734583709609899"><ele>664.0</ele><time>2026-03-29T10:54:01Z</time></trkpt><trkpt lat="45.43447662284176" lon="7.734456168814135"><ele>663.3333333333334</ele><time>2026-03-29T10:54:02Z</time></trkpt><trkpt lat="45.43452270375802" lon="7.734336111291421"><ele>662.6666666666667</ele><time>2026-03-29T10:54:03Z</time></trkpt><trkpt lat="45.43456358067743" lon="7.734234930347415"><ele>662.0</ele><time>2026-03-29T10:54:04Z</time></trkpt><trkpt lat="45.43459040535435" lon="7.734148180001492"><ele>661.3333333333334</ele><time>2026-03-29T10:54:05Z</time></trkpt><trkpt lat="45.43461312380038" lon="7.734053674366328"><ele>660.6666666666666</ele><time>2026-03-29T10:54:06Z</time></trkpt><trkpt lat="45.43464496732879" lon="7.733962488486166"><ele>660.0</ele><time>2026-03-29T10:54:07Z</time></trkpt><trkpt lat="45.434665531209745" lon="7.733867832467198"><ele>659.5</ele><time>2026-03-29T10:54:08Z</time></trkpt><trkpt lat="45.434671932001244" lon="7.73372626193733"><ele>659.0</ele><time>2026-03-29T10:54:09Z</time></trkpt><trkpt lat="45.434665988643204" lon="7.733573785108022"><ele>658.5</ele><time>2026-03-29T10:54:10Z</time></trkpt><trkpt lat="45.43465209060641" lon="7.733455721788685"><ele>658.0</ele><time>2026-03-29T10:54:11Z</time></trkpt><trkpt lat="45.43464068279994" lon="7.733357100127628"><ele>657.5</ele><time>2026-03-29T10:54:12Z</time></trkpt><trkpt lat="45.43463434463773" lon="7.7332594319629955"><ele>657.0</ele><time>2026-03-29T10:54:13Z</time></trkpt><trkpt lat="45.43461202669537" lon="7.733171702620571"><ele>657.0</ele><time>2026-03-29T10:54:15Z</time></trkpt><trkpt lat="45.434596755319824" lon="7.733071099837714"><ele>657.0</ele><time>2026-03-29T10:54:29.001Z</time></trkpt><trkpt lat="45.4345845633711" lon="7.732980703599472"><ele>657.0</ele><time>2026-03-29T10:56:01Z</time></trkpt><trkpt lat="45.43456186265164" lon="7.732889540129665"><ele>657.0</ele><time>2026-03-29T10:56:04Z</time></trkpt><trkpt lat="45.434535005637585" lon="7.7327879493759"><ele>657.0</ele><time>2026-03-29T10:56:06Z</time></trkpt><trkpt lat="45.434489838680484" lon="7.732655274236629"><ele>657.0</ele><time>2026-03-29T10:56:08Z</time></trkpt><trkpt lat="45.43443530390859" lon="7.732517247446343"><ele>656.6</ele><time>2026-03-29T10:56:10Z</time></trkpt><trkpt lat="45.43439808552346" lon="7.732361208432332"><ele>656.2</ele><time>2026-03-29T10:56:12Z</time></trkpt><trkpt lat="45.43437545450618" lon="7.732270999487535"><ele>655.8</ele><time>2026-03-29T10:56:13Z</time></trkpt><trkpt lat="45.434331214700066" lon="7.732131662403472"><ele>655.4</ele><time>2026-03-29T10:56:15Z</time></trkpt><trkpt lat="45.43432712370621" lon="7.7319976670394"><ele>655.0</ele><time>2026-03-29T10:56:17.001Z</time></trkpt><trkpt lat="45.4343350325719" lon="7.731839648046509"><ele>654.2857142857143</ele><time>2026-03-29T10:56:19.001Z</time></trkpt><trkpt lat="45.43433117548024" lon="7.731738227491131"><ele>653.5714285714286</ele><time>2026-03-29T10:56:20.001Z</time></trkpt><trkpt lat="45.4343362829126" lon="7.731610521275448"><ele>652.8571428571429</ele><time>2026-03-29T10:56:21.001Z</time></trkpt><trkpt lat="45.43434135669795" lon="7.731493998710519"><ele>652.1428571428571</ele><time>2026-03-29T10:56:22.001Z</time></trkpt><trkpt lat="45.43434599063106" lon="7.731383383674031"><ele>651.4285714285714</ele><time>2026-03-29T10:56:23.001Z</time></trkpt><trkpt lat="45.43434839604877" lon="7.731293447704349"><ele>650.7142857142857</ele><time>2026-03-29T10:56:24.001Z</time></trkpt><trkpt lat="45.43434928489503" lon="7.731203067585779"><ele>650.0</ele><time>2026-03-29T10:56:25.001Z</time></trkpt><trkpt lat="45.43435618883658" lon="7.7310531078842875"><ele>650.0</ele><time>2026-03-29T10:56:27.001Z</time></trkpt><trkpt lat="45.43436055268399" lon="7.730932452734756"><ele>650.0</ele><time>2026-03-29T10:56:29.001Z</time></trkpt><trkpt lat="45.43434841173248" lon="7.730819152900716"><ele>650.0</ele><time>2026-03-29T10:56:31.001Z</time></trkpt><trkpt lat="45.43431745479" lon="7.730727571640458"><ele>650.0</ele><time>2026-03-29T10:56:33.001Z</time></trkpt><trkpt lat="45.434288177028286" lon="7.7306378419635156"><ele>650.0</ele><time>2026-03-29T10:56:36.001Z</time></trkpt><trkpt lat="45.43432074003278" lon="7.730500162107657"><ele>650.0</ele><time>2026-03-29T10:56:41.001Z</time></trkpt><trkpt lat="45.4343876181241" lon="7.7304223203564995"><ele>650.0</ele><time>2026-03-29T10:56:42.001Z</time></trkpt><trkpt lat="45.4344482110664" lon="7.730353372649736"><ele>650.0</ele><time>2026-03-29T10:56:43.001Z</time></trkpt><trkpt lat="45.434509806731015" lon="7.730266505977273"><ele>650.0</ele><time>2026-03-29T10:56:44.001Z</time></trkpt><trkpt lat="45.43456537919752" lon="7.730188733179781"><ele>650.0</ele><time>2026-03-29T10:56:45.001Z</time></trkpt><trkpt lat="45.43464971817059" lon="7.7300868961210165"><ele>650.0</ele><time>2026-03-29T10:56:47.001Z</time></trkpt><trkpt lat="45.43471199533908" lon="7.729927920214852"><ele>650.3333333333333</ele><time>2026-03-29T10:56:49.001Z</time></trkpt><trkpt lat="45.434742785927575" lon="7.7298465768847535"><ele>650.6666666666666</ele><time>2026-03-29T10:56:50.001Z</time></trkpt><trkpt lat="45.43476928261623" lon="7.729764589307536"><ele>651.0</ele><time>2026-03-29T10:56:51.001Z</time></trkpt><trkpt lat="45.43483175459086" lon="7.729594613686469"><ele>651.3333333333334</ele><time>2026-03-29T10:56:53.001Z</time></trkpt><trkpt lat="45.43485638300472" lon="7.729496156792615"><ele>651.6666666666667</ele><time>2026-03-29T10:56:54.001Z</time></trkpt><trkpt lat="45.43488617511096" lon="7.72937987036444"><ele>652.0</ele><time>2026-03-29T10:56:55.001Z</time></trkpt><trkpt lat="45.4349068260491" lon="7.729255365658315"><ele>652.0</ele><time>2026-03-29T10:56:56.001Z</time></trkpt><trkpt lat="45.43492802776113" lon="7.72912618995909"><ele>652.0</ele><time>2026-03-29T10:56:57.001Z</time></trkpt><trkpt lat="45.43494157436147" lon="7.728997356455633"><ele>652.0</ele><time>2026-03-29T10:56:58.001Z</time></trkpt><trkpt lat="45.43494911489019" lon="7.72886875551719"><ele>652.0</ele><time>2026-03-29T10:56:59.001Z</time></trkpt><trkpt lat="45.43495344694278" lon="7.72871530919421"><ele>652.0</ele><time>2026-03-29T10:57:00.001Z</time></trkpt><trkpt lat="45.43494588838634" lon="7.728600281261341"><ele>651.6666666666667</ele><time>2026-03-29T10:57:01.001Z</time></trkpt><trkpt lat="45.43492504418507" lon="7.728503629325035"><ele>651.3333333333334</ele><time>2026-03-29T10:57:02.001Z</time></trkpt><trkpt lat="45.434900188277396" lon="7.728405170157156"><ele>651.0</ele><time>2026-03-29T10:57:03.001Z</time></trkpt><trkpt lat="45.43487104178539" lon="7.72830782999173"><ele>650.6666666666666</ele><time>2026-03-29T10:57:04.001Z</time></trkpt><trkpt lat="45.43482738327422" lon="7.728172172521449"><ele>650.3333333333333</ele><time>2026-03-29T10:57:06.001Z</time></trkpt><trkpt lat="45.434848840474366" lon="7.7279997676660095"><ele>650.0</ele><time>2026-03-29T10:57:08.001Z</time></trkpt><trkpt lat="45.434812862824856" lon="7.727816055411289"><ele>648.8</ele><time>2026-03-29T10:57:10.001Z</time></trkpt><trkpt lat="45.43482983465745" lon="7.727671327276069"><ele>647.6</ele><time>2026-03-29T10:57:12.001Z</time></trkpt><trkpt lat="45.434800046553804" lon="7.727562348322482"><ele>646.4000000000001</ele><time>2026-03-29T10:57:14.001Z</time></trkpt><trkpt lat="45.43477171112584" lon="7.727457083824306"><ele>645.2</ele><time>2026-03-29T10:57:16.001Z</time></trkpt><trkpt lat="45.434825323780075" lon="7.727344627672945"><ele>644.0</ele><time>2026-03-29T10:57:18.001Z</time></trkpt><trkpt lat="45.43479877836244" lon="7.7271816286629"><ele>644.0</ele><time>2026-03-29T10:57:20.001Z</time></trkpt><trkpt lat="45.43481741833883" lon="7.726999954893728"><ele>644.0</ele><time>2026-03-29T10:57:22.001Z</time></trkpt><trkpt lat="45.4348165200176" lon="7.726895636736916"><ele>644.0</ele><time>2026-03-29T10:57:23.001Z</time></trkpt><trkpt lat="45.4348177544824" lon="7.7267671024450015"><ele>644.0</ele><time>2026-03-29T10:57:24.001Z</time></trkpt><trkpt lat="45.43479598195237" lon="7.726661660730283"><ele>644.0</ele><time>2026-03-29T10:57:25.001Z</time></trkpt><trkpt lat="45.43479099677176" lon="7.726541451770063"><ele>643.3333333333333</ele><time>2026-03-29T10:57:26.001Z</time></trkpt><trkpt lat="45.434791965183834" lon="7.726428593282898"><ele>642.6666666666666</ele><time>2026-03-29T10:57:27.001Z</time></trkpt><trkpt lat="45.43480613885973" lon="7.726314052806016"><ele>642.0</ele><time>2026-03-29T10:57:28.001Z</time></trkpt><trkpt lat="45.43482346832475" lon="7.726212892101403"><ele>641.3333333333334</ele><time>2026-03-29T10:57:29.001Z</time></trkpt><trkpt lat="45.43485060533531" lon="7.7261073411501755"><ele>640.6666666666667</ele><time>2026-03-29T10:57:30.001Z</time></trkpt><trkpt lat="45.4348878242611" lon="7.726024444578941"><ele>640.0</ele><time>2026-03-29T10:57:31.001Z</time></trkpt><trkpt lat="45.43492463602826" lon="7.725935156017582"><ele>640.0</ele><time>2026-03-29T10:57:32.001Z</time></trkpt><trkpt lat="45.434930412072916" lon="7.725838339355392"><ele>640.0</ele><time>2026-03-29T10:57:33.001Z</time></trkpt><trkpt lat="45.43493153788962" lon="7.725740714034542"><ele>640.0</ele><time>2026-03-29T10:57:34.001Z</time></trkpt><trkpt lat="45.4349316786264" lon="7.725545067397822"><ele>640.0</ele><time>2026-03-29T10:57:36.001Z</time></trkpt><trkpt lat="45.434930882854545" lon="7.725447521840886"><ele>640.0</ele><time>2026-03-29T10:57:37.001Z</time></trkpt><trkpt lat="45.43495697288407" lon="7.725359750170606"><ele>640.0</ele><time>2026-03-29T10:57:38.001Z</time></trkpt><trkpt lat="45.43502901567537" lon="7.725286989427471"><ele>640.0</ele><time>2026-03-29T10:57:40.001Z</time></trkpt><trkpt lat="45.43509978207012" lon="7.725277692619637"><ele>640.0</ele><time>2026-03-29T10:57:42.001Z</time></trkpt><trkpt lat="45.43521071956494" lon="7.725327362944637"><ele>640.0</ele><time>2026-03-29T10:57:44.001Z</time></trkpt><trkpt lat="45.4353334018541" lon="7.725347082569779"><ele>640.0</ele><time>2026-03-29T10:57:46.001Z</time></trkpt><trkpt lat="45.43541342605776" lon="7.7253101585216974"><ele>640.0</ele><time>2026-03-29T10:57:47.001Z</time></trkpt><trkpt lat="45.435473118899985" lon="7.725256756497577"><ele>638.4</ele><time>2026-03-29T10:57:48.001Z</time></trkpt><trkpt lat="45.43555761023956" lon="7.725123557051473"><ele>636.8</ele><time>2026-03-29T10:57:50.001Z</time></trkpt><trkpt lat="45.43562571928519" lon="7.7250094902007325"><ele>635.2</ele><time>2026-03-29T10:57:52.001Z</time></trkpt><trkpt lat="45.43568281738554" lon="7.724916458046598"><ele>633.6</ele><time>2026-03-29T10:57:54.001Z</time></trkpt><trkpt lat="45.43571475813772" lon="7.724761478956948"><ele>632.0</ele><time>2026-03-29T10:57:56.001Z</time></trkpt><trkpt lat="45.435720483079486" lon="7.724635613373126"><ele>632.0</ele><time>2026-03-29T10:57:57.001Z</time></trkpt><trkpt lat="45.4357339241738" lon="7.724501301516667"><ele>632.0</ele><time>2026-03-29T10:57:58.001Z</time></trkpt><trkpt lat="45.43574351943102" lon="7.72435990972214"><ele>632.0</ele><time>2026-03-29T10:57:59.001Z</time></trkpt><trkpt lat="45.4357626838439" lon="7.724193676291536"><ele>632.0</ele><time>2026-03-29T10:58:00.001Z</time></trkpt><trkpt lat="45.43578643055648" lon="7.724046920107404"><ele>632.0</ele><time>2026-03-29T10:58:01.001Z</time></trkpt><trkpt lat="45.43581017731848" lon="7.723952460579439"><ele>634.4000000000001</ele><time>2026-03-29T10:58:02.001Z</time></trkpt><trkpt lat="45.43581720573867" lon="7.7237628622184475"><ele>636.8000000000001</ele><time>2026-03-29T10:58:04.001Z</time></trkpt><trkpt lat="45.43579154582609" lon="7.723656559620392"><ele>639.2</ele><time>2026-03-29T10:58:05.001Z</time></trkpt><trkpt lat="45.43580164563315" lon="7.723540158283058"><ele>641.6</ele><time>2026-03-29T10:58:06.001Z</time></trkpt><trkpt lat="45.435830873138976" lon="7.723412148510619"><ele>644.0</ele><time>2026-03-29T10:58:08.001Z</time></trkpt><trkpt lat="45.435872224077045" lon="7.723339952438773"><ele>648.0</ele><time>2026-03-29T10:58:11.001Z</time></trkpt></trkseg></trk></gpx>